PWSweather.com
Personal Weather Stations
Station Observations

Enon Chester, VA 23836

Lat: 37.3609267, Lon: -77.31545840000001

Elevation: 89

Station Type: Acurite

http://www.wunderground.com/personal-weather-station/dashboard?ID=KVACHEST67

High Low Average
Temperature 57.6°F14.2°C 23.7°F-4.6°C 42.2°F5.7°C
Dew Point 56.8°F13.8°C 8.4°F-13.1°C 34.1°F1.2°C
Winds 20.2 mph 32.5 kmh Calm Calm 7.0 mph S11.3 kmh S
Wind Gusts 20.2 mph32.5 kmh 2.7 mph4.3 kmh 12.0 mph19.3 kmh
Humidity 99% 47% 74%
Pressure 30.50 in1032.8 mb 29.52 in999.7 mb -
Precipitation 0.01 in0.3 mm - -
Hour Temp Dew Point Humidity Winds Wind Gusts Pressure Precip Precip Rate Daily Precip Total
12:00 AM 57.6°F14.2°C 56.8°F13.8°C 97% 4.2 mph SW6.8 kmh SW 10.9 mph17.5 kmh 29.55 in1000.7 mb 0.08 in2.0 mm 0.00 in0.0 mm 0.08 in2.0 mm
12:01 AM 57.6°F14.2°C 56.8°F13.8°C 97% 2.2 mph SW3.5 kmh SW 10.9 mph17.5 kmh 29.55 in1000.7 mb 0.08 in2.0 mm 0.00 in0.0 mm 0.08 in2.0 mm
12:02 AM 57.6°F14.2°C 56.8°F13.8°C 97% 2.2 mph SW3.5 kmh SW 5.8 mph9.3 kmh 29.55 in1000.7 mb 0.07 in1.8 mm 0.00 in0.0 mm 0.08 in2.0 mm
12:03 AM 57.4°F14.1°C 56.6°F13.7°C 97% 3.2 mph NNW5.1 kmh NNW 5.8 mph9.3 kmh 29.55 in1000.7 mb 0.07 in1.8 mm 0.00 in0.0 mm 0.08 in2.0 mm
12:04 AM 57.4°F14.1°C 56.6°F13.7°C 97% 1.7 mph W2.7 kmh W 5.8 mph9.3 kmh 29.55 in1000.7 mb 0.06 in1.5 mm 0.00 in0.0 mm 0.08 in2.0 mm
12:05 AM 57.4°F14.1°C 56.6°F13.7°C 97% 1.1 mph S1.8 kmh S 5.8 mph9.3 kmh 29.52 in999.7 mb 0.06 in1.5 mm 0.00 in0.0 mm 0.08 in2.0 mm
12:06 AM 57.4°F14.1°C 56.6°F13.7°C 97% 1.1 mph S1.8 kmh S 5.8 mph9.3 kmh 29.52 in999.7 mb 0.06 in1.5 mm 0.00 in0.0 mm 0.08 in2.0 mm
12:07 AM 57.4°F14.1°C 56.6°F13.7°C 97% 1.7 mph SSW2.7 kmh SSW 4.7 mph7.6 kmh 29.52 in999.7 mb 0.05 in1.3 mm 0.00 in0.0 mm 0.08 in2.0 mm
12:08 AM 57.4°F14.1°C 56.6°F13.7°C 97% 1.7 mph NNE2.7 kmh NNE 4.7 mph7.6 kmh 29.52 in999.7 mb 0.05 in1.3 mm 0.00 in0.0 mm 0.08 in2.0 mm
12:09 AM 57.4°F14.1°C 56.6°F13.7°C 97% 2.2 mph WSW3.5 kmh WSW 4.7 mph7.6 kmh 29.52 in999.7 mb 0.05 in1.3 mm 0.00 in0.0 mm 0.08 in2.0 mm
12:10 AM 57.4°F14.1°C 56.6°F13.7°C 97% 2.7 mph SSW4.3 kmh SSW 4.7 mph7.6 kmh 29.52 in999.7 mb 0.05 in1.3 mm 0.00 in0.0 mm 0.08 in2.0 mm
12:11 AM 57.2°F14.0°C 56.4°F13.6°C 97% 1.7 mph ESE2.7 kmh ESE 4.7 mph7.6 kmh 29.52 in999.7 mb 0.05 in1.3 mm 0.00 in0.0 mm 0.08 in2.0 mm
12:12 AM 57.2°F14.0°C 56.6°F13.7°C 98% 1.7 mph S2.7 kmh S 4.7 mph7.6 kmh 29.52 in999.7 mb 0.04 in1.0 mm 0.00 in0.0 mm 0.08 in2.0 mm
12:13 AM 57.2°F14.0°C 56.6°F13.7°C 98% 1.1 mph WSW1.8 kmh WSW 3.2 mph5.1 kmh 29.52 in999.7 mb 0.04 in1.0 mm 0.00 in0.0 mm 0.08 in2.0 mm
12:14 AM 57.2°F14.0°C 56.6°F13.7°C 98% Calm Calm 2.7 mph4.3 kmh 29.52 in999.7 mb 0.04 in1.0 mm 0.00 in0.0 mm 0.08 in2.0 mm
12:15 AM 57.2°F14.0°C 56.6°F13.7°C 98% 1.7 mph NE2.7 kmh NE 2.7 mph4.3 kmh 29.52 in999.7 mb 0.04 in1.0 mm 0.00 in0.0 mm 0.08 in2.0 mm
12:16 AM 57.2°F14.0°C 56.6°F13.7°C 98% 1.7 mph S2.7 kmh S 2.7 mph4.3 kmh 29.52 in999.7 mb 0.04 in1.0 mm 0.00 in0.0 mm 0.08 in2.0 mm
12:17 AM 57.2°F14.0°C 56.6°F13.7°C 98% Calm Calm 2.7 mph4.3 kmh 29.52 in999.7 mb 0.04 in1.0 mm 0.00 in0.0 mm 0.08 in2.0 mm
12:18 AM 57.2°F14.0°C 56.6°F13.7°C 98% 1.1 mph NNE1.8 kmh NNE 2.7 mph4.3 kmh 29.52 in999.7 mb 0.03 in0.8 mm 0.00 in0.0 mm 0.08 in2.0 mm
12:19 AM 57.2°F14.0°C 56.6°F13.7°C 98% 2.2 mph SSE3.5 kmh SSE 2.7 mph4.3 kmh 29.52 in999.7 mb 0.03 in0.8 mm 0.00 in0.0 mm 0.08 in2.0 mm
12:20 AM 57.2°F14.0°C 56.6°F13.7°C 98% Calm Calm 2.7 mph4.3 kmh 29.52 in999.7 mb 0.03 in0.8 mm 0.00 in0.0 mm 0.08 in2.0 mm
12:21 AM 57.0°F13.9°C 56.4°F13.6°C 98% 1.7 mph SSE2.7 kmh SSE 3.2 mph5.1 kmh 29.52 in999.7 mb 0.03 in0.8 mm 0.00 in0.0 mm 0.08 in2.0 mm
12:22 AM 57.0°F13.9°C 56.4°F13.6°C 98% 1.7 mph ESE2.7 kmh ESE 3.2 mph5.1 kmh 29.52 in999.7 mb 0.03 in0.8 mm 0.00 in0.0 mm 0.08 in2.0 mm
12:23 AM 57.0°F13.9°C 56.4°F13.6°C 98% 2.2 mph NNE3.5 kmh NNE 3.2 mph5.1 kmh 29.52 in999.7 mb 0.03 in0.8 mm 0.00 in0.0 mm 0.08 in2.0 mm
12:24 AM 57.0°F13.9°C 56.4°F13.6°C 98% Calm Calm 3.2 mph5.1 kmh 29.52 in999.7 mb 0.03 in0.8 mm 0.00 in0.0 mm 0.08 in2.0 mm
12:25 AM 57.0°F13.9°C 56.4°F13.6°C 98% 2.2 mph E3.5 kmh E 3.2 mph5.1 kmh 29.52 in999.7 mb 0.03 in0.8 mm 0.00 in0.0 mm 0.08 in2.0 mm
12:26 AM 57.0°F13.9°C 56.4°F13.6°C 98% 2.2 mph E3.5 kmh E 3.2 mph5.1 kmh 29.52 in999.7 mb 0.02 in0.5 mm 0.00 in0.0 mm 0.08 in2.0 mm
12:27 AM 57.0°F13.9°C 56.4°F13.6°C 98% 3.7 mph NNW6.0 kmh NNW 3.7 mph6.0 kmh 29.52 in999.7 mb 0.02 in0.5 mm 0.00 in0.0 mm 0.08 in2.0 mm
12:28 AM 57.0°F13.9°C 56.4°F13.6°C 98% 1.1 mph W1.8 kmh W 3.7 mph6.0 kmh 29.53 in1000.0 mb 0.02 in0.5 mm 0.00 in0.0 mm 0.08 in2.0 mm
12:29 AM 57.0°F13.9°C 56.4°F13.6°C 98% 1.7 mph SW2.7 kmh SW 3.7 mph6.0 kmh 29.53 in1000.0 mb 0.02 in0.5 mm 0.00 in0.0 mm 0.08 in2.0 mm
12:30 AM 57.0°F13.9°C 56.4°F13.6°C 98% 2.7 mph W4.3 kmh W 3.7 mph6.0 kmh 29.53 in1000.0 mb 0.02 in0.5 mm 0.00 in0.0 mm 0.08 in2.0 mm
12:31 AM 57.0°F13.9°C 56.4°F13.6°C 98% 2.2 mph NE3.5 kmh NE 4.7 mph7.6 kmh 29.53 in1000.0 mb 0.02 in0.5 mm 0.00 in0.0 mm 0.08 in2.0 mm
12:32 AM 56.8°F13.8°C 56.2°F13.4°C 98% 2.2 mph N3.5 kmh N 4.7 mph7.6 kmh 29.53 in1000.0 mb 0.02 in0.5 mm 0.00 in0.0 mm 0.08 in2.0 mm
12:33 AM 56.8°F13.8°C 56.2°F13.4°C 98% 4.2 mph W6.8 kmh W 4.7 mph7.6 kmh 29.53 in1000.0 mb 0.02 in0.5 mm 0.00 in0.0 mm 0.08 in2.0 mm
12:34 AM 56.8°F13.8°C 56.2°F13.4°C 98% 1.1 mph SSW1.8 kmh SSW 4.7 mph7.6 kmh 29.53 in1000.0 mb 0.02 in0.5 mm 0.00 in0.0 mm 0.08 in2.0 mm
12:35 AM 56.8°F13.8°C 56.2°F13.4°C 98% 2.2 mph SSE3.5 kmh SSE 4.7 mph7.6 kmh 29.53 in1000.0 mb 0.02 in0.5 mm 0.00 in0.0 mm 0.08 in2.0 mm
12:36 AM 56.8°F13.8°C 56.2°F13.4°C 98% 1.7 mph W2.7 kmh W 4.7 mph7.6 kmh 29.53 in1000.0 mb 0.02 in0.5 mm 0.00 in0.0 mm 0.08 in2.0 mm
12:37 AM 56.8°F13.8°C 56.2°F13.4°C 98% 2.7 mph W4.3 kmh W 4.7 mph7.6 kmh 29.53 in1000.0 mb 0.02 in0.5 mm 0.00 in0.0 mm 0.08 in2.0 mm
12:38 AM 56.8°F13.8°C 56.2°F13.4°C 98% 3.7 mph S6.0 kmh S 4.7 mph7.6 kmh 29.53 in1000.0 mb 0.02 in0.5 mm 0.00 in0.0 mm 0.08 in2.0 mm
12:39 AM 56.8°F13.8°C 56.2°F13.4°C 98% 3.7 mph WNW6.0 kmh WNW 4.7 mph7.6 kmh 29.53 in1000.0 mb 0.02 in0.5 mm 0.00 in0.0 mm 0.08 in2.0 mm
12:40 AM 56.7°F13.7°C 56.1°F13.4°C 98% 2.7 mph ESE4.3 kmh ESE 4.7 mph7.6 kmh 29.53 in1000.0 mb 0.02 in0.5 mm 0.00 in0.0 mm 0.08 in2.0 mm
12:41 AM 56.7°F13.7°C 56.1°F13.4°C 98% 2.2 mph W3.5 kmh W 4.7 mph7.6 kmh 29.53 in1000.0 mb 0.02 in0.5 mm 0.00 in0.0 mm 0.08 in2.0 mm
12:42 AM 56.7°F13.7°C 56.1°F13.4°C 98% 3.2 mph W5.1 kmh W 4.7 mph7.6 kmh 29.53 in1000.0 mb 0.01 in0.3 mm 0.00 in0.0 mm 0.08 in2.0 mm
12:43 AM 56.7°F13.7°C 56.1°F13.4°C 98% 4.7 mph NNE7.6 kmh NNE 4.7 mph7.6 kmh 29.53 in1000.0 mb 0.01 in0.3 mm 0.00 in0.0 mm 0.08 in2.0 mm
12:44 AM 56.7°F13.7°C 56.1°F13.4°C 98% 1.1 mph W1.8 kmh W 4.7 mph7.6 kmh 29.53 in1000.0 mb 0.01 in0.3 mm 0.00 in0.0 mm 0.08 in2.0 mm
12:45 AM 56.7°F13.7°C 56.1°F13.4°C 98% 1.7 mph NNE2.7 kmh NNE 4.7 mph7.6 kmh 29.53 in1000.0 mb 0.01 in0.3 mm 0.00 in0.0 mm 0.08 in2.0 mm
12:46 AM 56.7°F13.7°C 56.1°F13.4°C 98% 1.1 mph ESE1.8 kmh ESE 4.7 mph7.6 kmh 29.53 in1000.0 mb 0.01 in0.3 mm 0.00 in0.0 mm 0.08 in2.0 mm
12:47 AM 56.5°F13.6°C 55.9°F13.3°C 98% 1.7 mph NNE2.7 kmh NNE 4.7 mph7.6 kmh 29.53 in1000.0 mb 0.01 in0.3 mm 0.00 in0.0 mm 0.08 in2.0 mm
12:48 AM 56.5°F13.6°C 55.9°F13.3°C 98% 3.7 mph NNW6.0 kmh NNW 4.7 mph7.6 kmh 29.53 in1000.0 mb 0.01 in0.3 mm 0.00 in0.0 mm 0.08 in2.0 mm
12:49 AM 56.5°F13.6°C 55.9°F13.3°C 98% 2.7 mph ESE4.3 kmh ESE 4.7 mph7.6 kmh 29.53 in1000.0 mb 0.01 in0.3 mm 0.00 in0.0 mm 0.08 in2.0 mm
12:50 AM 56.5°F13.6°C 55.9°F13.3°C 98% 1.7 mph E2.7 kmh E 4.7 mph7.6 kmh 29.53 in1000.0 mb 0.01 in0.3 mm 0.00 in0.0 mm 0.08 in2.0 mm
12:51 AM 56.5°F13.6°C 55.9°F13.3°C 98% 1.7 mph SW2.7 kmh SW 4.7 mph7.6 kmh 29.53 in1000.0 mb 0.01 in0.3 mm 0.00 in0.0 mm 0.08 in2.0 mm
12:52 AM 56.3°F13.5°C 55.7°F13.2°C 98% 2.2 mph NNE3.5 kmh NNE 4.7 mph7.6 kmh 29.53 in1000.0 mb 0.01 in0.3 mm 0.00 in0.0 mm 0.08 in2.0 mm
12:53 AM 56.3°F13.5°C 55.7°F13.2°C 98% 1.7 mph W2.7 kmh W 3.7 mph6.0 kmh 29.53 in1000.0 mb 0.01 in0.3 mm 0.00 in0.0 mm 0.08 in2.0 mm
12:54 AM 56.3°F13.5°C 55.7°F13.2°C 98% 1.7 mph E2.7 kmh E 3.7 mph6.0 kmh 29.53 in1000.0 mb 0.01 in0.3 mm 0.00 in0.0 mm 0.08 in2.0 mm
12:55 AM 56.3°F13.5°C 55.7°F13.2°C 98% 1.7 mph SSE2.7 kmh SSE 3.7 mph6.0 kmh 29.53 in1000.0 mb 0.01 in0.3 mm 0.00 in0.0 mm 0.08 in2.0 mm
12:56 AM 56.3°F13.5°C 55.7°F13.2°C 98% 2.2 mph E3.5 kmh E 3.7 mph6.0 kmh 29.53 in1000.0 mb 0.01 in0.3 mm 0.00 in0.0 mm 0.08 in2.0 mm
12:57 AM 56.3°F13.5°C 55.7°F13.2°C 98% 1.7 mph NNE2.7 kmh NNE 3.7 mph6.0 kmh 29.53 in1000.0 mb 0.00 in0.0 mm 0.00 in0.0 mm 0.08 in2.0 mm
12:58 AM 56.3°F13.5°C 55.7°F13.2°C 98% 2.7 mph NNE4.3 kmh NNE 3.7 mph6.0 kmh 29.53 in1000.0 mb 0.00 in0.0 mm 0.00 in0.0 mm 0.08 in2.0 mm
12:59 AM 56.3°F13.5°C 55.7°F13.2°C 98% 1.7 mph ESE2.7 kmh ESE 2.7 mph4.3 kmh 29.53 in1000.0 mb 0.00 in0.0 mm 0.00 in0.0 mm 0.08 in2.0 mm
01:00 AM 56.3°F13.5°C 55.7°F13.2°C 98% 1.7 mph WSW2.7 kmh WSW 3.7 mph6.0 kmh 29.53 in1000.0 mb 0.00 in0.0 mm 0.00 in0.0 mm 0.08 in2.0 mm
01:01 AM 56.3°F13.5°C 55.7°F13.2°C 98% 1.1 mph W1.8 kmh W 3.7 mph6.0 kmh 29.53 in1000.0 mb 0.00 in0.0 mm 0.00 in0.0 mm 0.08 in2.0 mm
01:02 AM 56.3°F13.5°C 56.0°F13.3°C 99% 3.7 mph W6.0 kmh W 3.7 mph6.0 kmh 29.53 in1000.0 mb 0.00 in0.0 mm 0.00 in0.0 mm 0.08 in2.0 mm
01:03 AM 56.3°F13.5°C 56.0°F13.3°C 99% 5.3 mph S8.5 kmh S 5.3 mph8.5 kmh 29.53 in1000.0 mb 0.00 in0.0 mm 0.00 in0.0 mm 0.08 in2.0 mm
01:04 AM 56.3°F13.5°C 56.0°F13.3°C 99% 3.2 mph SSE5.1 kmh SSE 5.3 mph8.5 kmh 29.53 in1000.0 mb 0.00 in0.0 mm 0.00 in0.0 mm 0.08 in2.0 mm
01:05 AM 56.3°F13.5°C 56.0°F13.3°C 99% 2.7 mph E4.3 kmh E 5.3 mph8.5 kmh 29.54 in1000.3 mb 0.00 in0.0 mm 0.00 in0.0 mm 0.08 in2.0 mm
01:06 AM 56.3°F13.5°C 56.0°F13.3°C 99% 4.2 mph WSW6.8 kmh WSW 5.3 mph8.5 kmh 29.54 in1000.3 mb 0.00 in0.0 mm 0.00 in0.0 mm 0.08 in2.0 mm
01:07 AM 56.3°F13.5°C 56.0°F13.3°C 99% 2.7 mph NNW4.3 kmh NNW 5.3 mph8.5 kmh 29.54 in1000.3 mb 0.00 in0.0 mm 0.00 in0.0 mm 0.08 in2.0 mm
01:08 AM 56.3°F13.5°C 56.0°F13.3°C 99% 5.3 mph WNW8.5 kmh WNW 5.3 mph8.5 kmh 29.54 in1000.3 mb 0.00 in0.0 mm 0.00 in0.0 mm 0.08 in2.0 mm
01:09 AM 56.3°F13.5°C 56.0°F13.3°C 99% 2.7 mph W4.3 kmh W 6.8 mph10.9 kmh 29.54 in1000.3 mb 0.00 in0.0 mm 0.00 in0.0 mm 0.08 in2.0 mm
01:10 AM 56.3°F13.5°C 56.0°F13.3°C 99% 3.7 mph NNE6.0 kmh NNE 6.8 mph10.9 kmh 29.54 in1000.3 mb 0.00 in0.0 mm 0.00 in0.0 mm 0.08 in2.0 mm
01:11 AM 56.3°F13.5°C 56.0°F13.3°C 99% 2.7 mph WNW4.3 kmh WNW 9.4 mph15.1 kmh 29.54 in1000.3 mb 0.00 in0.0 mm 0.00 in0.0 mm 0.08 in2.0 mm
01:12 AM 56.3°F13.5°C 56.0°F13.3°C 99% 4.2 mph SSE6.8 kmh SSE 9.4 mph15.1 kmh 29.54 in1000.3 mb 0.00 in0.0 mm 0.00 in0.0 mm 0.08 in2.0 mm
01:13 AM 56.3°F13.5°C 56.0°F13.3°C 99% 3.7 mph W6.0 kmh W 9.4 mph15.1 kmh 29.54 in1000.3 mb 0.00 in0.0 mm 0.00 in0.0 mm 0.08 in2.0 mm
01:14 AM 56.3°F13.5°C 56.0°F13.3°C 99% 4.2 mph ENE6.8 kmh ENE 9.4 mph15.1 kmh 29.54 in1000.3 mb 0.00 in0.0 mm 0.00 in0.0 mm 0.08 in2.0 mm
01:15 AM 56.3°F13.5°C 56.0°F13.3°C 99% 2.7 mph S4.3 kmh S 9.4 mph15.1 kmh 29.54 in1000.3 mb 0.00 in0.0 mm 0.00 in0.0 mm 0.08 in2.0 mm
01:16 AM 56.3°F13.5°C 56.0°F13.3°C 99% 4.2 mph W6.8 kmh W 9.4 mph15.1 kmh 29.53 in1000.0 mb 0.00 in0.0 mm 0.00 in0.0 mm 0.08 in2.0 mm
01:17 AM 56.3°F13.5°C 56.0°F13.3°C 99% 3.2 mph NE5.1 kmh NE 9.4 mph15.1 kmh 29.53 in1000.0 mb 0.00 in0.0 mm 0.00 in0.0 mm 0.08 in2.0 mm
01:18 AM 56.1°F13.4°C 55.8°F13.2°C 99% 5.8 mph W9.3 kmh W 9.4 mph15.1 kmh 29.53 in1000.0 mb 0.00 in0.0 mm 0.00 in0.0 mm 0.08 in2.0 mm
01:19 AM 56.1°F13.4°C 55.8°F13.2°C 99% 4.7 mph WSW7.6 kmh WSW 9.4 mph15.1 kmh 29.53 in1000.0 mb 0.00 in0.0 mm 0.00 in0.0 mm 0.08 in2.0 mm
01:20 AM 56.1°F13.4°C 55.8°F13.2°C 99% 3.2 mph NE5.1 kmh NE 9.4 mph15.1 kmh 29.53 in1000.0 mb 0.00 in0.0 mm 0.00 in0.0 mm 0.08 in2.0 mm
01:21 AM 56.1°F13.4°C 55.8°F13.2°C 99% 3.2 mph NW5.1 kmh NW 7.8 mph12.6 kmh 29.53 in1000.0 mb 0.00 in0.0 mm 0.00 in0.0 mm 0.08 in2.0 mm
01:22 AM 56.1°F13.4°C 55.8°F13.2°C 99% 5.3 mph W8.5 kmh W 7.8 mph12.6 kmh 29.53 in1000.0 mb 0.00 in0.0 mm 0.00 in0.0 mm 0.08 in2.0 mm
01:23 AM 56.1°F13.4°C 55.8°F13.2°C 99% 6.3 mph SW10.1 kmh SW 7.8 mph12.6 kmh 29.53 in1000.0 mb 0.00 in0.0 mm 0.00 in0.0 mm 0.08 in2.0 mm
01:24 AM 56.1°F13.4°C 55.8°F13.2°C 99% 4.2 mph W6.8 kmh W 7.8 mph12.6 kmh 29.53 in1000.0 mb 0.00 in0.0 mm 0.00 in0.0 mm 0.08 in2.0 mm
01:25 AM 55.9°F13.3°C 55.6°F13.1°C 99% 4.2 mph WNW6.8 kmh WNW 7.8 mph12.6 kmh 29.53 in1000.0 mb 0.00 in0.0 mm 0.00 in0.0 mm 0.08 in2.0 mm
01:26 AM 55.9°F13.3°C 55.6°F13.1°C 99% 2.7 mph WSW4.3 kmh WSW 7.8 mph12.6 kmh 29.53 in1000.0 mb 0.00 in0.0 mm 0.00 in0.0 mm 0.08 in2.0 mm
01:27 AM 55.9°F13.3°C 55.6°F13.1°C 99% 8.3 mph W13.4 kmh W 8.3 mph13.4 kmh 29.53 in1000.0 mb 0.00 in0.0 mm 0.00 in0.0 mm 0.08 in2.0 mm
01:28 AM 55.9°F13.3°C 55.6°F13.1°C 99% 4.7 mph SE7.6 kmh SE 8.3 mph13.4 kmh 29.53 in1000.0 mb 0.00 in0.0 mm 0.00 in0.0 mm 0.08 in2.0 mm
01:29 AM 55.9°F13.3°C 55.6°F13.1°C 99% 4.2 mph N6.8 kmh N 8.3 mph13.4 kmh 29.53 in1000.0 mb 0.00 in0.0 mm 0.00 in0.0 mm 0.08 in2.0 mm
01:30 AM 55.9°F13.3°C 55.6°F13.1°C 99% 4.7 mph NW7.6 kmh NW 8.3 mph13.4 kmh 29.53 in1000.0 mb 0.00 in0.0 mm 0.00 in0.0 mm 0.08 in2.0 mm
01:31 AM 55.9°F13.3°C 55.6°F13.1°C 99% 5.3 mph W8.5 kmh W 8.3 mph13.4 kmh 29.53 in1000.0 mb 0.00 in0.0 mm 0.00 in0.0 mm 0.08 in2.0 mm
01:32 AM 55.9°F13.3°C 55.6°F13.1°C 99% 2.7 mph NNE4.3 kmh NNE 8.3 mph13.4 kmh 29.53 in1000.0 mb 0.00 in0.0 mm 0.00 in0.0 mm 0.08 in2.0 mm
01:33 AM 55.9°F13.3°C 55.6°F13.1°C 99% 4.7 mph S7.6 kmh S 8.3 mph13.4 kmh 29.53 in1000.0 mb 0.00 in0.0 mm 0.00 in0.0 mm 0.08 in2.0 mm
01:34 AM 55.9°F13.3°C 55.6°F13.1°C 99% 2.7 mph ESE4.3 kmh ESE 8.3 mph13.4 kmh 29.53 in1000.0 mb 0.00 in0.0 mm 0.00 in0.0 mm 0.08 in2.0 mm
01:35 AM 55.9°F13.3°C 55.6°F13.1°C 99% 2.2 mph NNW3.5 kmh NNW 8.3 mph13.4 kmh 29.53 in1000.0 mb 0.00 in0.0 mm 0.00 in0.0 mm 0.08 in2.0 mm
01:36 AM 55.9°F13.3°C 55.6°F13.1°C 99% 7.3 mph NW11.7 kmh NW 8.3 mph13.4 kmh 29.53 in1000.0 mb 0.00 in0.0 mm 0.00 in0.0 mm 0.08 in2.0 mm
01:37 AM 55.9°F13.3°C 55.6°F13.1°C 99% 3.7 mph W6.0 kmh W 8.3 mph13.4 kmh 29.53 in1000.0 mb 0.00 in0.0 mm 0.00 in0.0 mm 0.08 in2.0 mm
01:38 AM 55.9°F13.3°C 55.6°F13.1°C 99% 3.7 mph ESE6.0 kmh ESE 7.3 mph11.7 kmh 29.53 in1000.0 mb 0.00 in0.0 mm 0.00 in0.0 mm 0.08 in2.0 mm
01:39 AM 55.9°F13.3°C 55.6°F13.1°C 99% 4.2 mph SW6.8 kmh SW 7.3 mph11.7 kmh 29.53 in1000.0 mb 0.00 in0.0 mm 0.00 in0.0 mm 0.08 in2.0 mm
01:40 AM 55.9°F13.3°C 55.6°F13.1°C 99% 5.8 mph WNW9.3 kmh WNW 7.3 mph11.7 kmh 29.53 in1000.0 mb 0.00 in0.0 mm 0.00 in0.0 mm 0.08 in2.0 mm
01:41 AM 55.9°F13.3°C 55.6°F13.1°C 99% 3.7 mph W6.0 kmh W 7.3 mph11.7 kmh 29.54 in1000.3 mb 0.00 in0.0 mm 0.00 in0.0 mm 0.08 in2.0 mm
01:42 AM 55.9°F13.3°C 55.6°F13.1°C 99% 3.7 mph NW6.0 kmh NW 7.8 mph12.6 kmh 29.54 in1000.3 mb 0.00 in0.0 mm 0.00 in0.0 mm 0.08 in2.0 mm
01:43 AM 55.9°F13.3°C 55.6°F13.1°C 99% 6.3 mph ESE10.1 kmh ESE 7.8 mph12.6 kmh 29.54 in1000.3 mb 0.00 in0.0 mm 0.00 in0.0 mm 0.08 in2.0 mm
01:44 AM 55.9°F13.3°C 55.6°F13.1°C 99% 6.3 mph WNW10.1 kmh WNW 7.8 mph12.6 kmh 29.54 in1000.3 mb 0.00 in0.0 mm 0.00 in0.0 mm 0.08 in2.0 mm
01:45 AM 55.9°F13.3°C 55.6°F13.1°C 99% 6.3 mph W10.1 kmh W 7.8 mph12.6 kmh 29.54 in1000.3 mb 0.00 in0.0 mm 0.00 in0.0 mm 0.08 in2.0 mm
01:46 AM 55.9°F13.3°C 55.6°F13.1°C 99% 3.2 mph SE5.1 kmh SE 7.8 mph12.6 kmh 29.54 in1000.3 mb 0.00 in0.0 mm 0.00 in0.0 mm 0.08 in2.0 mm
01:47 AM 55.9°F13.3°C 55.6°F13.1°C 99% 3.7 mph W6.0 kmh W 7.8 mph12.6 kmh 29.54 in1000.3 mb 0.00 in0.0 mm 0.00 in0.0 mm 0.08 in2.0 mm
01:48 AM 55.9°F13.3°C 55.6°F13.1°C 99% 3.7 mph SSW6.0 kmh SSW 7.8 mph12.6 kmh 29.54 in1000.3 mb 0.00 in0.0 mm 0.00 in0.0 mm 0.08 in2.0 mm
01:49 AM 55.9°F13.3°C 55.6°F13.1°C 99% 4.2 mph SSE6.8 kmh SSE 7.8 mph12.6 kmh 29.54 in1000.3 mb 0.00 in0.0 mm 0.00 in0.0 mm 0.08 in2.0 mm
01:50 AM 55.9°F13.3°C 55.6°F13.1°C 99% 1.7 mph SW2.7 kmh SW 7.8 mph12.6 kmh 29.54 in1000.3 mb 0.00 in0.0 mm 0.00 in0.0 mm 0.08 in2.0 mm
01:51 AM 55.9°F13.3°C 55.6°F13.1°C 99% 9.9 mph W15.9 kmh W 9.9 mph15.9 kmh 29.54 in1000.3 mb 0.00 in0.0 mm 0.00 in0.0 mm 0.08 in2.0 mm
01:52 AM 56.1°F13.4°C 55.8°F13.2°C 99% 5.3 mph W8.5 kmh W 9.9 mph15.9 kmh 29.54 in1000.3 mb 0.00 in0.0 mm 0.00 in0.0 mm 0.08 in2.0 mm
01:53 AM 56.1°F13.4°C 55.8°F13.2°C 99% 3.2 mph S5.1 kmh S 9.9 mph15.9 kmh 29.54 in1000.3 mb 0.00 in0.0 mm 0.00 in0.0 mm 0.08 in2.0 mm
01:54 AM 56.1°F13.4°C 55.8°F13.2°C 99% 4.7 mph WSW7.6 kmh WSW 9.9 mph15.9 kmh 29.54 in1000.3 mb 0.00 in0.0 mm 0.00 in0.0 mm 0.08 in2.0 mm
01:55 AM 55.9°F13.3°C 55.6°F13.1°C 99% 4.7 mph SW7.6 kmh SW 9.9 mph15.9 kmh 29.54 in1000.3 mb 0.00 in0.0 mm 0.00 in0.0 mm 0.08 in2.0 mm
01:56 AM 55.9°F13.3°C 55.6°F13.1°C 99% 5.8 mph W9.3 kmh W 9.9 mph15.9 kmh 29.54 in1000.3 mb 0.00 in0.0 mm 0.00 in0.0 mm 0.08 in2.0 mm
01:57 AM 55.9°F13.3°C 55.6°F13.1°C 99% 6.3 mph SW10.1 kmh SW 9.9 mph15.9 kmh 29.54 in1000.3 mb 0.00 in0.0 mm 0.00 in0.0 mm 0.08 in2.0 mm
01:58 AM 55.9°F13.3°C 55.3°F12.9°C 98% 3.7 mph SW6.0 kmh SW 9.9 mph15.9 kmh 29.54 in1000.3 mb 0.00 in0.0 mm 0.00 in0.0 mm 0.08 in2.0 mm
01:59 AM 55.9°F13.3°C 55.3°F12.9°C 98% 3.2 mph NNE5.1 kmh NNE 9.9 mph15.9 kmh 29.54 in1000.3 mb 0.00 in0.0 mm 0.00 in0.0 mm 0.08 in2.0 mm
02:00 AM 55.9°F13.3°C 55.3°F12.9°C 98% 3.2 mph NW5.1 kmh NW 9.9 mph15.9 kmh 29.54 in1000.3 mb 0.00 in0.0 mm 0.00 in0.0 mm 0.08 in2.0 mm
02:01 AM 55.9°F13.3°C 55.3°F12.9°C 98% 8.3 mph SE13.4 kmh SE 9.9 mph15.9 kmh 29.54 in1000.3 mb 0.00 in0.0 mm 0.00 in0.0 mm 0.08 in2.0 mm
02:02 AM 55.9°F13.3°C 55.3°F12.9°C 98% 5.3 mph ESE8.5 kmh ESE 8.3 mph13.4 kmh 29.54 in1000.3 mb 0.00 in0.0 mm 0.00 in0.0 mm 0.08 in2.0 mm
02:03 AM 55.9°F13.3°C 55.3°F12.9°C 98% 6.8 mph ESE10.9 kmh ESE 8.3 mph13.4 kmh 29.54 in1000.3 mb 0.00 in0.0 mm 0.00 in0.0 mm 0.08 in2.0 mm
02:04 AM 55.9°F13.3°C 55.3°F12.9°C 98% 5.3 mph NW8.5 kmh NW 8.3 mph13.4 kmh 29.54 in1000.3 mb 0.00 in0.0 mm 0.00 in0.0 mm 0.08 in2.0 mm
02:05 AM 55.9°F13.3°C 55.3°F12.9°C 98% 3.2 mph NNW5.1 kmh NNW 8.3 mph13.4 kmh 29.54 in1000.3 mb 0.00 in0.0 mm 0.00 in0.0 mm 0.08 in2.0 mm
02:06 AM 55.9°F13.3°C 55.3°F12.9°C 98% 6.3 mph SW10.1 kmh SW 8.3 mph13.4 kmh 29.54 in1000.3 mb 0.00 in0.0 mm 0.00 in0.0 mm 0.08 in2.0 mm
02:07 AM 55.8°F13.2°C 55.2°F12.9°C 98% 2.7 mph W4.3 kmh W 8.3 mph13.4 kmh 29.54 in1000.3 mb 0.00 in0.0 mm 0.00 in0.0 mm 0.08 in2.0 mm
02:08 AM 55.8°F13.2°C 55.2°F12.9°C 98% 3.2 mph SW5.1 kmh SW 8.3 mph13.4 kmh 29.54 in1000.3 mb 0.00 in0.0 mm 0.00 in0.0 mm 0.08 in2.0 mm
02:09 AM 55.8°F13.2°C 55.2°F12.9°C 98% 3.2 mph SSE5.1 kmh SSE 8.3 mph13.4 kmh 29.54 in1000.3 mb 0.00 in0.0 mm 0.00 in0.0 mm 0.08 in2.0 mm
02:10 AM 55.8°F13.2°C 55.2°F12.9°C 98% 1.7 mph NNE2.7 kmh NNE 8.3 mph13.4 kmh 29.54 in1000.3 mb 0.00 in0.0 mm 0.00 in0.0 mm 0.08 in2.0 mm
02:11 AM 55.8°F13.2°C 55.2°F12.9°C 98% 8.3 mph SW13.4 kmh SW 8.3 mph13.4 kmh 29.54 in1000.3 mb 0.00 in0.0 mm 0.00 in0.0 mm 0.08 in2.0 mm
02:12 AM 55.8°F13.2°C 55.2°F12.9°C 98% 2.7 mph N4.3 kmh N 8.3 mph13.4 kmh 29.54 in1000.3 mb 0.00 in0.0 mm 0.00 in0.0 mm 0.08 in2.0 mm
02:13 AM 55.8°F13.2°C 55.2°F12.9°C 98% 6.3 mph W10.1 kmh W 8.3 mph13.4 kmh 29.54 in1000.3 mb 0.00 in0.0 mm 0.00 in0.0 mm 0.08 in2.0 mm
02:14 AM 55.8°F13.2°C 55.2°F12.9°C 98% 2.7 mph W4.3 kmh W 8.3 mph13.4 kmh 29.54 in1000.3 mb 0.00 in0.0 mm 0.00 in0.0 mm 0.08 in2.0 mm
02:15 AM 55.8°F13.2°C 55.2°F12.9°C 98% 3.7 mph SE6.0 kmh SE 8.3 mph13.4 kmh 29.54 in1000.3 mb 0.00 in0.0 mm 0.00 in0.0 mm 0.08 in2.0 mm
02:16 AM 55.8°F13.2°C 55.2°F12.9°C 98% 5.3 mph W8.5 kmh W 8.3 mph13.4 kmh 29.54 in1000.3 mb 0.00 in0.0 mm 0.00 in0.0 mm 0.08 in2.0 mm
02:17 AM 55.8°F13.2°C 55.2°F12.9°C 98% 3.2 mph SE5.1 kmh SE 8.3 mph13.4 kmh 29.54 in1000.3 mb 0.00 in0.0 mm 0.00 in0.0 mm 0.08 in2.0 mm
02:18 AM 55.8°F13.2°C 55.2°F12.9°C 98% 3.7 mph NW6.0 kmh NW 8.3 mph13.4 kmh 29.54 in1000.3 mb 0.00 in0.0 mm 0.00 in0.0 mm 0.08 in2.0 mm
02:19 AM 55.8°F13.2°C 55.2°F12.9°C 98% 2.7 mph WSW4.3 kmh WSW 8.3 mph13.4 kmh 29.54 in1000.3 mb 0.00 in0.0 mm 0.00 in0.0 mm 0.08 in2.0 mm
02:20 AM 55.8°F13.2°C 55.2°F12.9°C 98% 2.2 mph NE3.5 kmh NE 8.3 mph13.4 kmh 29.54 in1000.3 mb 0.00 in0.0 mm 0.00 in0.0 mm 0.08 in2.0 mm
02:21 AM 55.8°F13.2°C 55.2°F12.9°C 98% 5.8 mph WNW9.3 kmh WNW 6.8 mph10.9 kmh 29.54 in1000.3 mb 0.00 in0.0 mm 0.00 in0.0 mm 0.08 in2.0 mm
02:22 AM 55.8°F13.2°C 55.2°F12.9°C 98% 7.3 mph W11.7 kmh W 7.3 mph11.7 kmh 29.54 in1000.3 mb 0.00 in0.0 mm 0.00 in0.0 mm 0.08 in2.0 mm
02:23 AM 55.8°F13.2°C 55.2°F12.9°C 98% 4.2 mph NW6.8 kmh NW 7.3 mph11.7 kmh 29.54 in1000.3 mb 0.00 in0.0 mm 0.00 in0.0 mm 0.08 in2.0 mm
02:24 AM 55.8°F13.2°C 55.2°F12.9°C 98% 2.7 mph W4.3 kmh W 7.3 mph11.7 kmh 29.54 in1000.3 mb 0.00 in0.0 mm 0.00 in0.0 mm 0.08 in2.0 mm
02:25 AM 55.8°F13.2°C 55.2°F12.9°C 98% 3.7 mph W6.0 kmh W 7.3 mph11.7 kmh 29.54 in1000.3 mb 0.00 in0.0 mm 0.00 in0.0 mm 0.08 in2.0 mm
02:26 AM 55.8°F13.2°C 55.2°F12.9°C 98% 2.7 mph NE4.3 kmh NE 10.4 mph16.7 kmh 29.54 in1000.3 mb 0.00 in0.0 mm 0.00 in0.0 mm 0.08 in2.0 mm
02:27 AM 55.8°F13.2°C 55.0°F12.8°C 97% 4.2 mph W6.8 kmh W 10.4 mph16.7 kmh 29.54 in1000.3 mb 0.00 in0.0 mm 0.00 in0.0 mm 0.08 in2.0 mm
02:28 AM 55.8°F13.2°C 55.0°F12.8°C 97% 6.8 mph W10.9 kmh W 10.4 mph16.7 kmh 29.54 in1000.3 mb 0.00 in0.0 mm 0.00 in0.0 mm 0.08 in2.0 mm
02:29 AM 55.8°F13.2°C 55.0°F12.8°C 97% 3.7 mph SW6.0 kmh SW 10.4 mph16.7 kmh 29.54 in1000.3 mb 0.00 in0.0 mm 0.00 in0.0 mm 0.08 in2.0 mm
02:30 AM 55.6°F13.1°C 54.8°F12.7°C 97% 4.2 mph WNW6.8 kmh WNW 10.4 mph16.7 kmh 29.54 in1000.3 mb 0.00 in0.0 mm 0.00 in0.0 mm 0.08 in2.0 mm
02:31 AM 55.6°F13.1°C 54.8°F12.7°C 97% 3.2 mph WNW5.1 kmh WNW 10.4 mph16.7 kmh 29.54 in1000.3 mb 0.00 in0.0 mm 0.00 in0.0 mm 0.08 in2.0 mm
02:32 AM 55.6°F13.1°C 54.8°F12.7°C 97% 4.7 mph NW7.6 kmh NW 10.4 mph16.7 kmh 29.54 in1000.3 mb 0.00 in0.0 mm 0.00 in0.0 mm 0.08 in2.0 mm
02:33 AM 55.6°F13.1°C 54.8°F12.7°C 97% 3.7 mph ESE6.0 kmh ESE 10.4 mph16.7 kmh 29.54 in1000.3 mb 0.00 in0.0 mm 0.00 in0.0 mm 0.08 in2.0 mm
02:34 AM 55.6°F13.1°C 54.8°F12.7°C 97% 2.7 mph NE4.3 kmh NE 10.4 mph16.7 kmh 29.54 in1000.3 mb 0.00 in0.0 mm 0.00 in0.0 mm 0.08 in2.0 mm
02:35 AM 55.6°F13.1°C 54.8°F12.7°C 97% 3.7 mph SSW6.0 kmh SSW 10.4 mph16.7 kmh 29.54 in1000.3 mb 0.00 in0.0 mm 0.00 in0.0 mm 0.08 in2.0 mm
02:36 AM 55.6°F13.1°C 54.8°F12.7°C 97% 3.7 mph W6.0 kmh W 6.8 mph10.9 kmh 29.54 in1000.3 mb 0.00 in0.0 mm 0.00 in0.0 mm 0.08 in2.0 mm
02:37 AM 55.6°F13.1°C 54.8°F12.7°C 97% 9.9 mph S15.9 kmh S 9.9 mph15.9 kmh 29.54 in1000.3 mb 0.00 in0.0 mm 0.00 in0.0 mm 0.08 in2.0 mm
02:38 AM 55.6°F13.1°C 54.8°F12.7°C 97% 4.2 mph W6.8 kmh W 9.9 mph15.9 kmh 29.54 in1000.3 mb 0.00 in0.0 mm 0.00 in0.0 mm 0.08 in2.0 mm
02:39 AM 55.6°F13.1°C 54.8°F12.7°C 97% 6.3 mph NNE10.1 kmh NNE 9.9 mph15.9 kmh 29.54 in1000.3 mb 0.00 in0.0 mm 0.00 in0.0 mm 0.08 in2.0 mm
02:40 AM 55.6°F13.1°C 54.8°F12.7°C 97% 4.2 mph NNE6.8 kmh NNE 9.9 mph15.9 kmh 29.54 in1000.3 mb 0.00 in0.0 mm 0.00 in0.0 mm 0.08 in2.0 mm
02:41 AM 55.6°F13.1°C 54.8°F12.7°C 97% 3.2 mph W5.1 kmh W 9.9 mph15.9 kmh 29.54 in1000.3 mb 0.00 in0.0 mm 0.00 in0.0 mm 0.08 in2.0 mm
02:42 AM 55.6°F13.1°C 54.8°F12.7°C 97% 4.7 mph W7.6 kmh W 9.9 mph15.9 kmh 29.54 in1000.3 mb 0.00 in0.0 mm 0.00 in0.0 mm 0.08 in2.0 mm
02:43 AM 55.6°F13.1°C 54.8°F12.7°C 97% 2.7 mph E4.3 kmh E 9.9 mph15.9 kmh 29.54 in1000.3 mb 0.00 in0.0 mm 0.00 in0.0 mm 0.08 in2.0 mm
02:44 AM 55.6°F13.1°C 54.8°F12.7°C 97% 4.2 mph SE6.8 kmh SE 9.9 mph15.9 kmh 29.54 in1000.3 mb 0.00 in0.0 mm 0.00 in0.0 mm 0.08 in2.0 mm
02:45 AM 55.6°F13.1°C 54.8°F12.7°C 97% 3.7 mph SSW6.0 kmh SSW 9.9 mph15.9 kmh 29.54 in1000.3 mb 0.00 in0.0 mm 0.00 in0.0 mm 0.08 in2.0 mm
02:46 AM 55.6°F13.1°C 54.8°F12.7°C 97% 3.2 mph W5.1 kmh W 9.9 mph15.9 kmh 29.54 in1000.3 mb 0.00 in0.0 mm 0.00 in0.0 mm 0.08 in2.0 mm
02:47 AM 55.6°F13.1°C 54.8°F12.7°C 97% 3.7 mph SW6.0 kmh SW 6.8 mph10.9 kmh 29.54 in1000.3 mb 0.00 in0.0 mm 0.00 in0.0 mm 0.08 in2.0 mm
02:48 AM 55.6°F13.1°C 54.8°F12.7°C 97% 3.2 mph W5.1 kmh W 6.8 mph10.9 kmh 29.54 in1000.3 mb 0.00 in0.0 mm 0.00 in0.0 mm 0.08 in2.0 mm
02:49 AM 55.6°F13.1°C 54.8°F12.7°C 97% 2.7 mph S4.3 kmh S 6.8 mph10.9 kmh 29.54 in1000.3 mb 0.00 in0.0 mm 0.00 in0.0 mm 0.08 in2.0 mm
02:50 AM 55.6°F13.1°C 54.8°F12.7°C 97% 2.7 mph NNW4.3 kmh NNW 6.3 mph10.1 kmh 29.54 in1000.3 mb 0.00 in0.0 mm 0.00 in0.0 mm 0.08 in2.0 mm
02:51 AM 55.6°F13.1°C 54.8°F12.7°C 97% 2.7 mph SSW4.3 kmh SSW 6.3 mph10.1 kmh 29.54 in1000.3 mb 0.00 in0.0 mm 0.00 in0.0 mm 0.08 in2.0 mm
02:52 AM 55.6°F13.1°C 54.8°F12.7°C 97% 3.2 mph ENE5.1 kmh ENE 6.3 mph10.1 kmh 29.54 in1000.3 mb 0.00 in0.0 mm 0.00 in0.0 mm 0.08 in2.0 mm
02:53 AM 55.6°F13.1°C 54.8°F12.7°C 97% 5.8 mph SW9.3 kmh SW 7.8 mph12.6 kmh 29.54 in1000.3 mb 0.00 in0.0 mm 0.00 in0.0 mm 0.08 in2.0 mm
02:54 AM 55.6°F13.1°C 54.8°F12.7°C 97% 7.3 mph W11.7 kmh W 7.8 mph12.6 kmh 29.54 in1000.3 mb 0.00 in0.0 mm 0.00 in0.0 mm 0.08 in2.0 mm
02:55 AM 55.6°F13.1°C 54.8°F12.7°C 97% 6.3 mph W10.1 kmh W 7.8 mph12.6 kmh 29.54 in1000.3 mb 0.00 in0.0 mm 0.00 in0.0 mm 0.08 in2.0 mm
02:56 AM 55.6°F13.1°C 54.8°F12.7°C 97% 3.7 mph ENE6.0 kmh ENE 7.8 mph12.6 kmh 29.54 in1000.3 mb 0.00 in0.0 mm 0.00 in0.0 mm 0.08 in2.0 mm
02:57 AM 55.6°F13.1°C 54.8°F12.7°C 97% 5.3 mph W8.5 kmh W 7.8 mph12.6 kmh 29.54 in1000.3 mb 0.00 in0.0 mm 0.00 in0.0 mm 0.08 in2.0 mm
02:58 AM 55.6°F13.1°C 54.8°F12.7°C 97% 3.7 mph W6.0 kmh W 7.8 mph12.6 kmh 29.54 in1000.3 mb 0.00 in0.0 mm 0.00 in0.0 mm 0.08 in2.0 mm
02:59 AM 55.6°F13.1°C 54.8°F12.7°C 97% 3.7 mph W6.0 kmh W 7.8 mph12.6 kmh 29.54 in1000.3 mb 0.00 in0.0 mm 0.00 in0.0 mm 0.08 in2.0 mm
03:00 AM 55.6°F13.1°C 54.8°F12.7°C 97% 4.2 mph WSW6.8 kmh WSW 7.8 mph12.6 kmh 29.54 in1000.3 mb 0.00 in0.0 mm 0.00 in0.0 mm 0.08 in2.0 mm
03:01 AM 55.6°F13.1°C 54.8°F12.7°C 97% 3.7 mph SSW6.0 kmh SSW 7.8 mph12.6 kmh 29.54 in1000.3 mb 0.00 in0.0 mm 0.00 in0.0 mm 0.08 in2.0 mm
03:02 AM 55.6°F13.1°C 54.8°F12.7°C 97% 6.3 mph NNW10.1 kmh NNW 7.8 mph12.6 kmh 29.54 in1000.3 mb 0.00 in0.0 mm 0.00 in0.0 mm 0.08 in2.0 mm
03:03 AM 55.8°F13.2°C 55.0°F12.8°C 97% 5.3 mph SSW8.5 kmh SSW 11.4 mph18.3 kmh 29.54 in1000.3 mb 0.00 in0.0 mm 0.00 in0.0 mm 0.08 in2.0 mm
03:04 AM 55.8°F13.2°C 55.0°F12.8°C 97% 4.2 mph W6.8 kmh W 11.4 mph18.3 kmh 29.55 in1000.7 mb 0.00 in0.0 mm 0.00 in0.0 mm 0.08 in2.0 mm
03:05 AM 55.8°F13.2°C 55.0°F12.8°C 97% 2.2 mph W3.5 kmh W 11.4 mph18.3 kmh 29.55 in1000.7 mb 0.00 in0.0 mm 0.00 in0.0 mm 0.08 in2.0 mm
03:06 AM 55.8°F13.2°C 55.0°F12.8°C 97% 4.7 mph NW7.6 kmh NW 11.4 mph18.3 kmh 29.55 in1000.7 mb 0.00 in0.0 mm 0.00 in0.0 mm 0.08 in2.0 mm
03:07 AM 55.8°F13.2°C 55.0°F12.8°C 97% 7.8 mph WSW12.6 kmh WSW 11.4 mph18.3 kmh 29.55 in1000.7 mb 0.00 in0.0 mm 0.00 in0.0 mm 0.08 in2.0 mm
03:08 AM 55.8°F13.2°C 55.0°F12.8°C 97% 3.7 mph WSW6.0 kmh WSW 11.4 mph18.3 kmh 29.55 in1000.7 mb 0.00 in0.0 mm 0.00 in0.0 mm 0.08 in2.0 mm
03:09 AM 55.8°F13.2°C 55.0°F12.8°C 97% 3.7 mph NE6.0 kmh NE 11.4 mph18.3 kmh 29.55 in1000.7 mb 0.00 in0.0 mm 0.00 in0.0 mm 0.08 in2.0 mm
03:10 AM 55.8°F13.2°C 55.0°F12.8°C 97% 4.2 mph WNW6.8 kmh WNW 11.4 mph18.3 kmh 29.55 in1000.7 mb 0.00 in0.0 mm 0.00 in0.0 mm 0.08 in2.0 mm
03:11 AM 55.8°F13.2°C 55.0°F12.8°C 97% 8.3 mph WSW13.4 kmh WSW 11.4 mph18.3 kmh 29.55 in1000.7 mb 0.00 in0.0 mm 0.00 in0.0 mm 0.08 in2.0 mm
03:12 AM 55.8°F13.2°C 55.0°F12.8°C 97% 9.4 mph N15.1 kmh N 11.4 mph18.3 kmh 29.55 in1000.7 mb 0.00 in0.0 mm 0.00 in0.0 mm 0.08 in2.0 mm
03:13 AM 55.8°F13.2°C 54.7°F12.6°C 96% 3.2 mph WSW5.1 kmh WSW 9.4 mph15.1 kmh 29.55 in1000.7 mb 0.00 in0.0 mm 0.00 in0.0 mm 0.08 in2.0 mm
03:14 AM 55.8°F13.2°C 54.7°F12.6°C 96% 5.3 mph W8.5 kmh W 9.4 mph15.1 kmh 29.55 in1000.7 mb 0.00 in0.0 mm 0.00 in0.0 mm 0.08 in2.0 mm
03:15 AM 55.8°F13.2°C 54.7°F12.6°C 96% 11.4 mph W18.3 kmh W 11.4 mph18.3 kmh 29.55 in1000.7 mb 0.00 in0.0 mm 0.00 in0.0 mm 0.08 in2.0 mm
03:16 AM 55.8°F13.2°C 54.7°F12.6°C 96% 3.7 mph ENE6.0 kmh ENE 11.4 mph18.3 kmh 29.55 in1000.7 mb 0.00 in0.0 mm 0.00 in0.0 mm 0.08 in2.0 mm
03:17 AM 55.8°F13.2°C 54.7°F12.6°C 96% 3.7 mph ENE6.0 kmh ENE 11.4 mph18.3 kmh 29.55 in1000.7 mb 0.00 in0.0 mm 0.00 in0.0 mm 0.08 in2.0 mm
03:18 AM 55.8°F13.2°C 54.7°F12.6°C 96% 3.2 mph ESE5.1 kmh ESE 11.4 mph18.3 kmh 29.55 in1000.7 mb 0.00 in0.0 mm 0.00 in0.0 mm 0.08 in2.0 mm
03:19 AM 55.8°F13.2°C 54.7°F12.6°C 96% 6.3 mph W10.1 kmh W 11.4 mph18.3 kmh 29.55 in1000.7 mb 0.00 in0.0 mm 0.00 in0.0 mm 0.08 in2.0 mm
03:20 AM 55.8°F13.2°C 54.7°F12.6°C 96% 4.2 mph ESE6.8 kmh ESE 11.4 mph18.3 kmh 29.55 in1000.7 mb 0.00 in0.0 mm 0.00 in0.0 mm 0.08 in2.0 mm
03:21 AM 55.8°F13.2°C 54.7°F12.6°C 96% 4.2 mph SSE6.8 kmh SSE 11.4 mph18.3 kmh 29.55 in1000.7 mb 0.00 in0.0 mm 0.00 in0.0 mm 0.08 in2.0 mm
03:22 AM 55.8°F13.2°C 54.7°F12.6°C 96% 5.8 mph NW9.3 kmh NW 11.4 mph18.3 kmh 29.55 in1000.7 mb 0.00 in0.0 mm 0.00 in0.0 mm 0.08 in2.0 mm
03:23 AM 55.9°F13.3°C 54.8°F12.7°C 96% 4.2 mph SSW6.8 kmh SSW 11.4 mph18.3 kmh 29.55 in1000.7 mb 0.00 in0.0 mm 0.00 in0.0 mm 0.08 in2.0 mm
03:24 AM 55.9°F13.3°C 54.8°F12.7°C 96% 6.8 mph ESE10.9 kmh ESE 11.4 mph18.3 kmh 29.55 in1000.7 mb 0.00 in0.0 mm 0.00 in0.0 mm 0.08 in2.0 mm
03:25 AM 55.9°F13.3°C 54.8°F12.7°C 96% 4.2 mph SSE6.8 kmh SSE 11.4 mph18.3 kmh 29.55 in1000.7 mb 0.00 in0.0 mm 0.00 in0.0 mm 0.08 in2.0 mm
03:26 AM 55.9°F13.3°C 54.5°F12.5°C 95% 6.3 mph SW10.1 kmh SW 8.3 mph13.4 kmh 29.55 in1000.7 mb 0.00 in0.0 mm 0.00 in0.0 mm 0.08 in2.0 mm
03:27 AM 55.9°F13.3°C 54.5°F12.5°C 95% 4.2 mph W6.8 kmh W 8.3 mph13.4 kmh 29.55 in1000.7 mb 0.00 in0.0 mm 0.00 in0.0 mm 0.08 in2.0 mm
03:28 AM 55.9°F13.3°C 54.5°F12.5°C 95% 5.3 mph SSW8.5 kmh SSW 8.3 mph13.4 kmh 29.55 in1000.7 mb 0.00 in0.0 mm 0.00 in0.0 mm 0.08 in2.0 mm
03:29 AM 55.9°F13.3°C 54.5°F12.5°C 95% 4.7 mph SW7.6 kmh SW 7.8 mph12.6 kmh 29.56 in1001.0 mb 0.00 in0.0 mm 0.00 in0.0 mm 0.08 in2.0 mm
03:30 AM 55.9°F13.3°C 54.5°F12.5°C 95% 3.7 mph NW6.0 kmh NW 10.4 mph16.7 kmh 29.56 in1001.0 mb 0.00 in0.0 mm 0.00 in0.0 mm 0.08 in2.0 mm
03:31 AM 55.9°F13.3°C 54.5°F12.5°C 95% 4.7 mph WSW7.6 kmh WSW 10.4 mph16.7 kmh 29.56 in1001.0 mb 0.00 in0.0 mm 0.00 in0.0 mm 0.08 in2.0 mm
03:32 AM 55.9°F13.3°C 54.5°F12.5°C 95% 4.2 mph ESE6.8 kmh ESE 10.4 mph16.7 kmh 29.56 in1001.0 mb 0.00 in0.0 mm 0.00 in0.0 mm 0.08 in2.0 mm
03:33 AM 56.1°F13.4°C 54.7°F12.6°C 95% 6.3 mph W10.1 kmh W 10.4 mph16.7 kmh 29.56 in1001.0 mb 0.00 in0.0 mm 0.00 in0.0 mm 0.08 in2.0 mm
03:34 AM 56.1°F13.4°C 54.7°F12.6°C 95% 3.2 mph NE5.1 kmh NE 10.4 mph16.7 kmh 29.56 in1001.0 mb 0.00 in0.0 mm 0.00 in0.0 mm 0.08 in2.0 mm
03:35 AM 56.1°F13.4°C 54.7°F12.6°C 95% 4.2 mph W6.8 kmh W 10.4 mph16.7 kmh 29.56 in1001.0 mb 0.00 in0.0 mm 0.00 in0.0 mm 0.08 in2.0 mm
03:36 AM 56.1°F13.4°C 54.7°F12.6°C 95% 4.7 mph NNE7.6 kmh NNE 10.4 mph16.7 kmh 29.56 in1001.0 mb 0.00 in0.0 mm 0.00 in0.0 mm 0.08 in2.0 mm
03:37 AM 56.1°F13.4°C 54.7°F12.6°C 95% 8.9 mph WSW14.3 kmh WSW 10.4 mph16.7 kmh 29.56 in1001.0 mb 0.00 in0.0 mm 0.00 in0.0 mm 0.08 in2.0 mm
03:38 AM 56.1°F13.4°C 54.7°F12.6°C 95% 5.3 mph SW8.5 kmh SW 10.4 mph16.7 kmh 29.56 in1001.0 mb 0.00 in0.0 mm 0.00 in0.0 mm 0.08 in2.0 mm
03:39 AM 56.1°F13.4°C 54.7°F12.6°C 95% 6.8 mph WNW10.9 kmh WNW 10.4 mph16.7 kmh 29.56 in1001.0 mb 0.00 in0.0 mm 0.00 in0.0 mm 0.08 in2.0 mm
03:40 AM 56.1°F13.4°C 54.7°F12.6°C 95% 6.3 mph ESE10.1 kmh ESE 9.9 mph15.9 kmh 29.56 in1001.0 mb 0.00 in0.0 mm 0.00 in0.0 mm 0.08 in2.0 mm
03:41 AM 56.1°F13.4°C 54.7°F12.6°C 95% 3.7 mph NW6.0 kmh NW 9.9 mph15.9 kmh 29.56 in1001.0 mb 0.00 in0.0 mm 0.00 in0.0 mm 0.08 in2.0 mm
03:42 AM 56.1°F13.4°C 54.7°F12.6°C 95% 3.2 mph ESE5.1 kmh ESE 9.9 mph15.9 kmh 29.56 in1001.0 mb 0.00 in0.0 mm 0.00 in0.0 mm 0.08 in2.0 mm
03:43 AM 56.1°F13.4°C 54.7°F12.6°C 95% 4.7 mph SSE7.6 kmh SSE 9.9 mph15.9 kmh 29.56 in1001.0 mb 0.00 in0.0 mm 0.00 in0.0 mm 0.08 in2.0 mm
03:44 AM 56.1°F13.4°C 54.7°F12.6°C 95% 4.2 mph W6.8 kmh W 9.9 mph15.9 kmh 29.56 in1001.0 mb 0.00 in0.0 mm 0.00 in0.0 mm 0.08 in2.0 mm
03:45 AM 56.1°F13.4°C 54.7°F12.6°C 95% 12.5 mph SSW20.1 kmh SSW 12.5 mph20.1 kmh 29.56 in1001.0 mb 0.00 in0.0 mm 0.00 in0.0 mm 0.08 in2.0 mm
03:46 AM 56.1°F13.4°C 54.4°F12.4°C 94% 3.2 mph W5.1 kmh W 12.5 mph20.1 kmh 29.56 in1001.0 mb 0.00 in0.0 mm 0.00 in0.0 mm 0.08 in2.0 mm
03:47 AM 56.1°F13.4°C 54.4°F12.4°C 94% 2.7 mph ESE4.3 kmh ESE 12.5 mph20.1 kmh 29.56 in1001.0 mb 0.00 in0.0 mm 0.00 in0.0 mm 0.08 in2.0 mm
03:48 AM 56.1°F13.4°C 54.4°F12.4°C 94% 2.7 mph W4.3 kmh W 12.5 mph20.1 kmh 29.56 in1001.0 mb 0.00 in0.0 mm 0.00 in0.0 mm 0.08 in2.0 mm
03:49 AM 56.1°F13.4°C 54.4°F12.4°C 94% 3.7 mph W6.0 kmh W 12.5 mph20.1 kmh 29.56 in1001.0 mb 0.00 in0.0 mm 0.00 in0.0 mm 0.08 in2.0 mm
03:50 AM 56.1°F13.4°C 54.4°F12.4°C 94% 6.3 mph S10.1 kmh S 12.5 mph20.1 kmh 29.56 in1001.0 mb 0.00 in0.0 mm 0.00 in0.0 mm 0.08 in2.0 mm
03:51 AM 56.1°F13.4°C 54.4°F12.4°C 94% 6.3 mph SSW10.1 kmh SSW 12.5 mph20.1 kmh 29.56 in1001.0 mb 0.00 in0.0 mm 0.00 in0.0 mm 0.08 in2.0 mm
03:52 AM 56.1°F13.4°C 54.4°F12.4°C 94% 2.7 mph N4.3 kmh N 12.5 mph20.1 kmh 29.57 in1001.4 mb 0.00 in0.0 mm 0.00 in0.0 mm 0.08 in2.0 mm
03:53 AM 56.1°F13.4°C 54.4°F12.4°C 94% 4.7 mph W7.6 kmh W 12.5 mph20.1 kmh 29.57 in1001.4 mb 0.00 in0.0 mm 0.00 in0.0 mm 0.08 in2.0 mm
03:54 AM 56.1°F13.4°C 54.4°F12.4°C 94% 4.2 mph W6.8 kmh W 12.5 mph20.1 kmh 29.57 in1001.4 mb 0.00 in0.0 mm 0.00 in0.0 mm 0.08 in2.0 mm
03:55 AM 56.1°F13.4°C 54.4°F12.4°C 94% 5.3 mph NW8.5 kmh NW 11.4 mph18.3 kmh 29.57 in1001.4 mb 0.00 in0.0 mm 0.00 in0.0 mm 0.08 in2.0 mm
03:56 AM 56.1°F13.4°C 54.4°F12.4°C 94% 3.7 mph SE6.0 kmh SE 11.4 mph18.3 kmh 29.57 in1001.4 mb 0.00 in0.0 mm 0.00 in0.0 mm 0.08 in2.0 mm
03:57 AM 56.1°F13.4°C 54.4°F12.4°C 94% 5.3 mph SW8.5 kmh SW 11.4 mph18.3 kmh 29.57 in1001.4 mb 0.00 in0.0 mm 0.00 in0.0 mm 0.08 in2.0 mm
03:58 AM 56.1°F13.4°C 54.4°F12.4°C 94% 5.8 mph W9.3 kmh W 8.3 mph13.4 kmh 29.57 in1001.4 mb 0.00 in0.0 mm 0.00 in0.0 mm 0.08 in2.0 mm
03:59 AM 56.1°F13.4°C 54.4°F12.4°C 94% 3.2 mph WNW5.1 kmh WNW 8.3 mph13.4 kmh 29.57 in1001.4 mb 0.00 in0.0 mm 0.00 in0.0 mm 0.08 in2.0 mm
04:00 AM 56.1°F13.4°C 54.4°F12.4°C 94% 3.2 mph W5.1 kmh W 8.3 mph13.4 kmh 29.57 in1001.4 mb 0.00 in0.0 mm 0.00 in0.0 mm 0.08 in2.0 mm
04:01 AM 56.1°F13.4°C 54.4°F12.4°C 94% 3.7 mph W6.0 kmh W 8.3 mph13.4 kmh 29.57 in1001.4 mb 0.00 in0.0 mm 0.00 in0.0 mm 0.08 in2.0 mm
04:02 AM 56.1°F13.4°C 54.4°F12.4°C 94% 6.3 mph WSW10.1 kmh WSW 8.3 mph13.4 kmh 29.57 in1001.4 mb 0.00 in0.0 mm 0.00 in0.0 mm 0.08 in2.0 mm
04:08 AM 55.9°F13.3°C 54.2°F12.3°C 94% 5.3 mph WSW8.5 kmh WSW 8.3 mph13.4 kmh 29.57 in1001.4 mb 0.00 in0.0 mm 0.00 in0.0 mm 0.08 in2.0 mm
04:09 AM 55.9°F13.3°C 54.2°F12.3°C 94% 5.3 mph W8.5 kmh W 8.9 mph14.3 kmh 29.57 in1001.4 mb 0.00 in0.0 mm 0.00 in0.0 mm 0.08 in2.0 mm
04:10 AM 55.9°F13.3°C 54.2°F12.3°C 94% 5.3 mph W8.5 kmh W 8.9 mph14.3 kmh 29.57 in1001.4 mb 0.00 in0.0 mm 0.00 in0.0 mm 0.08 in2.0 mm
04:11 AM 55.9°F13.3°C 54.2°F12.3°C 94% 4.2 mph N6.8 kmh N 8.9 mph14.3 kmh 29.57 in1001.4 mb 0.00 in0.0 mm 0.00 in0.0 mm 0.08 in2.0 mm
04:12 AM 55.9°F13.3°C 54.2°F12.3°C 94% 3.2 mph NNW5.1 kmh NNW 8.9 mph14.3 kmh 29.57 in1001.4 mb 0.00 in0.0 mm 0.00 in0.0 mm 0.08 in2.0 mm
04:13 AM 55.9°F13.3°C 54.2°F12.3°C 94% 3.7 mph W6.0 kmh W 8.9 mph14.3 kmh 29.57 in1001.4 mb 0.00 in0.0 mm 0.00 in0.0 mm 0.08 in2.0 mm
04:14 AM 55.9°F13.3°C 54.2°F12.3°C 94% 2.2 mph S3.5 kmh S 8.9 mph14.3 kmh 29.57 in1001.4 mb 0.00 in0.0 mm 0.00 in0.0 mm 0.08 in2.0 mm
04:15 AM 55.9°F13.3°C 54.2°F12.3°C 94% 4.7 mph W7.6 kmh W 8.9 mph14.3 kmh 29.57 in1001.4 mb 0.00 in0.0 mm 0.00 in0.0 mm 0.08 in2.0 mm
04:16 AM 55.8°F13.2°C 54.1°F12.3°C 94% 2.2 mph SSE3.5 kmh SSE 8.9 mph14.3 kmh 29.57 in1001.4 mb 0.00 in0.0 mm 0.00 in0.0 mm 0.08 in2.0 mm
04:17 AM 55.8°F13.2°C 54.1°F12.3°C 94% 7.3 mph W11.7 kmh W 8.9 mph14.3 kmh 29.58 in1001.7 mb 0.00 in0.0 mm 0.00 in0.0 mm 0.08 in2.0 mm
04:18 AM 55.8°F13.2°C 54.1°F12.3°C 94% 6.8 mph W10.9 kmh W 8.9 mph14.3 kmh 29.58 in1001.7 mb 0.00 in0.0 mm 0.00 in0.0 mm 0.08 in2.0 mm
04:19 AM 55.8°F13.2°C 54.1°F12.3°C 94% 6.8 mph W10.9 kmh W 8.3 mph13.4 kmh 29.58 in1001.7 mb 0.00 in0.0 mm 0.00 in0.0 mm 0.08 in2.0 mm
04:20 AM 55.8°F13.2°C 54.1°F12.3°C 94% 4.7 mph ESE7.6 kmh ESE 8.3 mph13.4 kmh 29.58 in1001.7 mb 0.00 in0.0 mm 0.00 in0.0 mm 0.08 in2.0 mm
04:21 AM 55.8°F13.2°C 54.1°F12.3°C 94% 3.2 mph WSW5.1 kmh WSW 8.3 mph13.4 kmh 29.58 in1001.7 mb 0.00 in0.0 mm 0.00 in0.0 mm 0.08 in2.0 mm
04:22 AM 55.8°F13.2°C 54.1°F12.3°C 94% 5.3 mph WSW8.5 kmh WSW 8.3 mph13.4 kmh 29.58 in1001.7 mb 0.00 in0.0 mm 0.00 in0.0 mm 0.08 in2.0 mm
04:23 AM 55.6°F13.1°C 53.9°F12.2°C 94% 4.7 mph W7.6 kmh W 8.3 mph13.4 kmh 29.58 in1001.7 mb 0.00 in0.0 mm 0.00 in0.0 mm 0.08 in2.0 mm
04:24 AM 55.6°F13.1°C 53.9°F12.2°C 94% 9.4 mph NNW15.1 kmh NNW 9.4 mph15.1 kmh 29.58 in1001.7 mb 0.00 in0.0 mm 0.00 in0.0 mm 0.08 in2.0 mm
04:25 AM 55.6°F13.1°C 53.9°F12.2°C 94% 5.8 mph W9.3 kmh W 9.4 mph15.1 kmh 29.58 in1001.7 mb 0.00 in0.0 mm 0.00 in0.0 mm 0.08 in2.0 mm
04:26 AM 55.6°F13.1°C 53.9°F12.2°C 94% 3.7 mph S6.0 kmh S 9.4 mph15.1 kmh 29.58 in1001.7 mb 0.00 in0.0 mm 0.00 in0.0 mm 0.08 in2.0 mm
04:27 AM 55.6°F13.1°C 53.9°F12.2°C 94% 6.8 mph W10.9 kmh W 9.4 mph15.1 kmh 29.58 in1001.7 mb 0.00 in0.0 mm 0.00 in0.0 mm 0.08 in2.0 mm
04:28 AM 55.6°F13.1°C 53.9°F12.2°C 94% 5.8 mph W9.3 kmh W 9.4 mph15.1 kmh 29.58 in1001.7 mb 0.00 in0.0 mm 0.00 in0.0 mm 0.08 in2.0 mm
04:29 AM 55.6°F13.1°C 53.9°F12.2°C 94% 5.8 mph W9.3 kmh W 9.4 mph15.1 kmh 29.59 in1002.0 mb 0.00 in0.0 mm 0.00 in0.0 mm 0.08 in2.0 mm
04:30 AM 55.6°F13.1°C 53.9°F12.2°C 94% 4.2 mph SSW6.8 kmh SSW 9.4 mph15.1 kmh 29.59 in1002.0 mb 0.00 in0.0 mm 0.00 in0.0 mm 0.08 in2.0 mm
04:31 AM 55.6°F13.1°C 53.9°F12.2°C 94% 2.7 mph W4.3 kmh W 9.4 mph15.1 kmh 29.59 in1002.0 mb 0.00 in0.0 mm 0.00 in0.0 mm 0.08 in2.0 mm
04:32 AM 55.6°F13.1°C 53.9°F12.2°C 94% 3.7 mph SSW6.0 kmh SSW 9.4 mph15.1 kmh 29.59 in1002.0 mb 0.00 in0.0 mm 0.00 in0.0 mm 0.08 in2.0 mm
04:33 AM 55.4°F13.0°C 53.7°F12.1°C 94% 3.7 mph SW6.0 kmh SW 9.4 mph15.1 kmh 29.59 in1002.0 mb 0.00 in0.0 mm 0.00 in0.0 mm 0.08 in2.0 mm
04:34 AM 55.4°F13.0°C 53.7°F12.1°C 94% 7.3 mph W11.7 kmh W 9.4 mph15.1 kmh 29.59 in1002.0 mb 0.00 in0.0 mm 0.00 in0.0 mm 0.08 in2.0 mm
04:35 AM 55.4°F13.0°C 53.7°F12.1°C 94% 2.7 mph W4.3 kmh W 7.3 mph11.7 kmh 29.59 in1002.0 mb 0.00 in0.0 mm 0.00 in0.0 mm 0.08 in2.0 mm
04:36 AM 55.4°F13.0°C 53.7°F12.1°C 94% 2.2 mph ESE3.5 kmh ESE 7.3 mph11.7 kmh 29.59 in1002.0 mb 0.00 in0.0 mm 0.00 in0.0 mm 0.08 in2.0 mm
04:37 AM 55.4°F13.0°C 53.7°F12.1°C 94% 7.3 mph SSW11.7 kmh SSW 7.3 mph11.7 kmh 29.59 in1002.0 mb 0.00 in0.0 mm 0.00 in0.0 mm 0.08 in2.0 mm
04:38 AM 55.4°F13.0°C 53.7°F12.1°C 94% 3.7 mph NNE6.0 kmh NNE 7.3 mph11.7 kmh 29.59 in1002.0 mb 0.00 in0.0 mm 0.00 in0.0 mm 0.08 in2.0 mm
04:39 AM 55.4°F13.0°C 53.7°F12.1°C 94% 5.8 mph W9.3 kmh W 7.3 mph11.7 kmh 29.59 in1002.0 mb 0.00 in0.0 mm 0.00 in0.0 mm 0.08 in2.0 mm
04:40 AM 55.4°F13.0°C 53.7°F12.1°C 94% 6.8 mph W10.9 kmh W 7.3 mph11.7 kmh 29.60 in1002.4 mb 0.00 in0.0 mm 0.00 in0.0 mm 0.08 in2.0 mm
04:41 AM 55.4°F13.0°C 53.7°F12.1°C 94% 2.7 mph W4.3 kmh W 7.3 mph11.7 kmh 29.60 in1002.4 mb 0.00 in0.0 mm 0.00 in0.0 mm 0.08 in2.0 mm
04:42 AM 55.4°F13.0°C 53.7°F12.1°C 94% 5.3 mph WNW8.5 kmh WNW 7.3 mph11.7 kmh 29.60 in1002.4 mb 0.00 in0.0 mm 0.00 in0.0 mm 0.08 in2.0 mm
04:43 AM 55.4°F13.0°C 53.7°F12.1°C 94% 7.3 mph W11.7 kmh W 7.3 mph11.7 kmh 29.60 in1002.4 mb 0.00 in0.0 mm 0.00 in0.0 mm 0.08 in2.0 mm
04:44 AM 55.4°F13.0°C 53.7°F12.1°C 94% 5.3 mph WSW8.5 kmh WSW 7.3 mph11.7 kmh 29.60 in1002.4 mb 0.00 in0.0 mm 0.00 in0.0 mm 0.08 in2.0 mm
04:45 AM 55.4°F13.0°C 53.7°F12.1°C 94% 2.7 mph W4.3 kmh W 7.3 mph11.7 kmh 29.60 in1002.4 mb 0.00 in0.0 mm 0.00 in0.0 mm 0.08 in2.0 mm
04:46 AM 55.4°F13.0°C 53.7°F12.1°C 94% 5.3 mph NE8.5 kmh NE 7.8 mph12.6 kmh 29.60 in1002.4 mb 0.00 in0.0 mm 0.00 in0.0 mm 0.08 in2.0 mm
04:47 AM 55.4°F13.0°C 53.7°F12.1°C 94% 4.2 mph WSW6.8 kmh WSW 7.8 mph12.6 kmh 29.60 in1002.4 mb 0.00 in0.0 mm 0.00 in0.0 mm 0.08 in2.0 mm
04:48 AM 55.4°F13.0°C 53.7°F12.1°C 94% 5.3 mph W8.5 kmh W 7.8 mph12.6 kmh 29.60 in1002.4 mb 0.00 in0.0 mm 0.00 in0.0 mm 0.08 in2.0 mm
04:49 AM 55.4°F13.0°C 53.7°F12.1°C 94% 3.7 mph W6.0 kmh W 7.8 mph12.6 kmh 29.60 in1002.4 mb 0.00 in0.0 mm 0.00 in0.0 mm 0.08 in2.0 mm
04:50 AM 55.4°F13.0°C 53.7°F12.1°C 94% 3.7 mph W6.0 kmh W 7.8 mph12.6 kmh 29.60 in1002.4 mb 0.00 in0.0 mm 0.00 in0.0 mm 0.08 in2.0 mm
04:51 AM 55.4°F13.0°C 53.7°F12.1°C 94% 5.3 mph SW8.5 kmh SW 7.8 mph12.6 kmh 29.60 in1002.4 mb 0.00 in0.0 mm 0.00 in0.0 mm 0.08 in2.0 mm
04:52 AM 55.4°F13.0°C 53.7°F12.1°C 94% 3.7 mph ESE6.0 kmh ESE 7.8 mph12.6 kmh 29.60 in1002.4 mb 0.00 in0.0 mm 0.00 in0.0 mm 0.08 in2.0 mm
04:53 AM 55.4°F13.0°C 53.7°F12.1°C 94% 5.8 mph SW9.3 kmh SW 7.8 mph12.6 kmh 29.61 in1002.7 mb 0.00 in0.0 mm 0.00 in0.0 mm 0.08 in2.0 mm
04:54 AM 55.4°F13.0°C 53.7°F12.1°C 94% 3.2 mph ESE5.1 kmh ESE 7.8 mph12.6 kmh 29.61 in1002.7 mb 0.00 in0.0 mm 0.00 in0.0 mm 0.08 in2.0 mm
04:55 AM 55.4°F13.0°C 53.7°F12.1°C 94% 5.8 mph WNW9.3 kmh WNW 7.8 mph12.6 kmh 29.61 in1002.7 mb 0.00 in0.0 mm 0.00 in0.0 mm 0.08 in2.0 mm
04:56 AM 55.4°F13.0°C 53.7°F12.1°C 94% 8.3 mph WNW13.4 kmh WNW 8.3 mph13.4 kmh 29.61 in1002.7 mb 0.00 in0.0 mm 0.00 in0.0 mm 0.08 in2.0 mm
04:57 AM 55.4°F13.0°C 53.7°F12.1°C 94% 4.2 mph WNW6.8 kmh WNW 8.3 mph13.4 kmh 29.61 in1002.7 mb 0.00 in0.0 mm 0.00 in0.0 mm 0.08 in2.0 mm
04:58 AM 55.4°F13.0°C 53.7°F12.1°C 94% 7.3 mph SSW11.7 kmh SSW 8.9 mph14.3 kmh 29.61 in1002.7 mb 0.00 in0.0 mm 0.00 in0.0 mm 0.08 in2.0 mm
04:59 AM 55.4°F13.0°C 53.7°F12.1°C 94% 2.7 mph W4.3 kmh W 8.9 mph14.3 kmh 29.61 in1002.7 mb 0.00 in0.0 mm 0.00 in0.0 mm 0.08 in2.0 mm
05:00 AM 55.4°F13.0°C 53.7°F12.1°C 94% 4.2 mph SW6.8 kmh SW 8.9 mph14.3 kmh 29.61 in1002.7 mb 0.00 in0.0 mm 0.00 in0.0 mm 0.08 in2.0 mm
05:01 AM 55.4°F13.0°C 53.7°F12.1°C 94% 3.7 mph N6.0 kmh N 8.9 mph14.3 kmh 29.61 in1002.7 mb 0.00 in0.0 mm 0.00 in0.0 mm 0.08 in2.0 mm
05:02 AM 55.4°F13.0°C 53.7°F12.1°C 94% 4.7 mph W7.6 kmh W 8.9 mph14.3 kmh 29.61 in1002.7 mb 0.00 in0.0 mm 0.00 in0.0 mm 0.08 in2.0 mm
05:03 AM 55.4°F13.0°C 53.7°F12.1°C 94% 8.3 mph NNE13.4 kmh NNE 8.9 mph14.3 kmh 29.61 in1002.7 mb 0.00 in0.0 mm 0.00 in0.0 mm 0.08 in2.0 mm
05:04 AM 55.4°F13.0°C 53.7°F12.1°C 94% 4.2 mph NNW6.8 kmh NNW 8.9 mph14.3 kmh 29.61 in1002.7 mb 0.00 in0.0 mm 0.00 in0.0 mm 0.08 in2.0 mm
05:05 AM 55.2°F12.9°C 53.5°F11.9°C 94% 5.8 mph N9.3 kmh N 8.9 mph14.3 kmh 29.62 in1003.0 mb 0.00 in0.0 mm 0.00 in0.0 mm 0.08 in2.0 mm
05:06 AM 55.2°F12.9°C 53.5°F11.9°C 94% 5.3 mph W8.5 kmh W 8.9 mph14.3 kmh 29.62 in1003.0 mb 0.00 in0.0 mm 0.00 in0.0 mm 0.08 in2.0 mm
05:07 AM 55.2°F12.9°C 53.5°F11.9°C 94% 4.2 mph W6.8 kmh W 8.9 mph14.3 kmh 29.62 in1003.0 mb 0.00 in0.0 mm 0.00 in0.0 mm 0.08 in2.0 mm
05:08 AM 55.2°F12.9°C 53.5°F11.9°C 94% 4.7 mph NNW7.6 kmh NNW 8.3 mph13.4 kmh 29.62 in1003.0 mb 0.00 in0.0 mm 0.00 in0.0 mm 0.08 in2.0 mm
05:09 AM 55.2°F12.9°C 53.5°F11.9°C 94% 6.3 mph S10.1 kmh S 9.4 mph15.1 kmh 29.62 in1003.0 mb 0.00 in0.0 mm 0.00 in0.0 mm 0.08 in2.0 mm
05:10 AM 55.2°F12.9°C 53.5°F11.9°C 94% 4.7 mph W7.6 kmh W 9.4 mph15.1 kmh 29.62 in1003.0 mb 0.00 in0.0 mm 0.00 in0.0 mm 0.08 in2.0 mm
05:11 AM 55.2°F12.9°C 53.5°F11.9°C 94% 4.7 mph W7.6 kmh W 9.4 mph15.1 kmh 29.62 in1003.0 mb 0.00 in0.0 mm 0.00 in0.0 mm 0.08 in2.0 mm
05:12 AM 55.2°F12.9°C 53.5°F11.9°C 94% 4.7 mph ESE7.6 kmh ESE 9.4 mph15.1 kmh 29.62 in1003.0 mb 0.00 in0.0 mm 0.00 in0.0 mm 0.08 in2.0 mm
05:13 AM 55.2°F12.9°C 53.5°F11.9°C 94% 2.7 mph WSW4.3 kmh WSW 9.4 mph15.1 kmh 29.62 in1003.0 mb 0.00 in0.0 mm 0.00 in0.0 mm 0.08 in2.0 mm
05:14 AM 55.0°F12.8°C 53.3°F11.8°C 94% 4.2 mph WNW6.8 kmh WNW 9.4 mph15.1 kmh 29.62 in1003.0 mb 0.00 in0.0 mm 0.00 in0.0 mm 0.08 in2.0 mm
05:15 AM 55.0°F12.8°C 53.3°F11.8°C 94% 1.7 mph ESE2.7 kmh ESE 9.4 mph15.1 kmh 29.62 in1003.0 mb 0.00 in0.0 mm 0.00 in0.0 mm 0.08 in2.0 mm
05:16 AM 55.0°F12.8°C 53.3°F11.8°C 94% 7.3 mph W11.7 kmh W 9.4 mph15.1 kmh 29.62 in1003.0 mb 0.00 in0.0 mm 0.00 in0.0 mm 0.08 in2.0 mm
05:17 AM 55.0°F12.8°C 53.3°F11.8°C 94% 5.8 mph W9.3 kmh W 9.4 mph15.1 kmh 29.63 in1003.4 mb 0.00 in0.0 mm 0.00 in0.0 mm 0.08 in2.0 mm
05:18 AM 55.0°F12.8°C 53.3°F11.8°C 94% 5.3 mph W8.5 kmh W 9.4 mph15.1 kmh 29.63 in1003.4 mb 0.00 in0.0 mm 0.00 in0.0 mm 0.08 in2.0 mm
05:19 AM 55.0°F12.8°C 53.3°F11.8°C 94% 8.3 mph WSW13.4 kmh WSW 9.4 mph15.1 kmh 29.63 in1003.4 mb 0.00 in0.0 mm 0.00 in0.0 mm 0.08 in2.0 mm
05:20 AM 55.0°F12.8°C 53.3°F11.8°C 94% 8.3 mph W13.4 kmh W 10.4 mph16.7 kmh 29.63 in1003.4 mb 0.00 in0.0 mm 0.00 in0.0 mm 0.08 in2.0 mm
05:21 AM 55.2°F12.9°C 53.2°F11.8°C 93% 4.2 mph W6.8 kmh W 10.4 mph16.7 kmh 29.63 in1003.4 mb 0.00 in0.0 mm 0.00 in0.0 mm 0.08 in2.0 mm
05:22 AM 55.2°F12.9°C 53.2°F11.8°C 93% 2.2 mph NNW3.5 kmh NNW 10.4 mph16.7 kmh 29.63 in1003.4 mb 0.00 in0.0 mm 0.00 in0.0 mm 0.08 in2.0 mm
05:23 AM 55.0°F12.8°C 53.0°F11.7°C 93% 3.7 mph NNW6.0 kmh NNW 10.4 mph16.7 kmh 29.63 in1003.4 mb 0.00 in0.0 mm 0.00 in0.0 mm 0.08 in2.0 mm
05:24 AM 55.0°F12.8°C 53.0°F11.7°C 93% 6.3 mph W10.1 kmh W 10.4 mph16.7 kmh 29.63 in1003.4 mb 0.00 in0.0 mm 0.00 in0.0 mm 0.08 in2.0 mm
05:25 AM 55.0°F12.8°C 53.0°F11.7°C 93% 6.3 mph N10.1 kmh N 10.4 mph16.7 kmh 29.63 in1003.4 mb 0.00 in0.0 mm 0.00 in0.0 mm 0.08 in2.0 mm
05:26 AM 55.0°F12.8°C 53.0°F11.7°C 93% 3.7 mph W6.0 kmh W 10.4 mph16.7 kmh 29.63 in1003.4 mb 0.00 in0.0 mm 0.00 in0.0 mm 0.08 in2.0 mm
05:27 AM 55.0°F12.8°C 53.0°F11.7°C 93% 5.3 mph WNW8.5 kmh WNW 10.4 mph16.7 kmh 29.63 in1003.4 mb 0.00 in0.0 mm 0.00 in0.0 mm 0.08 in2.0 mm
05:28 AM 55.0°F12.8°C 53.0°F11.7°C 93% 8.3 mph W13.4 kmh W 10.4 mph16.7 kmh 29.64 in1003.7 mb 0.00 in0.0 mm 0.00 in0.0 mm 0.08 in2.0 mm
05:29 AM 55.0°F12.8°C 53.0°F11.7°C 93% 6.3 mph W10.1 kmh W 10.4 mph16.7 kmh 29.64 in1003.7 mb 0.00 in0.0 mm 0.00 in0.0 mm 0.08 in2.0 mm
05:30 AM 55.0°F12.8°C 53.0°F11.7°C 93% 5.3 mph WSW8.5 kmh WSW 10.9 mph17.5 kmh 29.64 in1003.7 mb 0.00 in0.0 mm 0.00 in0.0 mm 0.08 in2.0 mm
05:31 AM 55.0°F12.8°C 53.0°F11.7°C 93% 9.9 mph W15.9 kmh W 10.9 mph17.5 kmh 29.64 in1003.7 mb 0.00 in0.0 mm 0.00 in0.0 mm 0.08 in2.0 mm
05:32 AM 55.0°F12.8°C 53.0°F11.7°C 93% 9.9 mph W15.9 kmh W 10.9 mph17.5 kmh 29.64 in1003.7 mb 0.00 in0.0 mm 0.00 in0.0 mm 0.08 in2.0 mm
05:33 AM 55.2°F12.9°C 53.2°F11.8°C 93% 4.7 mph W7.6 kmh W 10.9 mph17.5 kmh 29.64 in1003.7 mb 0.00 in0.0 mm 0.00 in0.0 mm 0.08 in2.0 mm
05:34 AM 55.2°F12.9°C 52.9°F11.6°C 92% 8.3 mph W13.4 kmh W 10.9 mph17.5 kmh 29.64 in1003.7 mb 0.00 in0.0 mm 0.00 in0.0 mm 0.08 in2.0 mm
05:35 AM 55.2°F12.9°C 52.9°F11.6°C 92% 4.7 mph W7.6 kmh W 10.9 mph17.5 kmh 29.64 in1003.7 mb 0.00 in0.0 mm 0.00 in0.0 mm 0.08 in2.0 mm
05:36 AM 55.2°F12.9°C 52.9°F11.6°C 92% 5.8 mph W9.3 kmh W 10.9 mph17.5 kmh 29.64 in1003.7 mb 0.00 in0.0 mm 0.00 in0.0 mm 0.08 in2.0 mm
05:37 AM 55.2°F12.9°C 52.9°F11.6°C 92% 4.2 mph W6.8 kmh W 10.9 mph17.5 kmh 29.64 in1003.7 mb 0.00 in0.0 mm 0.00 in0.0 mm 0.08 in2.0 mm
05:38 AM 55.0°F12.8°C 52.7°F11.5°C 92% 7.3 mph W11.7 kmh W 10.9 mph17.5 kmh 29.64 in1003.7 mb 0.00 in0.0 mm 0.00 in0.0 mm 0.08 in2.0 mm
05:39 AM 55.0°F12.8°C 52.7°F11.5°C 92% 3.2 mph NW5.1 kmh NW 10.9 mph17.5 kmh 29.64 in1003.7 mb 0.00 in0.0 mm 0.00 in0.0 mm 0.08 in2.0 mm
05:40 AM 55.0°F12.8°C 52.7°F11.5°C 92% 6.3 mph NNW10.1 kmh NNW 9.9 mph15.9 kmh 29.64 in1003.7 mb 0.00 in0.0 mm 0.00 in0.0 mm 0.08 in2.0 mm
05:41 AM 55.0°F12.8°C 52.7°F11.5°C 92% 4.2 mph W6.8 kmh W 9.9 mph15.9 kmh 29.65 in1004.1 mb 0.00 in0.0 mm 0.00 in0.0 mm 0.08 in2.0 mm
05:42 AM 54.9°F12.7°C 52.6°F11.4°C 92% 2.7 mph W4.3 kmh W 9.9 mph15.9 kmh 29.65 in1004.1 mb 0.00 in0.0 mm 0.00 in0.0 mm 0.08 in2.0 mm
05:43 AM 54.9°F12.7°C 52.6°F11.4°C 92% 4.2 mph W6.8 kmh W 8.9 mph14.3 kmh 29.65 in1004.1 mb 0.00 in0.0 mm 0.00 in0.0 mm 0.08 in2.0 mm
05:44 AM 54.9°F12.7°C 52.6°F11.4°C 92% 2.7 mph W4.3 kmh W 8.9 mph14.3 kmh 29.65 in1004.1 mb 0.00 in0.0 mm 0.00 in0.0 mm 0.08 in2.0 mm
05:45 AM 54.9°F12.7°C 52.6°F11.4°C 92% 5.8 mph W9.3 kmh W 8.9 mph14.3 kmh 29.65 in1004.1 mb 0.00 in0.0 mm 0.00 in0.0 mm 0.08 in2.0 mm
05:46 AM 54.9°F12.7°C 52.6°F11.4°C 92% 4.2 mph W6.8 kmh W 8.9 mph14.3 kmh 29.65 in1004.1 mb 0.00 in0.0 mm 0.00 in0.0 mm 0.08 in2.0 mm
05:47 AM 54.7°F12.6°C 52.4°F11.3°C 92% 4.2 mph W6.8 kmh W 8.9 mph14.3 kmh 29.65 in1004.1 mb 0.00 in0.0 mm 0.00 in0.0 mm 0.08 in2.0 mm
05:48 AM 54.7°F12.6°C 52.4°F11.3°C 92% 8.3 mph W13.4 kmh W 8.9 mph14.3 kmh 29.65 in1004.1 mb 0.00 in0.0 mm 0.00 in0.0 mm 0.08 in2.0 mm
05:49 AM 54.7°F12.6°C 52.4°F11.3°C 92% 4.2 mph W6.8 kmh W 8.9 mph14.3 kmh 29.65 in1004.1 mb 0.00 in0.0 mm 0.00 in0.0 mm 0.08 in2.0 mm
05:50 AM 54.7°F12.6°C 52.4°F11.3°C 92% 6.8 mph W10.9 kmh W 8.9 mph14.3 kmh 29.65 in1004.1 mb 0.00 in0.0 mm 0.00 in0.0 mm 0.08 in2.0 mm
05:51 AM 54.7°F12.6°C 52.4°F11.3°C 92% 8.3 mph W13.4 kmh W 8.9 mph14.3 kmh 29.65 in1004.1 mb 0.00 in0.0 mm 0.00 in0.0 mm 0.08 in2.0 mm
05:52 AM 54.7°F12.6°C 52.4°F11.3°C 92% 7.3 mph SW11.7 kmh SW 8.9 mph14.3 kmh 29.65 in1004.1 mb 0.00 in0.0 mm 0.00 in0.0 mm 0.08 in2.0 mm
05:53 AM 54.7°F12.6°C 52.4°F11.3°C 92% 3.7 mph WNW6.0 kmh WNW 8.3 mph13.4 kmh 29.67 in1004.7 mb 0.00 in0.0 mm 0.00 in0.0 mm 0.08 in2.0 mm
05:54 AM 54.7°F12.6°C 52.4°F11.3°C 92% 9.9 mph W15.9 kmh W 9.9 mph15.9 kmh 29.67 in1004.7 mb 0.00 in0.0 mm 0.00 in0.0 mm 0.08 in2.0 mm
05:55 AM 54.7°F12.6°C 52.1°F11.2°C 91% 5.3 mph WSW8.5 kmh WSW 10.9 mph17.5 kmh 29.67 in1004.7 mb 0.00 in0.0 mm 0.00 in0.0 mm 0.08 in2.0 mm
05:56 AM 54.7°F12.6°C 52.1°F11.2°C 91% 3.7 mph SSE6.0 kmh SSE 10.9 mph17.5 kmh 29.67 in1004.7 mb 0.00 in0.0 mm 0.00 in0.0 mm 0.08 in2.0 mm
05:57 AM 54.7°F12.6°C 52.1°F11.2°C 91% 6.3 mph WSW10.1 kmh WSW 10.9 mph17.5 kmh 29.67 in1004.7 mb 0.00 in0.0 mm 0.00 in0.0 mm 0.08 in2.0 mm
05:58 AM 54.7°F12.6°C 52.1°F11.2°C 91% 4.2 mph W6.8 kmh W 10.9 mph17.5 kmh 29.67 in1004.7 mb 0.00 in0.0 mm 0.00 in0.0 mm 0.08 in2.0 mm
05:59 AM 54.7°F12.6°C 52.1°F11.2°C 91% 7.8 mph W12.6 kmh W 10.9 mph17.5 kmh 29.67 in1004.7 mb 0.00 in0.0 mm 0.00 in0.0 mm 0.08 in2.0 mm
06:00 AM 54.7°F12.6°C 52.1°F11.2°C 91% 6.3 mph W10.1 kmh W 10.9 mph17.5 kmh 29.67 in1004.7 mb 0.00 in0.0 mm 0.00 in0.0 mm 0.08 in2.0 mm
06:01 AM 54.7°F12.6°C 51.8°F11.0°C 90% 6.8 mph W10.9 kmh W 13.5 mph21.7 kmh 29.67 in1004.7 mb 0.00 in0.0 mm 0.00 in0.0 mm 0.08 in2.0 mm
06:02 AM 54.7°F12.6°C 51.8°F11.0°C 90% 6.8 mph W10.9 kmh W 13.5 mph21.7 kmh 29.67 in1004.7 mb 0.00 in0.0 mm 0.00 in0.0 mm 0.08 in2.0 mm
06:03 AM 54.7°F12.6°C 51.8°F11.0°C 90% 8.3 mph W13.4 kmh W 13.5 mph21.7 kmh 29.67 in1004.7 mb 0.00 in0.0 mm 0.00 in0.0 mm 0.08 in2.0 mm
06:04 AM 54.7°F12.6°C 51.8°F11.0°C 90% 6.3 mph W10.1 kmh W 13.5 mph21.7 kmh 29.67 in1004.7 mb 0.00 in0.0 mm 0.00 in0.0 mm 0.08 in2.0 mm
06:05 AM 54.7°F12.6°C 51.8°F11.0°C 90% 6.8 mph W10.9 kmh W 13.5 mph21.7 kmh 29.68 in1005.1 mb 0.00 in0.0 mm 0.00 in0.0 mm 0.08 in2.0 mm
06:06 AM 54.7°F12.6°C 51.8°F11.0°C 90% 5.8 mph W9.3 kmh W 13.5 mph21.7 kmh 29.68 in1005.1 mb 0.00 in0.0 mm 0.00 in0.0 mm 0.08 in2.0 mm
06:07 AM 54.7°F12.6°C 51.8°F11.0°C 90% 5.8 mph W9.3 kmh W 13.5 mph21.7 kmh 29.68 in1005.1 mb 0.00 in0.0 mm 0.00 in0.0 mm 0.08 in2.0 mm
06:08 AM 54.7°F12.6°C 51.8°F11.0°C 90% 4.2 mph WSW6.8 kmh WSW 13.5 mph21.7 kmh 29.68 in1005.1 mb 0.00 in0.0 mm 0.00 in0.0 mm 0.08 in2.0 mm
06:09 AM 54.5°F12.5°C 51.6°F10.9°C 90% 3.2 mph W5.1 kmh W 13.5 mph21.7 kmh 29.68 in1005.1 mb 0.00 in0.0 mm 0.00 in0.0 mm 0.08 in2.0 mm
06:10 AM 54.5°F12.5°C 51.6°F10.9°C 90% 6.3 mph WNW10.1 kmh WNW 13.5 mph21.7 kmh 29.68 in1005.1 mb 0.00 in0.0 mm 0.00 in0.0 mm 0.08 in2.0 mm
06:11 AM 54.5°F12.5°C 51.6°F10.9°C 90% 5.3 mph W8.5 kmh W 8.3 mph13.4 kmh 29.68 in1005.1 mb 0.00 in0.0 mm 0.00 in0.0 mm 0.08 in2.0 mm
06:12 AM 54.5°F12.5°C 51.6°F10.9°C 90% 4.7 mph SSW7.6 kmh SSW 8.3 mph13.4 kmh 29.68 in1005.1 mb 0.00 in0.0 mm 0.00 in0.0 mm 0.08 in2.0 mm
06:13 AM 54.5°F12.5°C 51.6°F10.9°C 90% 4.7 mph WNW7.6 kmh WNW 13.0 mph20.9 kmh 29.68 in1005.1 mb 0.00 in0.0 mm 0.00 in0.0 mm 0.08 in2.0 mm
06:14 AM 54.5°F12.5°C 51.0°F10.6°C 88% 5.8 mph W9.3 kmh W 13.0 mph20.9 kmh 29.68 in1005.1 mb 0.00 in0.0 mm 0.00 in0.0 mm 0.08 in2.0 mm
06:15 AM 54.3°F12.4°C 50.8°F10.4°C 88% 5.8 mph W9.3 kmh W 13.0 mph20.9 kmh 29.68 in1005.1 mb 0.00 in0.0 mm 0.00 in0.0 mm 0.08 in2.0 mm
06:16 AM 54.3°F12.4°C 50.5°F10.3°C 87% 11.9 mph SW19.2 kmh SW 13.0 mph20.9 kmh 29.68 in1005.1 mb 0.00 in0.0 mm 0.00 in0.0 mm 0.08 in2.0 mm
06:17 AM 54.3°F12.4°C 50.8°F10.4°C 88% 4.7 mph W7.6 kmh W 13.0 mph20.9 kmh 29.70 in1005.8 mb 0.00 in0.0 mm 0.00 in0.0 mm 0.08 in2.0 mm
06:18 AM 54.3°F12.4°C 50.8°F10.4°C 88% 6.3 mph SSW10.1 kmh SSW 13.0 mph20.9 kmh 29.70 in1005.8 mb 0.00 in0.0 mm 0.00 in0.0 mm 0.08 in2.0 mm
06:19 AM 54.3°F12.4°C 50.5°F10.3°C 87% 4.7 mph WSW7.6 kmh WSW 13.0 mph20.9 kmh 29.70 in1005.8 mb 0.00 in0.0 mm 0.00 in0.0 mm 0.08 in2.0 mm
06:20 AM 54.3°F12.4°C 50.5°F10.3°C 87% 4.7 mph W7.6 kmh W 13.0 mph20.9 kmh 29.70 in1005.8 mb 0.00 in0.0 mm 0.00 in0.0 mm 0.08 in2.0 mm
06:21 AM 54.3°F12.4°C 50.5°F10.3°C 87% 9.4 mph NW15.1 kmh NW 13.0 mph20.9 kmh 29.70 in1005.8 mb 0.00 in0.0 mm 0.00 in0.0 mm 0.08 in2.0 mm
06:22 AM 54.3°F12.4°C 50.2°F10.1°C 86% 8.3 mph W13.4 kmh W 13.0 mph20.9 kmh 29.70 in1005.8 mb 0.00 in0.0 mm 0.00 in0.0 mm 0.08 in2.0 mm
06:23 AM 54.3°F12.4°C 50.2°F10.1°C 86% 7.8 mph W12.6 kmh W 11.9 mph19.2 kmh 29.70 in1005.8 mb 0.00 in0.0 mm 0.00 in0.0 mm 0.08 in2.0 mm
06:24 AM 54.1°F12.3°C 50.0°F10.0°C 86% 4.7 mph WNW7.6 kmh WNW 11.9 mph19.2 kmh 29.70 in1005.8 mb 0.00 in0.0 mm 0.00 in0.0 mm 0.08 in2.0 mm
06:25 AM 54.1°F12.3°C 50.0°F10.0°C 86% 5.3 mph W8.5 kmh W 11.9 mph19.2 kmh 29.70 in1005.8 mb 0.00 in0.0 mm 0.00 in0.0 mm 0.08 in2.0 mm
06:26 AM 54.1°F12.3°C 50.0°F10.0°C 86% 13.0 mph W20.9 kmh W 13.0 mph20.9 kmh 29.70 in1005.8 mb 0.00 in0.0 mm 0.00 in0.0 mm 0.08 in2.0 mm
06:27 AM 54.1°F12.3°C 49.7°F9.8°C 85% 5.8 mph W9.3 kmh W 13.0 mph20.9 kmh 29.70 in1005.8 mb 0.00 in0.0 mm 0.00 in0.0 mm 0.08 in2.0 mm
06:28 AM 54.1°F12.3°C 49.7°F9.8°C 85% 4.7 mph W7.6 kmh W 13.0 mph20.9 kmh 29.70 in1005.8 mb 0.00 in0.0 mm 0.00 in0.0 mm 0.08 in2.0 mm
06:29 AM 54.1°F12.3°C 49.7°F9.8°C 85% 5.8 mph SSW9.3 kmh SSW 13.0 mph20.9 kmh 29.71 in1006.1 mb 0.00 in0.0 mm 0.00 in0.0 mm 0.08 in2.0 mm
06:30 AM 54.0°F12.2°C 49.6°F9.8°C 85% 7.3 mph WSW11.7 kmh WSW 13.0 mph20.9 kmh 29.71 in1006.1 mb 0.00 in0.0 mm 0.00 in0.0 mm 0.08 in2.0 mm
06:31 AM 54.0°F12.2°C 49.3°F9.6°C 84% 3.2 mph W5.1 kmh W 13.0 mph20.9 kmh 29.71 in1006.1 mb 0.00 in0.0 mm 0.00 in0.0 mm 0.08 in2.0 mm
06:32 AM 54.0°F12.2°C 49.3°F9.6°C 84% 7.8 mph SW12.6 kmh SW 13.0 mph20.9 kmh 29.71 in1006.1 mb 0.00 in0.0 mm 0.00 in0.0 mm 0.08 in2.0 mm
06:33 AM 53.8°F12.1°C 49.1°F9.5°C 84% 6.8 mph WNW10.9 kmh WNW 13.0 mph20.9 kmh 29.71 in1006.1 mb 0.00 in0.0 mm 0.00 in0.0 mm 0.08 in2.0 mm
06:34 AM 53.8°F12.1°C 49.1°F9.5°C 84% 7.8 mph NNW12.6 kmh NNW 13.0 mph20.9 kmh 29.71 in1006.1 mb 0.00 in0.0 mm 0.00 in0.0 mm 0.08 in2.0 mm
06:35 AM 53.8°F12.1°C 49.1°F9.5°C 84% 8.3 mph W13.4 kmh W 13.0 mph20.9 kmh 29.71 in1006.1 mb 0.00 in0.0 mm 0.00 in0.0 mm 0.08 in2.0 mm
06:36 AM 53.8°F12.1°C 49.1°F9.5°C 84% 6.3 mph SW10.1 kmh SW 13.0 mph20.9 kmh 29.71 in1006.1 mb 0.00 in0.0 mm 0.00 in0.0 mm 0.08 in2.0 mm
06:37 AM 53.8°F12.1°C 49.1°F9.5°C 84% 8.3 mph W13.4 kmh W 13.0 mph20.9 kmh 29.71 in1006.1 mb 0.00 in0.0 mm 0.00 in0.0 mm 0.08 in2.0 mm
06:38 AM 53.8°F12.1°C 49.1°F9.5°C 84% 7.3 mph W11.7 kmh W 13.0 mph20.9 kmh 29.71 in1006.1 mb 0.00 in0.0 mm 0.00 in0.0 mm 0.08 in2.0 mm
06:39 AM 53.6°F12.0°C 48.9°F9.4°C 84% 5.3 mph W8.5 kmh W 13.0 mph20.9 kmh 29.71 in1006.1 mb 0.00 in0.0 mm 0.00 in0.0 mm 0.08 in2.0 mm
06:40 AM 53.2°F11.8°C 48.5°F9.2°C 84% 5.8 mph WSW9.3 kmh WSW 13.0 mph20.9 kmh 29.72 in1006.4 mb 0.00 in0.0 mm 0.00 in0.0 mm 0.08 in2.0 mm
06:41 AM 53.2°F11.8°C 48.5°F9.2°C 84% 3.7 mph W6.0 kmh W 13.0 mph20.9 kmh 29.72 in1006.4 mb 0.00 in0.0 mm 0.00 in0.0 mm 0.08 in2.0 mm
06:42 AM 53.2°F11.8°C 48.5°F9.2°C 84% 6.8 mph W10.9 kmh W 10.4 mph16.7 kmh 29.72 in1006.4 mb 0.00 in0.0 mm 0.00 in0.0 mm 0.08 in2.0 mm
06:43 AM 53.2°F11.8°C 48.5°F9.2°C 84% 7.3 mph W11.7 kmh W 10.4 mph16.7 kmh 29.72 in1006.4 mb 0.00 in0.0 mm 0.00 in0.0 mm 0.08 in2.0 mm
06:44 AM 53.2°F11.8°C 48.5°F9.2°C 84% 7.8 mph WNW12.6 kmh WNW 9.9 mph15.9 kmh 29.72 in1006.4 mb 0.00 in0.0 mm 0.00 in0.0 mm 0.08 in2.0 mm
06:45 AM 53.2°F11.8°C 48.5°F9.2°C 84% 7.8 mph NNW12.6 kmh NNW 9.9 mph15.9 kmh 29.72 in1006.4 mb 0.00 in0.0 mm 0.00 in0.0 mm 0.08 in2.0 mm
06:46 AM 53.2°F11.8°C 48.5°F9.2°C 84% 5.8 mph W9.3 kmh W 9.4 mph15.1 kmh 29.72 in1006.4 mb 0.00 in0.0 mm 0.00 in0.0 mm 0.08 in2.0 mm
06:47 AM 53.2°F11.8°C 48.5°F9.2°C 84% 3.7 mph W6.0 kmh W 9.4 mph15.1 kmh 29.72 in1006.4 mb 0.00 in0.0 mm 0.00 in0.0 mm 0.08 in2.0 mm
06:48 AM 53.1°F11.7°C 48.4°F9.1°C 84% 6.3 mph W10.1 kmh W 9.4 mph15.1 kmh 29.72 in1006.4 mb 0.00 in0.0 mm 0.00 in0.0 mm 0.08 in2.0 mm
06:49 AM 53.1°F11.7°C 48.4°F9.1°C 84% 4.7 mph WNW7.6 kmh WNW 9.4 mph15.1 kmh 29.72 in1006.4 mb 0.00 in0.0 mm 0.00 in0.0 mm 0.08 in2.0 mm
06:50 AM 53.1°F11.7°C 48.1°F8.9°C 83% 7.3 mph W11.7 kmh W 9.4 mph15.1 kmh 29.72 in1006.4 mb 0.00 in0.0 mm 0.00 in0.0 mm 0.08 in2.0 mm
06:51 AM 53.1°F11.7°C 48.1°F8.9°C 83% 5.3 mph WNW8.5 kmh WNW 9.4 mph15.1 kmh 29.72 in1006.4 mb 0.00 in0.0 mm 0.00 in0.0 mm 0.08 in2.0 mm
06:52 AM 53.1°F11.7°C 48.1°F8.9°C 83% 4.2 mph W6.8 kmh W 9.4 mph15.1 kmh 29.72 in1006.4 mb 0.00 in0.0 mm 0.00 in0.0 mm 0.08 in2.0 mm
06:53 AM 52.9°F11.6°C 48.2°F9.0°C 84% 5.8 mph W9.3 kmh W 9.4 mph15.1 kmh 29.74 in1007.1 mb 0.00 in0.0 mm 0.00 in0.0 mm 0.08 in2.0 mm
06:54 AM 52.9°F11.6°C 48.5°F9.2°C 85% 5.3 mph W8.5 kmh W 9.4 mph15.1 kmh 29.74 in1007.1 mb 0.00 in0.0 mm 0.00 in0.0 mm 0.08 in2.0 mm
06:55 AM 52.7°F11.5°C 48.0°F8.9°C 84% 4.7 mph W7.6 kmh W 9.4 mph15.1 kmh 29.74 in1007.1 mb 0.00 in0.0 mm 0.00 in0.0 mm 0.08 in2.0 mm
06:56 AM 52.7°F11.5°C 48.0°F8.9°C 84% 3.7 mph W6.0 kmh W 8.3 mph13.4 kmh 29.74 in1007.1 mb 0.00 in0.0 mm 0.00 in0.0 mm 0.08 in2.0 mm
06:57 AM 52.7°F11.5°C 48.0°F8.9°C 84% 3.7 mph W6.0 kmh W 8.3 mph13.4 kmh 29.74 in1007.1 mb 0.00 in0.0 mm 0.00 in0.0 mm 0.08 in2.0 mm
06:58 AM 52.7°F11.5°C 48.3°F9.1°C 85% 3.7 mph W6.0 kmh W 7.3 mph11.7 kmh 29.74 in1007.1 mb 0.00 in0.0 mm 0.00 in0.0 mm 0.08 in2.0 mm
06:59 AM 52.7°F11.5°C 48.3°F9.1°C 85% 3.2 mph W5.1 kmh W 7.3 mph11.7 kmh 29.74 in1007.1 mb 0.00 in0.0 mm 0.00 in0.0 mm 0.08 in2.0 mm
07:00 AM 52.5°F11.4°C 48.1°F8.9°C 85% 2.2 mph W3.5 kmh W 7.3 mph11.7 kmh 29.74 in1007.1 mb 0.00 in0.0 mm 0.00 in0.0 mm 0.08 in2.0 mm
07:01 AM 52.5°F11.4°C 47.8°F8.8°C 84% 5.3 mph W8.5 kmh W 6.8 mph10.9 kmh 29.74 in1007.1 mb 0.00 in0.0 mm 0.00 in0.0 mm 0.08 in2.0 mm
07:02 AM 52.5°F11.4°C 47.8°F8.8°C 84% 8.3 mph W13.4 kmh W 8.9 mph14.3 kmh 29.74 in1007.1 mb 0.00 in0.0 mm 0.00 in0.0 mm 0.08 in2.0 mm
07:03 AM 52.5°F11.4°C 47.5°F8.6°C 83% 7.3 mph W11.7 kmh W 8.9 mph14.3 kmh 29.74 in1007.1 mb 0.00 in0.0 mm 0.00 in0.0 mm 0.08 in2.0 mm
07:04 AM 52.5°F11.4°C 47.5°F8.6°C 83% 5.3 mph NNW8.5 kmh NNW 10.4 mph16.7 kmh 29.74 in1007.1 mb 0.00 in0.0 mm 0.00 in0.0 mm 0.08 in2.0 mm
07:05 AM 52.5°F11.4°C 47.2°F8.4°C 82% 7.8 mph WNW12.6 kmh WNW 10.4 mph16.7 kmh 29.75 in1007.5 mb 0.00 in0.0 mm 0.00 in0.0 mm 0.08 in2.0 mm
07:06 AM 52.5°F11.4°C 46.8°F8.2°C 81% 9.4 mph W15.1 kmh W 10.4 mph16.7 kmh 29.75 in1007.5 mb 0.00 in0.0 mm 0.00 in0.0 mm 0.08 in2.0 mm
07:07 AM 52.5°F11.4°C 46.8°F8.2°C 81% 11.9 mph NW19.2 kmh NW 11.9 mph19.2 kmh 29.75 in1007.5 mb 0.00 in0.0 mm 0.00 in0.0 mm 0.08 in2.0 mm
07:08 AM 52.5°F11.4°C 46.5°F8.1°C 80% 10.9 mph W17.5 kmh W 11.9 mph19.2 kmh 29.75 in1007.5 mb 0.00 in0.0 mm 0.00 in0.0 mm 0.08 in2.0 mm
07:09 AM 52.5°F11.4°C 46.5°F8.1°C 80% 8.3 mph W13.4 kmh W 12.5 mph20.1 kmh 29.75 in1007.5 mb 0.00 in0.0 mm 0.00 in0.0 mm 0.08 in2.0 mm
07:10 AM 52.5°F11.4°C 46.5°F8.1°C 80% 7.3 mph NNW11.7 kmh NNW 12.5 mph20.1 kmh 29.75 in1007.5 mb 0.00 in0.0 mm 0.00 in0.0 mm 0.08 in2.0 mm
07:11 AM 52.5°F11.4°C 46.5°F8.1°C 80% 9.4 mph W15.1 kmh W 12.5 mph20.1 kmh 29.75 in1007.5 mb 0.00 in0.0 mm 0.00 in0.0 mm 0.08 in2.0 mm
07:12 AM 52.5°F11.4°C 46.5°F8.1°C 80% 6.8 mph W10.9 kmh W 13.5 mph21.7 kmh 29.75 in1007.5 mb 0.00 in0.0 mm 0.00 in0.0 mm 0.08 in2.0 mm
07:13 AM 52.5°F11.4°C 46.5°F8.1°C 80% 6.3 mph WNW10.1 kmh WNW 13.5 mph21.7 kmh 29.75 in1007.5 mb 0.00 in0.0 mm 0.00 in0.0 mm 0.08 in2.0 mm
07:14 AM 52.3°F11.3°C 46.3°F7.9°C 80% 9.4 mph W15.1 kmh W 13.5 mph21.7 kmh 29.75 in1007.5 mb 0.00 in0.0 mm 0.00 in0.0 mm 0.08 in2.0 mm
07:15 AM 52.3°F11.3°C 46.3°F7.9°C 80% 8.9 mph WNW14.3 kmh WNW 13.5 mph21.7 kmh 29.75 in1007.5 mb 0.00 in0.0 mm 0.00 in0.0 mm 0.08 in2.0 mm
07:16 AM 52.3°F11.3°C 46.3°F7.9°C 80% 8.9 mph WNW14.3 kmh WNW 13.5 mph21.7 kmh 29.75 in1007.5 mb 0.00 in0.0 mm 0.00 in0.0 mm 0.08 in2.0 mm
07:17 AM 52.3°F11.3°C 46.0°F7.8°C 79% 6.8 mph W10.9 kmh W 13.5 mph21.7 kmh 29.76 in1007.8 mb 0.00 in0.0 mm 0.00 in0.0 mm 0.08 in2.0 mm
07:18 AM 52.2°F11.2°C 46.2°F7.9°C 80% 6.3 mph W10.1 kmh W 13.5 mph21.7 kmh 29.76 in1007.8 mb 0.00 in0.0 mm 0.00 in0.0 mm 0.08 in2.0 mm
07:19 AM 52.2°F11.2°C 45.9°F7.7°C 79% 8.3 mph W13.4 kmh W 13.5 mph21.7 kmh 29.76 in1007.8 mb 0.00 in0.0 mm 0.00 in0.0 mm 0.08 in2.0 mm
07:20 AM 52.2°F11.2°C 46.2°F7.9°C 80% 6.3 mph W10.1 kmh W 13.5 mph21.7 kmh 29.76 in1007.8 mb 0.00 in0.0 mm 0.00 in0.0 mm 0.08 in2.0 mm
07:21 AM 52.2°F11.2°C 46.2°F7.9°C 80% 6.3 mph W10.1 kmh W 13.5 mph21.7 kmh 29.76 in1007.8 mb 0.00 in0.0 mm 0.00 in0.0 mm 0.08 in2.0 mm
07:22 AM 52.2°F11.2°C 46.2°F7.9°C 80% 7.3 mph W11.7 kmh W 9.9 mph15.9 kmh 29.76 in1007.8 mb 0.00 in0.0 mm 0.00 in0.0 mm 0.08 in2.0 mm
07:23 AM 52.0°F11.1°C 46.0°F7.8°C 80% 7.8 mph WSW12.6 kmh WSW 9.9 mph15.9 kmh 29.76 in1007.8 mb 0.00 in0.0 mm 0.00 in0.0 mm 0.08 in2.0 mm
07:24 AM 52.0°F11.1°C 46.0°F7.8°C 80% 7.8 mph W12.6 kmh W 9.9 mph15.9 kmh 29.76 in1007.8 mb 0.00 in0.0 mm 0.00 in0.0 mm 0.08 in2.0 mm
07:25 AM 52.0°F11.1°C 46.0°F7.8°C 80% 5.8 mph W9.3 kmh W 9.9 mph15.9 kmh 29.76 in1007.8 mb 0.00 in0.0 mm 0.00 in0.0 mm 0.08 in2.0 mm
07:26 AM 52.0°F11.1°C 46.0°F7.8°C 80% 4.7 mph NW7.6 kmh NW 9.9 mph15.9 kmh 29.76 in1007.8 mb 0.00 in0.0 mm 0.00 in0.0 mm 0.08 in2.0 mm
07:27 AM 52.0°F11.1°C 46.0°F7.8°C 80% 4.2 mph W6.8 kmh W 9.9 mph15.9 kmh 29.76 in1007.8 mb 0.00 in0.0 mm 0.00 in0.0 mm 0.08 in2.0 mm
07:28 AM 52.0°F11.1°C 46.0°F7.8°C 80% 6.8 mph W10.9 kmh W 9.9 mph15.9 kmh 29.76 in1007.8 mb 0.00 in0.0 mm 0.00 in0.0 mm 0.08 in2.0 mm
07:29 AM 52.0°F11.1°C 46.0°F7.8°C 80% 5.8 mph WSW9.3 kmh WSW 8.3 mph13.4 kmh 29.78 in1008.5 mb 0.00 in0.0 mm 0.00 in0.0 mm 0.08 in2.0 mm
07:30 AM 52.0°F11.1°C 46.0°F7.8°C 80% 7.3 mph SW11.7 kmh SW 8.3 mph13.4 kmh 29.78 in1008.5 mb 0.00 in0.0 mm 0.00 in0.0 mm 0.08 in2.0 mm
07:31 AM 52.0°F11.1°C 46.0°F7.8°C 80% 8.3 mph W13.4 kmh W 8.3 mph13.4 kmh 29.78 in1008.5 mb 0.00 in0.0 mm 0.00 in0.0 mm 0.08 in2.0 mm
07:32 AM 52.0°F11.1°C 46.0°F7.8°C 80% 5.8 mph W9.3 kmh W 9.9 mph15.9 kmh 29.78 in1008.5 mb 0.00 in0.0 mm 0.00 in0.0 mm 0.08 in2.0 mm
07:33 AM 52.0°F11.1°C 46.0°F7.8°C 80% 5.3 mph WNW8.5 kmh WNW 9.9 mph15.9 kmh 29.78 in1008.5 mb 0.00 in0.0 mm 0.00 in0.0 mm 0.08 in2.0 mm
07:34 AM 51.6°F10.9°C 46.0°F7.8°C 81% 5.3 mph W8.5 kmh W 9.9 mph15.9 kmh 29.78 in1008.5 mb 0.00 in0.0 mm 0.00 in0.0 mm 0.08 in2.0 mm
07:35 AM 51.6°F10.9°C 46.0°F7.8°C 81% 7.8 mph N12.6 kmh N 9.9 mph15.9 kmh 29.78 in1008.5 mb 0.00 in0.0 mm 0.00 in0.0 mm 0.08 in2.0 mm
07:36 AM 51.6°F10.9°C 46.0°F7.8°C 81% 9.9 mph NE15.9 kmh NE 9.9 mph15.9 kmh 29.78 in1008.5 mb 0.00 in0.0 mm 0.00 in0.0 mm 0.08 in2.0 mm
07:37 AM 51.6°F10.9°C 46.0°F7.8°C 81% 6.8 mph N10.9 kmh N 9.9 mph15.9 kmh 29.78 in1008.5 mb 0.00 in0.0 mm 0.00 in0.0 mm 0.08 in2.0 mm
07:38 AM 51.4°F10.8°C 46.1°F7.8°C 82% 13.0 mph ENE20.9 kmh ENE 13.0 mph20.9 kmh 29.78 in1008.5 mb 0.00 in0.0 mm 0.00 in0.0 mm 0.08 in2.0 mm
07:39 AM 50.7°F10.4°C 45.7°F7.6°C 83% 7.3 mph NNE11.7 kmh NNE 15.0 mph24.1 kmh 29.78 in1008.5 mb 0.00 in0.0 mm 0.00 in0.0 mm 0.08 in2.0 mm
07:40 AM 50.4°F10.2°C 46.1°F7.8°C 85% 6.8 mph NNW10.9 kmh NNW 15.0 mph24.1 kmh 29.80 in1009.1 mb 0.00 in0.0 mm 0.00 in0.0 mm 0.08 in2.0 mm
07:41 AM 50.2°F10.1°C 45.9°F7.7°C 85% 8.9 mph NE14.3 kmh NE 15.0 mph24.1 kmh 29.80 in1009.1 mb 0.00 in0.0 mm 0.00 in0.0 mm 0.08 in2.0 mm
07:42 AM 50.0°F10.0°C 45.7°F7.6°C 85% 6.8 mph NNE10.9 kmh NNE 15.0 mph24.1 kmh 29.80 in1009.1 mb 0.00 in0.0 mm 0.00 in0.0 mm 0.08 in2.0 mm
07:43 AM 49.8°F9.9°C 45.5°F7.5°C 85% 6.8 mph NNE10.9 kmh NNE 15.0 mph24.1 kmh 29.80 in1009.1 mb 0.00 in0.0 mm 0.00 in0.0 mm 0.08 in2.0 mm
07:44 AM 49.5°F9.7°C 45.5°F7.5°C 86% 7.3 mph NNE11.7 kmh NNE 15.0 mph24.1 kmh 29.80 in1009.1 mb 0.00 in0.0 mm 0.00 in0.0 mm 0.08 in2.0 mm
07:45 AM 49.3°F9.6°C 45.3°F7.4°C 86% 9.9 mph NNE15.9 kmh NNE 15.0 mph24.1 kmh 29.80 in1009.1 mb 0.00 in0.0 mm 0.00 in0.0 mm 0.08 in2.0 mm
07:46 AM 49.3°F9.6°C 45.3°F7.4°C 86% 7.3 mph NNE11.7 kmh NNE 15.0 mph24.1 kmh 29.80 in1009.1 mb 0.00 in0.0 mm 0.00 in0.0 mm 0.08 in2.0 mm
07:47 AM 49.1°F9.5°C 45.1°F7.3°C 86% 8.9 mph NE14.3 kmh NE 15.0 mph24.1 kmh 29.80 in1009.1 mb 0.00 in0.0 mm 0.00 in0.0 mm 0.08 in2.0 mm
07:48 AM 48.9°F9.4°C 44.9°F7.2°C 86% 9.9 mph NNE15.9 kmh NNE 15.0 mph24.1 kmh 29.80 in1009.1 mb 0.00 in0.0 mm 0.00 in0.0 mm 0.08 in2.0 mm
07:49 AM 48.9°F9.4°C 44.9°F7.2°C 86% 9.9 mph NNE15.9 kmh NNE 14.0 mph22.5 kmh 29.80 in1009.1 mb 0.00 in0.0 mm 0.00 in0.0 mm 0.08 in2.0 mm
07:50 AM 48.6°F9.2°C 44.6°F7.0°C 86% 8.9 mph NNE14.3 kmh NNE 14.0 mph22.5 kmh 29.80 in1009.1 mb 0.00 in0.0 mm 0.00 in0.0 mm 0.08 in2.0 mm
07:51 AM 48.2°F9.0°C 44.2°F6.8°C 86% 15.0 mph NNE24.1 kmh NNE 15.0 mph24.1 kmh 29.80 in1009.1 mb 0.01 in0.3 mm 0.60 in15.2 mm 0.01 in0.3 mm
07:52 AM 48.0°F8.9°C 44.0°F6.7°C 86% 9.9 mph WNW15.9 kmh WNW 15.0 mph24.1 kmh 29.80 in1009.1 mb 0.01 in0.3 mm 0.00 in0.0 mm 0.01 in0.3 mm
07:53 AM 48.0°F8.9°C 44.0°F6.7°C 86% 10.4 mph N16.7 kmh N 15.0 mph24.1 kmh 29.81 in1009.5 mb 0.01 in0.3 mm 0.00 in0.0 mm 0.01 in0.3 mm
07:54 AM 47.8°F8.8°C 43.8°F6.6°C 86% 9.9 mph N15.9 kmh N 15.0 mph24.1 kmh 29.81 in1009.5 mb 0.01 in0.3 mm 0.00 in0.0 mm 0.01 in0.3 mm
07:55 AM 47.8°F8.8°C 43.8°F6.6°C 86% 10.4 mph NE16.7 kmh NE 15.0 mph24.1 kmh 29.81 in1009.5 mb 0.01 in0.3 mm 0.00 in0.0 mm 0.01 in0.3 mm
07:56 AM 47.7°F8.7°C 43.4°F6.3°C 85% 9.9 mph NE15.9 kmh NE 15.0 mph24.1 kmh 29.81 in1009.5 mb 0.01 in0.3 mm 0.00 in0.0 mm 0.01 in0.3 mm
07:57 AM 47.5°F8.6°C 43.5°F6.4°C 86% 8.3 mph NNE13.4 kmh NNE 15.0 mph24.1 kmh 29.81 in1009.5 mb 0.01 in0.3 mm 0.00 in0.0 mm 0.01 in0.3 mm
07:58 AM 47.5°F8.6°C 43.5°F6.4°C 86% 7.3 mph NNE11.7 kmh NNE 15.0 mph24.1 kmh 29.81 in1009.5 mb 0.01 in0.3 mm 0.00 in0.0 mm 0.01 in0.3 mm
07:59 AM 47.3°F8.5°C 43.3°F6.3°C 86% 8.9 mph N14.3 kmh N 15.0 mph24.1 kmh 29.81 in1009.5 mb 0.01 in0.3 mm 0.00 in0.0 mm 0.01 in0.3 mm
08:00 AM 47.3°F8.5°C 43.3°F6.3°C 86% 6.3 mph N10.1 kmh N 15.0 mph24.1 kmh 29.81 in1009.5 mb 0.01 in0.3 mm 0.00 in0.0 mm 0.01 in0.3 mm
08:01 AM 47.3°F8.5°C 43.3°F6.3°C 86% 4.2 mph NE6.8 kmh NE 15.0 mph24.1 kmh 29.81 in1009.5 mb 0.01 in0.3 mm 0.00 in0.0 mm 0.01 in0.3 mm
08:02 AM 47.1°F8.4°C 43.1°F6.2°C 86% 6.8 mph N10.9 kmh N 13.5 mph21.7 kmh 29.81 in1009.5 mb 0.01 in0.3 mm 0.00 in0.0 mm 0.01 in0.3 mm
08:03 AM 47.1°F8.4°C 43.1°F6.2°C 86% 6.8 mph NNW10.9 kmh NNW 13.5 mph21.7 kmh 29.81 in1009.5 mb 0.01 in0.3 mm 0.00 in0.0 mm 0.01 in0.3 mm
08:04 AM 47.1°F8.4°C 43.1°F6.2°C 86% 3.7 mph N6.0 kmh N 13.5 mph21.7 kmh 29.81 in1009.5 mb 0.01 in0.3 mm 0.00 in0.0 mm 0.01 in0.3 mm
08:05 AM 47.1°F8.4°C 43.4°F6.3°C 87% 8.3 mph NNW13.4 kmh NNW 13.5 mph21.7 kmh 29.82 in1009.8 mb 0.01 in0.3 mm 0.00 in0.0 mm 0.01 in0.3 mm
08:06 AM 46.9°F8.3°C 43.2°F6.2°C 87% 8.9 mph NW14.3 kmh NW 11.9 mph19.2 kmh 29.82 in1009.8 mb 0.01 in0.3 mm 0.00 in0.0 mm 0.01 in0.3 mm
08:07 AM 46.9°F8.3°C 43.2°F6.2°C 87% 8.3 mph NE13.4 kmh NE 11.9 mph19.2 kmh 29.82 in1009.8 mb 0.01 in0.3 mm 0.00 in0.0 mm 0.01 in0.3 mm
08:08 AM 46.8°F8.2°C 43.1°F6.2°C 87% 9.9 mph NNE15.9 kmh NNE 11.9 mph19.2 kmh 29.82 in1009.8 mb 0.01 in0.3 mm 0.00 in0.0 mm 0.01 in0.3 mm
08:09 AM 46.6°F8.1°C 42.6°F5.9°C 86% 7.8 mph NNE12.6 kmh NNE 12.5 mph20.1 kmh 29.82 in1009.8 mb 0.01 in0.3 mm 0.00 in0.0 mm 0.01 in0.3 mm
08:10 AM 46.6°F8.1°C 42.6°F5.9°C 86% 7.3 mph WNW11.7 kmh WNW 12.5 mph20.1 kmh 29.82 in1009.8 mb 0.01 in0.3 mm 0.00 in0.0 mm 0.01 in0.3 mm
08:11 AM 46.6°F8.1°C 42.6°F5.9°C 86% 4.2 mph NE6.8 kmh NE 12.5 mph20.1 kmh 29.82 in1009.8 mb 0.01 in0.3 mm 0.00 in0.0 mm 0.01 in0.3 mm
08:12 AM 46.6°F8.1°C 42.6°F5.9°C 86% 8.3 mph NE13.4 kmh NE 12.5 mph20.1 kmh 29.82 in1009.8 mb 0.01 in0.3 mm 0.00 in0.0 mm 0.01 in0.3 mm
08:13 AM 46.6°F8.1°C 42.6°F5.9°C 86% 3.7 mph NNE6.0 kmh NNE 12.5 mph20.1 kmh 29.82 in1009.8 mb 0.01 in0.3 mm 0.00 in0.0 mm 0.01 in0.3 mm
08:14 AM 46.6°F8.1°C 42.9°F6.1°C 87% 9.9 mph NE15.9 kmh NE 12.5 mph20.1 kmh 29.82 in1009.8 mb 0.01 in0.3 mm 0.00 in0.0 mm 0.01 in0.3 mm
08:15 AM 46.4°F8.0°C 42.7°F5.9°C 87% 7.8 mph NNW12.6 kmh NNW 12.5 mph20.1 kmh 29.82 in1009.8 mb 0.01 in0.3 mm 0.00 in0.0 mm 0.01 in0.3 mm
08:16 AM 46.4°F8.0°C 42.7°F5.9°C 87% 6.8 mph NE10.9 kmh NE 12.5 mph20.1 kmh 29.82 in1009.8 mb 0.01 in0.3 mm 0.00 in0.0 mm 0.01 in0.3 mm
08:17 AM 46.4°F8.0°C 42.7°F5.9°C 87% 2.2 mph ESE3.5 kmh ESE 12.5 mph20.1 kmh 29.84 in1010.5 mb 0.01 in0.3 mm 0.00 in0.0 mm 0.01 in0.3 mm
08:18 AM 46.2°F7.9°C 42.5°F5.8°C 87% 6.8 mph NNE10.9 kmh NNE 12.5 mph20.1 kmh 29.84 in1010.5 mb 0.01 in0.3 mm 0.00 in0.0 mm 0.01 in0.3 mm
08:19 AM 46.2°F7.9°C 42.8°F6.0°C 88% 4.2 mph E6.8 kmh E 9.9 mph15.9 kmh 29.84 in1010.5 mb 0.01 in0.3 mm 0.00 in0.0 mm 0.01 in0.3 mm
08:20 AM 46.2°F7.9°C 42.8°F6.0°C 88% 10.4 mph WNW16.7 kmh WNW 10.4 mph16.7 kmh 29.84 in1010.5 mb 0.01 in0.3 mm 0.00 in0.0 mm 0.01 in0.3 mm
08:21 AM 46.2°F7.9°C 42.8°F6.0°C 88% 6.3 mph ENE10.1 kmh ENE 10.4 mph16.7 kmh 29.84 in1010.5 mb 0.01 in0.3 mm 0.00 in0.0 mm 0.01 in0.3 mm
08:22 AM 46.2°F7.9°C 42.8°F6.0°C 88% 7.8 mph NNE12.6 kmh NNE 10.4 mph16.7 kmh 29.84 in1010.5 mb 0.01 in0.3 mm 0.00 in0.0 mm 0.01 in0.3 mm
08:23 AM 46.0°F7.8°C 42.6°F5.9°C 88% 4.2 mph NNE6.8 kmh NNE 10.4 mph16.7 kmh 29.84 in1010.5 mb 0.01 in0.3 mm 0.00 in0.0 mm 0.01 in0.3 mm
08:24 AM 46.0°F7.8°C 42.6°F5.9°C 88% 5.3 mph SSE8.5 kmh SSE 10.4 mph16.7 kmh 29.84 in1010.5 mb 0.01 in0.3 mm 0.00 in0.0 mm 0.01 in0.3 mm
08:25 AM 45.9°F7.7°C 42.5°F5.8°C 88% 7.3 mph NE11.7 kmh NE 10.4 mph16.7 kmh 29.84 in1010.5 mb 0.01 in0.3 mm 0.00 in0.0 mm 0.01 in0.3 mm
08:26 AM 45.9°F7.7°C 42.5°F5.8°C 88% 5.8 mph NNE9.3 kmh NNE 10.4 mph16.7 kmh 29.84 in1010.5 mb 0.01 in0.3 mm 0.00 in0.0 mm 0.01 in0.3 mm
08:27 AM 45.7°F7.6°C 42.4°F5.8°C 88% 5.3 mph NE8.5 kmh NE 10.4 mph16.7 kmh 29.84 in1010.5 mb 0.01 in0.3 mm 0.00 in0.0 mm 0.01 in0.3 mm
08:28 AM 45.7°F7.6°C 42.4°F5.8°C 88% 6.8 mph N10.9 kmh N 10.4 mph16.7 kmh 29.86 in1011.2 mb 0.01 in0.3 mm 0.00 in0.0 mm 0.01 in0.3 mm
08:29 AM 45.7°F7.6°C 42.4°F5.8°C 88% 4.7 mph NE7.6 kmh NE 10.4 mph16.7 kmh 29.86 in1011.2 mb 0.01 in0.3 mm 0.00 in0.0 mm 0.01 in0.3 mm
08:30 AM 45.5°F7.5°C 42.2°F5.7°C 88% 8.3 mph N13.4 kmh N 8.9 mph14.3 kmh 29.86 in1011.2 mb 0.01 in0.3 mm 0.00 in0.0 mm 0.01 in0.3 mm
08:31 AM 45.5°F7.5°C 42.2°F5.7°C 88% 5.3 mph NNE8.5 kmh NNE 8.9 mph14.3 kmh 29.86 in1011.2 mb 0.01 in0.3 mm 0.00 in0.0 mm 0.01 in0.3 mm
08:32 AM 45.3°F7.4°C 42.0°F5.6°C 88% 6.8 mph NE10.9 kmh NE 9.9 mph15.9 kmh 29.86 in1011.2 mb 0.01 in0.3 mm 0.00 in0.0 mm 0.01 in0.3 mm
08:33 AM 45.3°F7.4°C 42.0°F5.6°C 88% 10.9 mph NNE17.5 kmh NNE 10.9 mph17.5 kmh 29.86 in1011.2 mb 0.01 in0.3 mm 0.00 in0.0 mm 0.01 in0.3 mm
08:34 AM 45.3°F7.4°C 42.0°F5.6°C 88% 10.9 mph NNW17.5 kmh NNW 11.4 mph18.3 kmh 29.86 in1011.2 mb 0.01 in0.3 mm 0.00 in0.0 mm 0.01 in0.3 mm
08:35 AM 45.3°F7.4°C 42.0°F5.6°C 88% 5.8 mph NE9.3 kmh NE 11.4 mph18.3 kmh 29.86 in1011.2 mb 0.01 in0.3 mm 0.00 in0.0 mm 0.01 in0.3 mm
08:36 AM 45.3°F7.4°C 42.0°F5.6°C 88% 6.8 mph NNE10.9 kmh NNE 11.4 mph18.3 kmh 29.86 in1011.2 mb 0.01 in0.3 mm 0.00 in0.0 mm 0.01 in0.3 mm
08:37 AM 45.1°F7.3°C 41.8°F5.4°C 88% 8.3 mph NE13.4 kmh NE 11.4 mph18.3 kmh 29.86 in1011.2 mb 0.01 in0.3 mm 0.00 in0.0 mm 0.01 in0.3 mm
08:38 AM 45.1°F7.3°C 41.8°F5.4°C 88% 6.8 mph N10.9 kmh N 11.4 mph18.3 kmh 29.86 in1011.2 mb 0.01 in0.3 mm 0.00 in0.0 mm 0.01 in0.3 mm
08:39 AM 45.1°F7.3°C 41.8°F5.4°C 88% 6.8 mph NNE10.9 kmh NNE 11.4 mph18.3 kmh 29.86 in1011.2 mb 0.01 in0.3 mm 0.00 in0.0 mm 0.01 in0.3 mm
08:40 AM 45.1°F7.3°C 41.8°F5.4°C 88% 8.9 mph NNE14.3 kmh NNE 11.4 mph18.3 kmh 29.86 in1011.2 mb 0.01 in0.3 mm 0.00 in0.0 mm 0.01 in0.3 mm
08:41 AM 45.1°F7.3°C 41.8°F5.4°C 88% 7.8 mph ENE12.6 kmh ENE 11.4 mph18.3 kmh 29.87 in1011.5 mb 0.01 in0.3 mm 0.00 in0.0 mm 0.01 in0.3 mm
08:42 AM 45.0°F7.2°C 41.7°F5.4°C 88% 8.9 mph N14.3 kmh N 11.4 mph18.3 kmh 29.87 in1011.5 mb 0.01 in0.3 mm 0.00 in0.0 mm 0.01 in0.3 mm
08:43 AM 45.0°F7.2°C 41.7°F5.4°C 88% 7.3 mph NNW11.7 kmh NNW 14.0 mph22.5 kmh 29.87 in1011.5 mb 0.01 in0.3 mm 0.00 in0.0 mm 0.01 in0.3 mm
08:44 AM 45.0°F7.2°C 41.7°F5.4°C 88% 11.4 mph NNE18.3 kmh NNE 14.0 mph22.5 kmh 29.87 in1011.5 mb 0.01 in0.3 mm 0.00 in0.0 mm 0.01 in0.3 mm
08:45 AM 45.0°F7.2°C 41.7°F5.4°C 88% 9.9 mph NNE15.9 kmh NNE 14.0 mph22.5 kmh 29.87 in1011.5 mb 0.01 in0.3 mm 0.00 in0.0 mm 0.01 in0.3 mm
08:51 AM 44.6°F7.0°C 41.6°F5.3°C 89% 6.3 mph NNE10.1 kmh NNE 14.0 mph22.5 kmh 29.87 in1011.5 mb 0.01 in0.3 mm 0.00 in0.0 mm 0.01 in0.3 mm
08:52 AM 44.6°F7.0°C 41.6°F5.3°C 89% 4.2 mph NNW6.8 kmh NNW 14.0 mph22.5 kmh 29.87 in1011.5 mb 0.00 in0.0 mm 0.00 in0.0 mm 0.01 in0.3 mm
08:53 AM 44.6°F7.0°C 41.9°F5.5°C 90% 7.3 mph NE11.7 kmh NE 11.4 mph18.3 kmh 29.88 in1011.9 mb 0.00 in0.0 mm 0.00 in0.0 mm 0.01 in0.3 mm
08:54 AM 44.4°F6.9°C 41.7°F5.4°C 90% 6.8 mph NNE10.9 kmh NNE 9.9 mph15.9 kmh 29.88 in1011.9 mb 0.00 in0.0 mm 0.00 in0.0 mm 0.01 in0.3 mm
08:55 AM 44.4°F6.9°C 41.7°F5.4°C 90% 7.3 mph NNE11.7 kmh NNE 9.9 mph15.9 kmh 29.88 in1011.9 mb 0.00 in0.0 mm 0.00 in0.0 mm 0.01 in0.3 mm
08:56 AM 44.4°F6.9°C 41.7°F5.4°C 90% 5.3 mph N8.5 kmh N 8.9 mph14.3 kmh 29.88 in1011.9 mb 0.00 in0.0 mm 0.00 in0.0 mm 0.01 in0.3 mm
08:57 AM 44.2°F6.8°C 41.7°F5.4°C 91% 5.3 mph ESE8.5 kmh ESE 9.4 mph15.1 kmh 29.88 in1011.9 mb 0.00 in0.0 mm 0.00 in0.0 mm 0.01 in0.3 mm
08:58 AM 44.2°F6.8°C 41.5°F5.3°C 90% 6.8 mph NNE10.9 kmh NNE 9.4 mph15.1 kmh 29.88 in1011.9 mb 0.00 in0.0 mm 0.00 in0.0 mm 0.01 in0.3 mm
08:59 AM 44.1°F6.7°C 41.4°F5.2°C 90% 7.8 mph NNE12.6 kmh NNE 9.4 mph15.1 kmh 29.88 in1011.9 mb 0.00 in0.0 mm 0.00 in0.0 mm 0.01 in0.3 mm
09:00 AM 43.9°F6.6°C 41.2°F5.1°C 90% 8.3 mph N13.4 kmh N 12.5 mph20.1 kmh 29.88 in1011.9 mb 0.00 in0.0 mm 0.00 in0.0 mm 0.01 in0.3 mm
09:01 AM 43.7°F6.5°C 41.0°F5.0°C 90% 5.3 mph SW8.5 kmh SW 12.5 mph20.1 kmh 29.88 in1011.9 mb 0.00 in0.0 mm 0.00 in0.0 mm 0.01 in0.3 mm
09:02 AM 43.3°F6.3°C 40.6°F4.8°C 90% 3.7 mph NNE6.0 kmh NNE 12.5 mph20.1 kmh 29.88 in1011.9 mb 0.00 in0.0 mm 0.00 in0.0 mm 0.01 in0.3 mm
09:03 AM 43.3°F6.3°C 40.6°F4.8°C 90% 8.9 mph NNE14.3 kmh NNE 12.5 mph20.1 kmh 29.88 in1011.9 mb 0.00 in0.0 mm 0.00 in0.0 mm 0.01 in0.3 mm
09:04 AM 43.2°F6.2°C 40.5°F4.7°C 90% 7.8 mph NNW12.6 kmh NNW 12.5 mph20.1 kmh 29.90 in1012.5 mb 0.00 in0.0 mm 0.00 in0.0 mm 0.01 in0.3 mm
09:05 AM 43.0°F6.1°C 40.3°F4.6°C 90% 13.0 mph NNE20.9 kmh NNE 13.0 mph20.9 kmh 29.90 in1012.5 mb 0.00 in0.0 mm 0.00 in0.0 mm 0.01 in0.3 mm
09:06 AM 42.6°F5.9°C 39.9°F4.4°C 90% 15.0 mph N24.1 kmh N 15.0 mph24.1 kmh 29.90 in1012.5 mb 0.00 in0.0 mm 0.00 in0.0 mm 0.01 in0.3 mm
09:07 AM 42.3°F5.7°C 39.3°F4.1°C 89% 16.1 mph NE25.9 kmh NE 16.1 mph25.9 kmh 29.90 in1012.5 mb 0.00 in0.0 mm 0.00 in0.0 mm 0.01 in0.3 mm
09:08 AM 42.3°F5.7°C 39.3°F4.1°C 89% 11.4 mph S18.3 kmh S 16.1 mph25.9 kmh 29.90 in1012.5 mb 0.00 in0.0 mm 0.00 in0.0 mm 0.01 in0.3 mm
09:09 AM 41.4°F5.2°C 38.1°F3.4°C 88% 14.0 mph NNE22.5 kmh NNE 17.1 mph27.5 kmh 29.90 in1012.5 mb 0.00 in0.0 mm 0.00 in0.0 mm 0.01 in0.3 mm
09:10 AM 41.2°F5.1°C 37.9°F3.3°C 88% 15.5 mph NE24.9 kmh NE 17.1 mph27.5 kmh 29.90 in1012.5 mb 0.00 in0.0 mm 0.00 in0.0 mm 0.01 in0.3 mm
09:11 AM 40.8°F4.9°C 37.5°F3.1°C 88% 10.4 mph NNE16.7 kmh NNE 17.1 mph27.5 kmh 29.90 in1012.5 mb 0.00 in0.0 mm 0.00 in0.0 mm 0.01 in0.3 mm
09:12 AM 40.6°F4.8°C 37.3°F2.9°C 88% 15.5 mph NE24.9 kmh NE 17.1 mph27.5 kmh 29.90 in1012.5 mb 0.00 in0.0 mm 0.00 in0.0 mm 0.01 in0.3 mm
09:13 AM 40.5°F4.7°C 37.2°F2.9°C 88% 14.0 mph NNE22.5 kmh NNE 17.1 mph27.5 kmh 29.90 in1012.5 mb 0.00 in0.0 mm 0.00 in0.0 mm 0.01 in0.3 mm
09:14 AM 40.1°F4.5°C 36.5°F2.5°C 87% 11.4 mph NE18.3 kmh NE 17.1 mph27.5 kmh 29.90 in1012.5 mb 0.00 in0.0 mm 0.00 in0.0 mm 0.01 in0.3 mm
09:15 AM 40.1°F4.5°C 36.5°F2.5°C 87% 14.5 mph N23.3 kmh N 17.1 mph27.5 kmh 29.90 in1012.5 mb 0.00 in0.0 mm 0.00 in0.0 mm 0.01 in0.3 mm
09:16 AM 39.9°F4.4°C 36.1°F2.3°C 86% 7.3 mph WNW11.7 kmh WNW 17.1 mph27.5 kmh 29.90 in1012.5 mb 0.00 in0.0 mm 0.00 in0.0 mm 0.01 in0.3 mm
09:17 AM 39.9°F4.4°C 36.1°F2.3°C 86% 11.4 mph NNE18.3 kmh NNE 17.1 mph27.5 kmh 29.93 in1013.5 mb 0.00 in0.0 mm 0.00 in0.0 mm 0.01 in0.3 mm
09:18 AM 39.9°F4.4°C 36.1°F2.3°C 86% 8.9 mph NNE14.3 kmh NNE 17.1 mph27.5 kmh 29.93 in1013.5 mb 0.00 in0.0 mm 0.00 in0.0 mm 0.01 in0.3 mm
09:19 AM 39.7°F4.3°C 35.9°F2.2°C 86% 11.4 mph NNE18.3 kmh NNE 17.1 mph27.5 kmh 29.93 in1013.5 mb 0.00 in0.0 mm 0.00 in0.0 mm 0.01 in0.3 mm
09:20 AM 39.7°F4.3°C 35.6°F2.0°C 85% 7.8 mph NNE12.6 kmh NNE 17.1 mph27.5 kmh 29.93 in1013.5 mb 0.00 in0.0 mm 0.00 in0.0 mm 0.01 in0.3 mm
09:21 AM 39.7°F4.3°C 35.6°F2.0°C 85% 16.6 mph NW26.7 kmh NW 17.1 mph27.5 kmh 29.93 in1013.5 mb 0.00 in0.0 mm 0.00 in0.0 mm 0.01 in0.3 mm
09:22 AM 39.7°F4.3°C 35.6°F2.0°C 85% 15.5 mph NNE24.9 kmh NNE 17.1 mph27.5 kmh 29.93 in1013.5 mb 0.00 in0.0 mm 0.00 in0.0 mm 0.01 in0.3 mm
09:23 AM 39.7°F4.3°C 35.6°F2.0°C 85% 8.9 mph NNE14.3 kmh NNE 17.1 mph27.5 kmh 29.93 in1013.5 mb 0.00 in0.0 mm 0.00 in0.0 mm 0.01 in0.3 mm
09:24 AM 39.6°F4.2°C 35.5°F1.9°C 85% 18.6 mph ENE29.9 kmh ENE 18.6 mph29.9 kmh 29.93 in1013.5 mb 0.00 in0.0 mm 0.00 in0.0 mm 0.01 in0.3 mm
09:25 AM 39.6°F4.2°C 35.5°F1.9°C 85% 10.4 mph NNE16.7 kmh NNE 18.6 mph29.9 kmh 29.93 in1013.5 mb 0.00 in0.0 mm 0.00 in0.0 mm 0.01 in0.3 mm
09:26 AM 39.6°F4.2°C 35.5°F1.9°C 85% 10.4 mph NE16.7 kmh NE 18.6 mph29.9 kmh 29.93 in1013.5 mb 0.00 in0.0 mm 0.00 in0.0 mm 0.01 in0.3 mm
09:27 AM 39.6°F4.2°C 35.5°F1.9°C 85% 9.4 mph N15.1 kmh N 18.6 mph29.9 kmh 29.93 in1013.5 mb 0.00 in0.0 mm 0.00 in0.0 mm 0.01 in0.3 mm
09:28 AM 39.6°F4.2°C 35.8°F2.1°C 86% 8.9 mph SW14.3 kmh SW 18.6 mph29.9 kmh 29.93 in1013.5 mb 0.00 in0.0 mm 0.00 in0.0 mm 0.01 in0.3 mm
09:29 AM 39.6°F4.2°C 35.8°F2.1°C 86% 11.4 mph NNE18.3 kmh NNE 18.6 mph29.9 kmh 29.94 in1013.9 mb 0.00 in0.0 mm 0.00 in0.0 mm 0.01 in0.3 mm
09:30 AM 39.6°F4.2°C 35.8°F2.1°C 86% 8.3 mph NNE13.4 kmh NNE 18.6 mph29.9 kmh 29.94 in1013.9 mb 0.00 in0.0 mm 0.00 in0.0 mm 0.01 in0.3 mm
09:31 AM 39.6°F4.2°C 35.8°F2.1°C 86% 9.9 mph N15.9 kmh N 18.6 mph29.9 kmh 29.94 in1013.9 mb 0.00 in0.0 mm 0.00 in0.0 mm 0.01 in0.3 mm
09:32 AM 39.6°F4.2°C 35.8°F2.1°C 86% 8.9 mph N14.3 kmh N 18.6 mph29.9 kmh 29.94 in1013.9 mb 0.00 in0.0 mm 0.00 in0.0 mm 0.01 in0.3 mm
09:33 AM 39.6°F4.2°C 35.8°F2.1°C 86% 7.8 mph NE12.6 kmh NE 18.6 mph29.9 kmh 29.94 in1013.9 mb 0.00 in0.0 mm 0.00 in0.0 mm 0.01 in0.3 mm
09:34 AM 39.6°F4.2°C 35.8°F2.1°C 86% 7.8 mph NE12.6 kmh NE 11.9 mph19.2 kmh 29.94 in1013.9 mb 0.00 in0.0 mm 0.00 in0.0 mm 0.01 in0.3 mm
09:35 AM 39.6°F4.2°C 35.8°F2.1°C 86% 8.3 mph N13.4 kmh N 11.9 mph19.2 kmh 29.94 in1013.9 mb 0.00 in0.0 mm 0.00 in0.0 mm 0.01 in0.3 mm
09:36 AM 39.6°F4.2°C 35.8°F2.1°C 86% 8.3 mph NNE13.4 kmh NNE 11.9 mph19.2 kmh 29.94 in1013.9 mb 0.00 in0.0 mm 0.00 in0.0 mm 0.01 in0.3 mm
09:37 AM 39.6°F4.2°C 35.8°F2.1°C 86% 15.5 mph NE24.9 kmh NE 15.5 mph24.9 kmh 29.94 in1013.9 mb 0.00 in0.0 mm 0.00 in0.0 mm 0.01 in0.3 mm
09:38 AM 39.4°F4.1°C 35.9°F2.2°C 87% 5.8 mph NNE9.3 kmh NNE 15.5 mph24.9 kmh 29.94 in1013.9 mb 0.00 in0.0 mm 0.00 in0.0 mm 0.01 in0.3 mm
09:39 AM 39.4°F4.1°C 35.9°F2.2°C 87% 10.4 mph NNE16.7 kmh NNE 15.5 mph24.9 kmh 29.94 in1013.9 mb 0.00 in0.0 mm 0.00 in0.0 mm 0.01 in0.3 mm
09:40 AM 39.4°F4.1°C 35.9°F2.2°C 87% 7.3 mph NE11.7 kmh NE 15.5 mph24.9 kmh 29.95 in1014.2 mb 0.00 in0.0 mm 0.00 in0.0 mm 0.01 in0.3 mm
09:41 AM 39.4°F4.1°C 35.9°F2.2°C 87% 7.3 mph NNE11.7 kmh NNE 15.5 mph24.9 kmh 29.95 in1014.2 mb 0.00 in0.0 mm 0.00 in0.0 mm 0.01 in0.3 mm
09:42 AM 39.4°F4.1°C 35.9°F2.2°C 87% 3.7 mph SW6.0 kmh SW 15.5 mph24.9 kmh 29.95 in1014.2 mb 0.00 in0.0 mm 0.00 in0.0 mm 0.01 in0.3 mm
09:43 AM 39.4°F4.1°C 35.9°F2.2°C 87% 14.0 mph NNE22.5 kmh NNE 15.5 mph24.9 kmh 29.95 in1014.2 mb 0.00 in0.0 mm 0.00 in0.0 mm 0.01 in0.3 mm
09:44 AM 39.2°F4.0°C 35.7°F2.1°C 87% 12.5 mph NNE20.1 kmh NNE 15.5 mph24.9 kmh 29.95 in1014.2 mb 0.00 in0.0 mm 0.00 in0.0 mm 0.01 in0.3 mm
09:45 AM 39.2°F4.0°C 35.7°F2.1°C 87% 12.5 mph NNE20.1 kmh NNE 15.5 mph24.9 kmh 29.95 in1014.2 mb 0.00 in0.0 mm 0.00 in0.0 mm 0.01 in0.3 mm
09:46 AM 39.2°F4.0°C 35.7°F2.1°C 87% 5.8 mph N9.3 kmh N 15.5 mph24.9 kmh 29.95 in1014.2 mb 0.00 in0.0 mm 0.00 in0.0 mm 0.01 in0.3 mm
09:47 AM 39.2°F4.0°C 35.7°F2.1°C 87% 5.8 mph NNE9.3 kmh NNE 14.0 mph22.5 kmh 29.95 in1014.2 mb 0.00 in0.0 mm 0.00 in0.0 mm 0.01 in0.3 mm
09:48 AM 39.2°F4.0°C 36.0°F2.2°C 88% 6.8 mph N10.9 kmh N 14.0 mph22.5 kmh 29.95 in1014.2 mb 0.00 in0.0 mm 0.00 in0.0 mm 0.01 in0.3 mm
09:49 AM 39.2°F4.0°C 35.7°F2.1°C 87% 9.9 mph NNE15.9 kmh NNE 14.0 mph22.5 kmh 29.95 in1014.2 mb 0.00 in0.0 mm 0.00 in0.0 mm 0.01 in0.3 mm
09:50 AM 39.0°F3.9°C 34.9°F1.6°C 85% 10.4 mph NE16.7 kmh NE 18.1 mph29.1 kmh 29.95 in1014.2 mb 0.00 in0.0 mm 0.00 in0.0 mm 0.01 in0.3 mm
09:51 AM 38.8°F3.8°C 34.1°F1.2°C 83% 13.0 mph NNW20.9 kmh NNW 18.1 mph29.1 kmh 29.95 in1014.2 mb 0.00 in0.0 mm 0.00 in0.0 mm 0.01 in0.3 mm
09:52 AM 38.8°F3.8°C 33.8°F1.0°C 82% 11.9 mph SW19.2 kmh SW 18.1 mph29.1 kmh 29.95 in1014.2 mb 0.00 in0.0 mm 0.00 in0.0 mm 0.01 in0.3 mm
09:53 AM 38.7°F3.7°C 33.4°F0.8°C 81% 8.9 mph W14.3 kmh W 18.1 mph29.1 kmh 29.96 in1014.6 mb 0.00 in0.0 mm 0.00 in0.0 mm 0.01 in0.3 mm
09:54 AM 38.7°F3.7°C 33.7°F0.9°C 82% 15.0 mph NNW24.1 kmh NNW 18.1 mph29.1 kmh 29.96 in1014.6 mb 0.00 in0.0 mm 0.00 in0.0 mm 0.01 in0.3 mm
09:55 AM 38.5°F3.6°C 33.5°F0.8°C 82% 8.9 mph N14.3 kmh N 18.1 mph29.1 kmh 29.96 in1014.6 mb 0.00 in0.0 mm 0.00 in0.0 mm 0.01 in0.3 mm
09:56 AM 38.5°F3.6°C 33.5°F0.8°C 82% 7.3 mph NNE11.7 kmh NNE 18.1 mph29.1 kmh 29.96 in1014.6 mb 0.00 in0.0 mm 0.00 in0.0 mm 0.01 in0.3 mm
09:57 AM 38.5°F3.6°C 33.5°F0.8°C 82% 8.9 mph N14.3 kmh N 18.1 mph29.1 kmh 29.96 in1014.6 mb 0.00 in0.0 mm 0.00 in0.0 mm 0.01 in0.3 mm
10:03 AM 38.3°F3.5°C 33.0°F0.6°C 81% 9.9 mph N15.9 kmh N 15.0 mph24.1 kmh 29.96 in1014.6 mb 0.00 in0.0 mm 0.00 in0.0 mm 0.01 in0.3 mm
10:04 AM 38.3°F3.5°C 33.0°F0.6°C 81% 9.4 mph NNE15.1 kmh NNE 15.0 mph24.1 kmh 29.96 in1014.6 mb 0.00 in0.0 mm 0.00 in0.0 mm 0.01 in0.3 mm
10:05 AM 38.1°F3.4°C 32.8°F0.4°C 81% 12.5 mph NE20.1 kmh NE 14.0 mph22.5 kmh 29.98 in1015.2 mb 0.00 in0.0 mm 0.00 in0.0 mm 0.01 in0.3 mm
10:06 AM 38.1°F3.4°C 32.8°F0.4°C 81% 12.5 mph NNE20.1 kmh NNE 14.0 mph22.5 kmh 29.98 in1015.2 mb 0.00 in0.0 mm 0.00 in0.0 mm 0.01 in0.3 mm
10:07 AM 37.9°F3.3°C 32.6°F0.3°C 81% 10.4 mph N16.7 kmh N 14.0 mph22.5 kmh 29.98 in1015.2 mb 0.00 in0.0 mm 0.00 in0.0 mm 0.01 in0.3 mm
10:08 AM 37.9°F3.3°C 32.6°F0.3°C 81% 9.4 mph N15.1 kmh N 14.0 mph22.5 kmh 29.98 in1015.2 mb 0.00 in0.0 mm 0.00 in0.0 mm 0.01 in0.3 mm
10:09 AM 37.8°F3.2°C 32.5°F0.3°C 81% 8.3 mph NNE13.4 kmh NNE 14.0 mph22.5 kmh 29.98 in1015.2 mb 0.00 in0.0 mm 0.00 in0.0 mm 0.01 in0.3 mm
10:10 AM 37.8°F3.2°C 32.5°F0.3°C 81% 7.8 mph NNE12.6 kmh NNE 14.0 mph22.5 kmh 29.98 in1015.2 mb 0.00 in0.0 mm 0.00 in0.0 mm 0.01 in0.3 mm
10:11 AM 37.8°F3.2°C 32.5°F0.3°C 81% 7.3 mph NNE11.7 kmh NNE 14.0 mph22.5 kmh 29.98 in1015.2 mb 0.00 in0.0 mm 0.00 in0.0 mm 0.01 in0.3 mm
10:12 AM 37.8°F3.2°C 32.5°F0.3°C 81% 6.8 mph NNW10.9 kmh NNW 14.0 mph22.5 kmh 29.98 in1015.2 mb 0.00 in0.0 mm 0.00 in0.0 mm 0.01 in0.3 mm
10:13 AM 37.8°F3.2°C 32.2°F0.1°C 80% 12.5 mph NE20.1 kmh NE 14.0 mph22.5 kmh 29.98 in1015.2 mb 0.00 in0.0 mm 0.00 in0.0 mm 0.01 in0.3 mm
10:14 AM 37.8°F3.2°C 32.2°F0.1°C 80% 12.5 mph N20.1 kmh N 14.0 mph22.5 kmh 29.98 in1015.2 mb 0.00 in0.0 mm 0.00 in0.0 mm 0.01 in0.3 mm
10:15 AM 37.6°F3.1°C 32.0°F0.0°C 80% 10.4 mph NNW16.7 kmh NNW 13.5 mph21.7 kmh 29.98 in1015.2 mb 0.00 in0.0 mm 0.00 in0.0 mm 0.01 in0.3 mm
10:16 AM 37.6°F3.1°C 32.0°F0.0°C 80% 6.8 mph ENE10.9 kmh ENE 13.5 mph21.7 kmh 29.98 in1015.2 mb 0.00 in0.0 mm 0.00 in0.0 mm 0.01 in0.3 mm
10:17 AM 37.6°F3.1°C 31.7°F-0.2°C 79% 15.0 mph NNE24.1 kmh NNE 15.0 mph24.1 kmh 30.00 in1015.9 mb 0.00 in0.0 mm 0.00 in0.0 mm 0.01 in0.3 mm
10:18 AM 37.6°F3.1°C 31.4°F-0.3°C 78% 11.4 mph WNW18.3 kmh WNW 15.0 mph24.1 kmh 30.00 in1015.9 mb 0.00 in0.0 mm 0.00 in0.0 mm 0.01 in0.3 mm
10:19 AM 37.4°F3.0°C 31.2°F-0.4°C 78% 17.1 mph N27.5 kmh N 17.1 mph27.5 kmh 30.00 in1015.9 mb 0.00 in0.0 mm 0.00 in0.0 mm 0.01 in0.3 mm
10:20 AM 37.2°F2.9°C 30.7°F-0.7°C 77% 10.9 mph NE17.5 kmh NE 20.2 mph32.5 kmh 30.00 in1015.9 mb 0.00 in0.0 mm 0.00 in0.0 mm 0.01 in0.3 mm
10:21 AM 37.2°F2.9°C 31.0°F-0.6°C 78% 10.9 mph N17.5 kmh N 20.2 mph32.5 kmh 30.00 in1015.9 mb 0.00 in0.0 mm 0.00 in0.0 mm 0.01 in0.3 mm
10:22 AM 37.2°F2.9°C 31.0°F-0.6°C 78% 14.5 mph E23.3 kmh E 20.2 mph32.5 kmh 30.00 in1015.9 mb 0.00 in0.0 mm 0.00 in0.0 mm 0.01 in0.3 mm
10:23 AM 37.2°F2.9°C 31.0°F-0.6°C 78% 7.3 mph NNW11.7 kmh NNW 20.2 mph32.5 kmh 30.00 in1015.9 mb 0.00 in0.0 mm 0.00 in0.0 mm 0.01 in0.3 mm
10:24 AM 37.2°F2.9°C 31.0°F-0.6°C 78% 14.0 mph WNW22.5 kmh WNW 20.2 mph32.5 kmh 30.00 in1015.9 mb 0.00 in0.0 mm 0.00 in0.0 mm 0.01 in0.3 mm
10:25 AM 37.2°F2.9°C 31.0°F-0.6°C 78% 8.9 mph NNW14.3 kmh NNW 20.2 mph32.5 kmh 30.00 in1015.9 mb 0.00 in0.0 mm 0.00 in0.0 mm 0.01 in0.3 mm
10:26 AM 37.2°F2.9°C 31.0°F-0.6°C 78% 8.3 mph NNE13.4 kmh NNE 20.2 mph32.5 kmh 30.00 in1015.9 mb 0.00 in0.0 mm 0.00 in0.0 mm 0.01 in0.3 mm
10:27 AM 37.2°F2.9°C 31.0°F-0.6°C 78% 7.8 mph NNE12.6 kmh NNE 20.2 mph32.5 kmh 30.00 in1015.9 mb 0.00 in0.0 mm 0.00 in0.0 mm 0.01 in0.3 mm
10:28 AM 37.2°F2.9°C 31.3°F-0.4°C 79% 6.8 mph N10.9 kmh N 20.2 mph32.5 kmh 30.00 in1015.9 mb 0.00 in0.0 mm 0.00 in0.0 mm 0.01 in0.3 mm
10:29 AM 37.2°F2.9°C 31.3°F-0.4°C 79% 5.8 mph N9.3 kmh N 20.2 mph32.5 kmh 30.00 in1015.9 mb 0.00 in0.0 mm 0.00 in0.0 mm 0.01 in0.3 mm
10:30 AM 37.2°F2.9°C 31.6°F-0.2°C 80% 7.3 mph ENE11.7 kmh ENE 15.5 mph24.9 kmh 30.00 in1015.9 mb 0.00 in0.0 mm 0.00 in0.0 mm 0.01 in0.3 mm
10:31 AM 37.2°F2.9°C 31.6°F-0.2°C 80% 8.3 mph NNE13.4 kmh NNE 15.5 mph24.9 kmh 30.00 in1015.9 mb 0.00 in0.0 mm 0.00 in0.0 mm 0.01 in0.3 mm
10:32 AM 37.2°F2.9°C 31.3°F-0.4°C 79% 6.8 mph E10.9 kmh E 15.5 mph24.9 kmh 30.00 in1015.9 mb 0.00 in0.0 mm 0.00 in0.0 mm 0.01 in0.3 mm
10:33 AM 37.2°F2.9°C 31.3°F-0.4°C 79% 6.8 mph NE10.9 kmh NE 14.0 mph22.5 kmh 30.00 in1015.9 mb 0.00 in0.0 mm 0.00 in0.0 mm 0.01 in0.3 mm
10:34 AM 37.2°F2.9°C 31.3°F-0.4°C 79% 9.9 mph NNW15.9 kmh NNW 11.9 mph19.2 kmh 30.00 in1015.9 mb 0.00 in0.0 mm 0.00 in0.0 mm 0.01 in0.3 mm
10:35 AM 37.0°F2.8°C 30.5°F-0.8°C 77% 7.8 mph NE12.6 kmh NE 13.0 mph20.9 kmh 30.00 in1015.9 mb 0.00 in0.0 mm 0.00 in0.0 mm 0.01 in0.3 mm
10:36 AM 37.0°F2.8°C 30.5°F-0.8°C 77% 5.8 mph NNE9.3 kmh NNE 13.0 mph20.9 kmh 30.00 in1015.9 mb 0.00 in0.0 mm 0.00 in0.0 mm 0.01 in0.3 mm
10:37 AM 37.0°F2.8°C 30.8°F-0.7°C 78% 7.8 mph NNE12.6 kmh NNE 13.0 mph20.9 kmh 30.00 in1015.9 mb 0.00 in0.0 mm 0.00 in0.0 mm 0.01 in0.3 mm
10:38 AM 36.9°F2.7°C 30.4°F-0.9°C 77% 8.9 mph NNE14.3 kmh NNE 13.0 mph20.9 kmh 30.00 in1015.9 mb 0.00 in0.0 mm 0.00 in0.0 mm 0.01 in0.3 mm
10:39 AM 36.9°F2.7°C 30.7°F-0.7°C 78% 7.8 mph NE12.6 kmh NE 13.0 mph20.9 kmh 30.00 in1015.9 mb 0.00 in0.0 mm 0.00 in0.0 mm 0.01 in0.3 mm
10:40 AM 36.9°F2.7°C 30.4°F-0.9°C 77% 10.9 mph NNE17.5 kmh NNE 13.0 mph20.9 kmh 30.00 in1015.9 mb 0.00 in0.0 mm 0.00 in0.0 mm 0.01 in0.3 mm
10:41 AM 36.9°F2.7°C 30.4°F-0.9°C 77% 8.9 mph NW14.3 kmh NW 14.5 mph23.3 kmh 30.01 in1016.3 mb 0.00 in0.0 mm 0.00 in0.0 mm 0.01 in0.3 mm
10:42 AM 36.9°F2.7°C 30.7°F-0.7°C 78% 7.8 mph NNE12.6 kmh NNE 14.5 mph23.3 kmh 30.01 in1016.3 mb 0.00 in0.0 mm 0.00 in0.0 mm 0.01 in0.3 mm
10:43 AM 36.9°F2.7°C 30.7°F-0.7°C 78% 9.4 mph N15.1 kmh N 14.5 mph23.3 kmh 30.01 in1016.3 mb 0.00 in0.0 mm 0.00 in0.0 mm 0.01 in0.3 mm
10:44 AM 36.9°F2.7°C 30.7°F-0.7°C 78% 6.8 mph NNE10.9 kmh NNE 14.5 mph23.3 kmh 30.01 in1016.3 mb 0.00 in0.0 mm 0.00 in0.0 mm 0.01 in0.3 mm
10:45 AM 36.9°F2.7°C 30.7°F-0.7°C 78% 2.7 mph NNW4.3 kmh NNW 14.5 mph23.3 kmh 30.01 in1016.3 mb 0.00 in0.0 mm 0.00 in0.0 mm 0.01 in0.3 mm
10:46 AM 36.9°F2.7°C 30.7°F-0.7°C 78% 8.9 mph NNE14.3 kmh NNE 14.5 mph23.3 kmh 30.01 in1016.3 mb 0.00 in0.0 mm 0.00 in0.0 mm 0.01 in0.3 mm
10:47 AM 36.7°F2.6°C 29.9°F-1.2°C 76% 9.9 mph N15.9 kmh N 14.5 mph23.3 kmh 30.01 in1016.3 mb 0.00 in0.0 mm 0.00 in0.0 mm 0.01 in0.3 mm
10:48 AM 36.7°F2.6°C 29.9°F-1.2°C 76% 10.4 mph E16.7 kmh E 14.5 mph23.3 kmh 30.01 in1016.3 mb 0.00 in0.0 mm 0.00 in0.0 mm 0.01 in0.3 mm
10:49 AM 36.7°F2.6°C 30.2°F-1.0°C 77% 10.9 mph NNE17.5 kmh NNE 14.5 mph23.3 kmh 30.01 in1016.3 mb 0.00 in0.0 mm 0.00 in0.0 mm 0.01 in0.3 mm
10:50 AM 36.5°F2.5°C 29.7°F-1.3°C 76% 6.8 mph NNE10.9 kmh NNE 14.5 mph23.3 kmh 30.01 in1016.3 mb 0.00 in0.0 mm 0.00 in0.0 mm 0.01 in0.3 mm
10:51 AM 36.5°F2.5°C 29.7°F-1.3°C 76% 7.8 mph NNE12.6 kmh NNE 11.4 mph18.3 kmh 30.01 in1016.3 mb 0.00 in0.0 mm 0.00 in0.0 mm 0.01 in0.3 mm
10:52 AM 36.5°F2.5°C 29.7°F-1.3°C 76% 10.9 mph NNE17.5 kmh NNE 11.4 mph18.3 kmh 30.01 in1016.3 mb 0.00 in0.0 mm 0.00 in0.0 mm 0.01 in0.3 mm
10:53 AM 36.5°F2.5°C 29.7°F-1.3°C 76% 2.7 mph SW4.3 kmh SW 11.9 mph19.2 kmh 30.02 in1016.6 mb 0.00 in0.0 mm 0.00 in0.0 mm 0.01 in0.3 mm
10:54 AM 36.5°F2.5°C 29.7°F-1.3°C 76% 7.3 mph NNE11.7 kmh NNE 11.9 mph19.2 kmh 30.02 in1016.6 mb 0.00 in0.0 mm 0.00 in0.0 mm 0.01 in0.3 mm
10:55 AM 36.5°F2.5°C 29.7°F-1.3°C 76% 7.8 mph N12.6 kmh N 11.9 mph19.2 kmh 30.02 in1016.6 mb 0.00 in0.0 mm 0.00 in0.0 mm 0.01 in0.3 mm
10:56 AM 36.5°F2.5°C 29.7°F-1.3°C 76% 5.3 mph NE8.5 kmh NE 11.9 mph19.2 kmh 30.02 in1016.6 mb 0.00 in0.0 mm 0.00 in0.0 mm 0.01 in0.3 mm
10:57 AM 36.5°F2.5°C 29.7°F-1.3°C 76% 8.9 mph NE14.3 kmh NE 11.9 mph19.2 kmh 30.02 in1016.6 mb 0.00 in0.0 mm 0.00 in0.0 mm 0.01 in0.3 mm
10:58 AM 36.3°F2.4°C 29.5°F-1.4°C 76% 9.4 mph NNE15.1 kmh NNE 11.9 mph19.2 kmh 30.02 in1016.6 mb 0.00 in0.0 mm 0.00 in0.0 mm 0.01 in0.3 mm
10:59 AM 36.3°F2.4°C 29.5°F-1.4°C 76% 8.3 mph NE13.4 kmh NE 11.9 mph19.2 kmh 30.02 in1016.6 mb 0.00 in0.0 mm 0.00 in0.0 mm 0.01 in0.3 mm
11:00 AM 36.3°F2.4°C 29.8°F-1.2°C 77% 3.7 mph WNW6.0 kmh WNW 11.9 mph19.2 kmh 30.02 in1016.6 mb 0.00 in0.0 mm 0.00 in0.0 mm 0.01 in0.3 mm
11:01 AM 36.3°F2.4°C 29.8°F-1.2°C 77% 4.7 mph NNE7.6 kmh NNE 11.9 mph19.2 kmh 30.02 in1016.6 mb 0.00 in0.0 mm 0.00 in0.0 mm 0.01 in0.3 mm
11:02 AM 36.3°F2.4°C 29.8°F-1.2°C 77% 11.9 mph NNE19.2 kmh NNE 11.9 mph19.2 kmh 30.02 in1016.6 mb 0.00 in0.0 mm 0.00 in0.0 mm 0.01 in0.3 mm
11:03 AM 36.3°F2.4°C 29.1°F-1.6°C 75% 9.4 mph NNE15.1 kmh NNE 11.9 mph19.2 kmh 30.02 in1016.6 mb 0.00 in0.0 mm 0.00 in0.0 mm 0.01 in0.3 mm
11:04 AM 36.3°F2.4°C 28.8°F-1.8°C 74% 9.9 mph NNE15.9 kmh NNE 11.9 mph19.2 kmh 30.02 in1016.6 mb 0.00 in0.0 mm 0.00 in0.0 mm 0.01 in0.3 mm
11:05 AM 36.3°F2.4°C 28.8°F-1.8°C 74% 9.9 mph NNE15.9 kmh NNE 11.9 mph19.2 kmh 30.02 in1016.6 mb 0.00 in0.0 mm 0.00 in0.0 mm 0.01 in0.3 mm
11:06 AM 36.3°F2.4°C 28.8°F-1.8°C 74% 7.3 mph NNE11.7 kmh NNE 11.9 mph19.2 kmh 30.02 in1016.6 mb 0.00 in0.0 mm 0.00 in0.0 mm 0.01 in0.3 mm
11:07 AM 36.3°F2.4°C 29.1°F-1.6°C 75% 6.3 mph NE10.1 kmh NE 11.9 mph19.2 kmh 30.02 in1016.6 mb 0.00 in0.0 mm 0.00 in0.0 mm 0.01 in0.3 mm
11:08 AM 36.3°F2.4°C 29.1°F-1.6°C 75% 10.9 mph NNE17.5 kmh NNE 11.9 mph19.2 kmh 30.02 in1016.6 mb 0.00 in0.0 mm 0.00 in0.0 mm 0.01 in0.3 mm
11:09 AM 36.1°F2.3°C 29.0°F-1.7°C 75% 11.4 mph NNE18.3 kmh NNE 11.9 mph19.2 kmh 30.02 in1016.6 mb 0.00 in0.0 mm 0.00 in0.0 mm 0.01 in0.3 mm
11:10 AM 36.1°F2.3°C 28.6°F-1.9°C 74% 4.7 mph NE7.6 kmh NE 11.9 mph19.2 kmh 30.02 in1016.6 mb 0.00 in0.0 mm 0.00 in0.0 mm 0.01 in0.3 mm
11:11 AM 36.1°F2.3°C 29.0°F-1.7°C 75% 5.8 mph NE9.3 kmh NE 11.9 mph19.2 kmh 30.02 in1016.6 mb 0.00 in0.0 mm 0.00 in0.0 mm 0.01 in0.3 mm
11:12 AM 36.1°F2.3°C 29.0°F-1.7°C 75% 3.7 mph N6.0 kmh N 11.9 mph19.2 kmh 30.02 in1016.6 mb 0.00 in0.0 mm 0.00 in0.0 mm 0.01 in0.3 mm
11:13 AM 36.3°F2.4°C 29.1°F-1.6°C 75% 10.4 mph NE16.7 kmh NE 11.9 mph19.2 kmh 30.02 in1016.6 mb 0.00 in0.0 mm 0.00 in0.0 mm 0.01 in0.3 mm
11:14 AM 36.3°F2.4°C 29.1°F-1.6°C 75% 9.9 mph NNE15.9 kmh NNE 11.9 mph19.2 kmh 30.02 in1016.6 mb 0.00 in0.0 mm 0.00 in0.0 mm 0.01 in0.3 mm
11:15 AM 36.3°F2.4°C 28.5°F-1.9°C 73% 8.9 mph NNE14.3 kmh NNE 11.9 mph19.2 kmh 30.02 in1016.6 mb 0.00 in0.0 mm 0.00 in0.0 mm 0.01 in0.3 mm
11:16 AM 36.3°F2.4°C 28.5°F-1.9°C 73% 6.3 mph NNE10.1 kmh NNE 11.9 mph19.2 kmh 30.02 in1016.6 mb 0.00 in0.0 mm 0.00 in0.0 mm 0.01 in0.3 mm
11:17 AM 36.3°F2.4°C 28.8°F-1.8°C 74% 10.9 mph SSW17.5 kmh SSW 11.9 mph19.2 kmh 30.03 in1016.9 mb 0.00 in0.0 mm 0.00 in0.0 mm 0.01 in0.3 mm
11:18 AM 36.5°F2.5°C 29.0°F-1.7°C 74% 9.4 mph ESE15.1 kmh ESE 11.9 mph19.2 kmh 30.03 in1016.9 mb 0.00 in0.0 mm 0.00 in0.0 mm 0.01 in0.3 mm
11:19 AM 36.5°F2.5°C 28.3°F-2.1°C 72% 4.7 mph NE7.6 kmh NE 11.4 mph18.3 kmh 30.03 in1016.9 mb 0.00 in0.0 mm 0.00 in0.0 mm 0.01 in0.3 mm
11:20 AM 36.5°F2.5°C 28.3°F-2.1°C 72% 10.4 mph NNE16.7 kmh NNE 11.4 mph18.3 kmh 30.03 in1016.9 mb 0.00 in0.0 mm 0.00 in0.0 mm 0.01 in0.3 mm
11:21 AM 36.5°F2.5°C 28.3°F-2.1°C 72% 8.9 mph NE14.3 kmh NE 14.5 mph23.3 kmh 30.03 in1016.9 mb 0.00 in0.0 mm 0.00 in0.0 mm 0.01 in0.3 mm
11:22 AM 36.5°F2.5°C 28.3°F-2.1°C 72% 10.4 mph NNE16.7 kmh NNE 14.5 mph23.3 kmh 30.03 in1016.9 mb 0.00 in0.0 mm 0.00 in0.0 mm 0.01 in0.3 mm
11:23 AM 36.3°F2.4°C 27.8°F-2.3°C 71% 9.9 mph NW15.9 kmh NW 14.5 mph23.3 kmh 30.03 in1016.9 mb 0.00 in0.0 mm 0.00 in0.0 mm 0.01 in0.3 mm
11:24 AM 36.3°F2.4°C 28.2°F-2.1°C 72% 6.8 mph NNE10.9 kmh NNE 14.5 mph23.3 kmh 30.03 in1016.9 mb 0.00 in0.0 mm 0.00 in0.0 mm 0.01 in0.3 mm
11:25 AM 36.3°F2.4°C 28.2°F-2.1°C 72% 6.8 mph NNE10.9 kmh NNE 14.5 mph23.3 kmh 30.03 in1016.9 mb 0.00 in0.0 mm 0.00 in0.0 mm 0.01 in0.3 mm
11:30 AM 36.3°F2.4°C 28.2°F-2.1°C 72% 10.4 mph NNE16.7 kmh NNE 14.5 mph23.3 kmh 30.03 in1016.9 mb 0.00 in0.0 mm 0.00 in0.0 mm 0.01 in0.3 mm
11:31 AM 36.5°F2.5°C 28.0°F-2.2°C 71% 12.5 mph W20.1 kmh W 14.0 mph22.5 kmh 30.03 in1016.9 mb 0.00 in0.0 mm 0.00 in0.0 mm 0.01 in0.3 mm
11:32 AM 36.5°F2.5°C 28.0°F-2.2°C 71% 10.9 mph NE17.5 kmh NE 14.0 mph22.5 kmh 30.03 in1016.9 mb 0.00 in0.0 mm 0.00 in0.0 mm 0.01 in0.3 mm
11:33 AM 36.5°F2.5°C 27.7°F-2.4°C 70% 14.0 mph NE22.5 kmh NE 14.0 mph22.5 kmh 30.03 in1016.9 mb 0.00 in0.0 mm 0.00 in0.0 mm 0.01 in0.3 mm
11:34 AM 36.5°F2.5°C 27.7°F-2.4°C 70% 15.5 mph NNW24.9 kmh NNW 15.5 mph24.9 kmh 30.03 in1016.9 mb 0.00 in0.0 mm 0.00 in0.0 mm 0.01 in0.3 mm
11:35 AM 36.5°F2.5°C 27.7°F-2.4°C 70% 8.9 mph NNE14.3 kmh NNE 15.5 mph24.9 kmh 30.03 in1016.9 mb 0.00 in0.0 mm 0.00 in0.0 mm 0.01 in0.3 mm
11:36 AM 36.5°F2.5°C 27.7°F-2.4°C 70% 8.3 mph E13.4 kmh E 15.5 mph24.9 kmh 30.03 in1016.9 mb 0.00 in0.0 mm 0.00 in0.0 mm 0.01 in0.3 mm
11:37 AM 36.5°F2.5°C 28.0°F-2.2°C 71% 5.3 mph NNE8.5 kmh NNE 15.5 mph24.9 kmh 30.03 in1016.9 mb 0.00 in0.0 mm 0.00 in0.0 mm 0.01 in0.3 mm
11:38 AM 36.9°F2.7°C 28.7°F-1.8°C 72% 9.4 mph NE15.1 kmh NE 15.5 mph24.9 kmh 30.03 in1016.9 mb 0.00 in0.0 mm 0.00 in0.0 mm 0.01 in0.3 mm
11:39 AM 37.0°F2.8°C 28.1°F-2.2°C 70% 13.0 mph NNW20.9 kmh NNW 15.5 mph24.9 kmh 30.03 in1016.9 mb 0.00 in0.0 mm 0.00 in0.0 mm 0.01 in0.3 mm
11:40 AM 37.0°F2.8°C 28.1°F-2.2°C 70% 8.3 mph NNW13.4 kmh NNW 15.5 mph24.9 kmh 30.03 in1016.9 mb 0.00 in0.0 mm 0.00 in0.0 mm 0.01 in0.3 mm
11:41 AM 37.0°F2.8°C 28.1°F-2.2°C 70% 8.9 mph NE14.3 kmh NE 15.5 mph24.9 kmh 30.03 in1016.9 mb 0.00 in0.0 mm 0.00 in0.0 mm 0.01 in0.3 mm
11:42 AM 37.0°F2.8°C 28.1°F-2.2°C 70% 13.0 mph NE20.9 kmh NE 15.5 mph24.9 kmh 30.03 in1016.9 mb 0.00 in0.0 mm 0.00 in0.0 mm 0.01 in0.3 mm
11:43 AM 37.0°F2.8°C 28.1°F-2.2°C 70% 8.3 mph NW13.4 kmh NW 15.5 mph24.9 kmh 30.03 in1016.9 mb 0.00 in0.0 mm 0.00 in0.0 mm 0.01 in0.3 mm
11:44 AM 37.0°F2.8°C 27.8°F-2.3°C 69% 7.8 mph N12.6 kmh N 15.5 mph24.9 kmh 30.03 in1016.9 mb 0.00 in0.0 mm 0.00 in0.0 mm 0.01 in0.3 mm
11:45 AM 37.2°F2.9°C 28.3°F-2.1°C 70% 9.4 mph N15.1 kmh N 13.0 mph20.9 kmh 30.03 in1016.9 mb 0.00 in0.0 mm 0.00 in0.0 mm 0.01 in0.3 mm
11:46 AM 37.2°F2.9°C 28.0°F-2.2°C 69% 5.3 mph NNE8.5 kmh NNE 13.0 mph20.9 kmh 30.03 in1016.9 mb 0.00 in0.0 mm 0.00 in0.0 mm 0.01 in0.3 mm
11:47 AM 37.4°F3.0°C 28.2°F-2.1°C 69% 7.8 mph NNE12.6 kmh NNE 13.0 mph20.9 kmh 30.03 in1016.9 mb 0.00 in0.0 mm 0.00 in0.0 mm 0.01 in0.3 mm
11:48 AM 37.6°F3.1°C 28.4°F-2.0°C 69% 12.5 mph NE20.1 kmh NE 13.0 mph20.9 kmh 30.03 in1016.9 mb 0.00 in0.0 mm 0.00 in0.0 mm 0.01 in0.3 mm
11:49 AM 37.6°F3.1°C 27.7°F-2.4°C 67% 10.9 mph NNW17.5 kmh NNW 13.0 mph20.9 kmh 30.03 in1016.9 mb 0.00 in0.0 mm 0.00 in0.0 mm 0.01 in0.3 mm
11:50 AM 37.6°F3.1°C 27.7°F-2.4°C 67% 12.5 mph NNE20.1 kmh NNE 13.0 mph20.9 kmh 30.03 in1016.9 mb 0.00 in0.0 mm 0.00 in0.0 mm 0.01 in0.3 mm
11:51 AM 37.6°F3.1°C 27.7°F-2.4°C 67% 9.9 mph NNW15.9 kmh NNW 13.0 mph20.9 kmh 30.03 in1016.9 mb 0.00 in0.0 mm 0.00 in0.0 mm 0.01 in0.3 mm
11:52 AM 37.2°F2.9°C 26.9°F-2.8°C 66% 10.9 mph NNE17.5 kmh NNE 15.5 mph24.9 kmh 30.03 in1016.9 mb 0.00 in0.0 mm 0.00 in0.0 mm 0.01 in0.3 mm
11:53 AM 37.0°F2.8°C 26.7°F-2.9°C 66% 10.4 mph NNW16.7 kmh NNW 15.5 mph24.9 kmh 30.03 in1016.9 mb 0.00 in0.0 mm 0.00 in0.0 mm 0.01 in0.3 mm
11:54 AM 37.0°F2.8°C 27.1°F-2.7°C 67% 8.9 mph NNE14.3 kmh NNE 15.5 mph24.9 kmh 30.03 in1016.9 mb 0.00 in0.0 mm 0.00 in0.0 mm 0.01 in0.3 mm
11:55 AM 36.9°F2.7°C 26.6°F-3.0°C 66% 10.9 mph NE17.5 kmh NE 15.5 mph24.9 kmh 30.03 in1016.9 mb 0.00 in0.0 mm 0.00 in0.0 mm 0.01 in0.3 mm
11:56 AM 36.9°F2.7°C 26.6°F-3.0°C 66% 6.3 mph NE10.1 kmh NE 15.5 mph24.9 kmh 30.03 in1016.9 mb 0.00 in0.0 mm 0.00 in0.0 mm 0.01 in0.3 mm
11:57 AM 36.9°F2.7°C 26.6°F-3.0°C 66% 8.9 mph NE14.3 kmh NE 15.5 mph24.9 kmh 30.03 in1016.9 mb 0.00 in0.0 mm 0.00 in0.0 mm 0.01 in0.3 mm
11:58 AM 36.9°F2.7°C 26.6°F-3.0°C 66% 8.3 mph NNE13.4 kmh NNE 15.5 mph24.9 kmh 30.03 in1016.9 mb 0.00 in0.0 mm 0.00 in0.0 mm 0.01 in0.3 mm
11:59 AM 36.9°F2.7°C 27.0°F-2.8°C 67% 13.0 mph ESE20.9 kmh ESE 15.5 mph24.9 kmh 30.03 in1016.9 mb 0.00 in0.0 mm 0.00 in0.0 mm 0.01 in0.3 mm
12:00 PM 36.7°F2.6°C 26.4°F-3.1°C 66% 6.8 mph NW10.9 kmh NW 15.5 mph24.9 kmh 30.03 in1016.9 mb 0.00 in0.0 mm 0.00 in0.0 mm 0.01 in0.3 mm
12:01 PM 36.7°F2.6°C 26.4°F-3.1°C 66% 6.8 mph E10.9 kmh E 15.5 mph24.9 kmh 30.03 in1016.9 mb 0.00 in0.0 mm 0.00 in0.0 mm 0.01 in0.3 mm
12:02 PM 36.7°F2.6°C 26.8°F-2.9°C 67% 5.8 mph NNE9.3 kmh NNE 13.5 mph21.7 kmh 30.03 in1016.9 mb 0.00 in0.0 mm 0.00 in0.0 mm 0.01 in0.3 mm
12:03 PM 36.7°F2.6°C 26.8°F-2.9°C 67% 9.4 mph ENE15.1 kmh ENE 13.5 mph21.7 kmh 30.03 in1016.9 mb 0.00 in0.0 mm 0.00 in0.0 mm 0.01 in0.3 mm
12:04 PM 36.7°F2.6°C 26.4°F-3.1°C 66% 6.3 mph NNE10.1 kmh NNE 13.5 mph21.7 kmh 30.03 in1016.9 mb 0.00 in0.0 mm 0.00 in0.0 mm 0.01 in0.3 mm
12:05 PM 36.5°F2.5°C 26.2°F-3.2°C 66% 16.6 mph NNE26.7 kmh NNE 16.6 mph26.7 kmh 30.04 in1017.3 mb 0.00 in0.0 mm 0.00 in0.0 mm 0.01 in0.3 mm
12:06 PM 36.5°F2.5°C 26.2°F-3.2°C 66% 10.9 mph ESE17.5 kmh ESE 16.6 mph26.7 kmh 30.04 in1017.3 mb 0.00 in0.0 mm 0.00 in0.0 mm 0.01 in0.3 mm
12:07 PM 36.5°F2.5°C 26.6°F-3.0°C 67% 8.9 mph NNE14.3 kmh NNE 16.6 mph26.7 kmh 30.04 in1017.3 mb 0.00 in0.0 mm 0.00 in0.0 mm 0.01 in0.3 mm
12:08 PM 36.5°F2.5°C 27.0°F-2.8°C 68% 17.6 mph NNW28.3 kmh NNW 17.6 mph28.3 kmh 30.04 in1017.3 mb 0.00 in0.0 mm 0.00 in0.0 mm 0.01 in0.3 mm
12:09 PM 36.5°F2.5°C 26.6°F-3.0°C 67% 15.0 mph NNE24.1 kmh NNE 17.6 mph28.3 kmh 30.04 in1017.3 mb 0.00 in0.0 mm 0.00 in0.0 mm 0.01 in0.3 mm
12:10 PM 36.5°F2.5°C 26.6°F-3.0°C 67% 7.8 mph NNE12.6 kmh NNE 17.6 mph28.3 kmh 30.04 in1017.3 mb 0.00 in0.0 mm 0.00 in0.0 mm 0.01 in0.3 mm
12:11 PM 36.5°F2.5°C 26.6°F-3.0°C 67% 13.0 mph NNW20.9 kmh NNW 17.6 mph28.3 kmh 30.04 in1017.3 mb 0.00 in0.0 mm 0.00 in0.0 mm 0.01 in0.3 mm
12:12 PM 36.5°F2.5°C 26.6°F-3.0°C 67% 9.9 mph W15.9 kmh W 17.6 mph28.3 kmh 30.04 in1017.3 mb 0.00 in0.0 mm 0.00 in0.0 mm 0.01 in0.3 mm
12:13 PM 36.5°F2.5°C 26.2°F-3.2°C 66% 15.5 mph NNE24.9 kmh NNE 17.6 mph28.3 kmh 30.04 in1017.3 mb 0.00 in0.0 mm 0.00 in0.0 mm 0.01 in0.3 mm
12:14 PM 36.3°F2.4°C 26.0°F-3.3°C 66% 11.4 mph NNE18.3 kmh NNE 17.6 mph28.3 kmh 30.04 in1017.3 mb 0.00 in0.0 mm 0.00 in0.0 mm 0.01 in0.3 mm
12:15 PM 36.3°F2.4°C 26.4°F-3.1°C 67% 8.3 mph NE13.4 kmh NE 17.6 mph28.3 kmh 30.04 in1017.3 mb 0.00 in0.0 mm 0.00 in0.0 mm 0.01 in0.3 mm
12:16 PM 36.5°F2.5°C 26.6°F-3.0°C 67% 8.3 mph NNE13.4 kmh NNE 17.6 mph28.3 kmh 30.04 in1017.3 mb 0.00 in0.0 mm 0.00 in0.0 mm 0.01 in0.3 mm
12:17 PM 36.5°F2.5°C 26.6°F-3.0°C 67% 8.3 mph NNE13.4 kmh NNE 17.6 mph28.3 kmh 30.04 in1017.3 mb 0.00 in0.0 mm 0.00 in0.0 mm 0.01 in0.3 mm
12:18 PM 36.7°F2.6°C 27.2°F-2.7°C 68% 8.9 mph NE14.3 kmh NE 17.6 mph28.3 kmh 30.04 in1017.3 mb 0.00 in0.0 mm 0.00 in0.0 mm 0.01 in0.3 mm
12:19 PM 36.9°F2.7°C 27.3°F-2.6°C 68% 3.2 mph ENE5.1 kmh ENE 15.5 mph24.9 kmh 30.04 in1017.3 mb 0.00 in0.0 mm 0.00 in0.0 mm 0.01 in0.3 mm
12:20 PM 36.9°F2.7°C 27.0°F-2.8°C 67% 13.0 mph NNE20.9 kmh NNE 16.6 mph26.7 kmh 30.04 in1017.3 mb 0.00 in0.0 mm 0.00 in0.0 mm 0.01 in0.3 mm
12:21 PM 36.9°F2.7°C 26.6°F-3.0°C 66% 8.3 mph NNE13.4 kmh NNE 16.6 mph26.7 kmh 30.04 in1017.3 mb 0.00 in0.0 mm 0.00 in0.0 mm 0.01 in0.3 mm
12:22 PM 36.9°F2.7°C 26.6°F-3.0°C 66% 8.9 mph NNE14.3 kmh NNE 16.6 mph26.7 kmh 30.04 in1017.3 mb 0.00 in0.0 mm 0.00 in0.0 mm 0.01 in0.3 mm
12:23 PM 36.9°F2.7°C 26.6°F-3.0°C 66% 6.8 mph W10.9 kmh W 16.6 mph26.7 kmh 30.04 in1017.3 mb 0.00 in0.0 mm 0.00 in0.0 mm 0.01 in0.3 mm
12:24 PM 37.0°F2.8°C 27.1°F-2.7°C 67% 6.3 mph NNE10.1 kmh NNE 16.6 mph26.7 kmh 30.04 in1017.3 mb 0.00 in0.0 mm 0.00 in0.0 mm 0.01 in0.3 mm
12:25 PM 37.0°F2.8°C 27.1°F-2.7°C 67% 9.9 mph ENE15.9 kmh ENE 16.6 mph26.7 kmh 30.04 in1017.3 mb 0.00 in0.0 mm 0.00 in0.0 mm 0.01 in0.3 mm
12:26 PM 37.0°F2.8°C 26.7°F-2.9°C 66% 7.3 mph NE11.7 kmh NE 16.6 mph26.7 kmh 30.04 in1017.3 mb 0.00 in0.0 mm 0.00 in0.0 mm 0.01 in0.3 mm
12:27 PM 37.0°F2.8°C 26.7°F-2.9°C 66% 5.8 mph NNE9.3 kmh NNE 16.6 mph26.7 kmh 30.04 in1017.3 mb 0.00 in0.0 mm 0.00 in0.0 mm 0.01 in0.3 mm
12:28 PM 37.2°F2.9°C 27.3°F-2.6°C 67% 8.3 mph E13.4 kmh E 16.6 mph26.7 kmh 30.04 in1017.3 mb 0.00 in0.0 mm 0.00 in0.0 mm 0.01 in0.3 mm
12:29 PM 37.4°F3.0°C 27.5°F-2.5°C 67% 9.9 mph NNE15.9 kmh NNE 16.6 mph26.7 kmh 30.05 in1017.6 mb 0.00 in0.0 mm 0.00 in0.0 mm 0.01 in0.3 mm
12:30 PM 37.4°F3.0°C 27.1°F-2.7°C 66% 7.8 mph N12.6 kmh N 16.1 mph25.9 kmh 30.05 in1017.6 mb 0.00 in0.0 mm 0.00 in0.0 mm 0.01 in0.3 mm
12:31 PM 37.4°F3.0°C 27.5°F-2.5°C 67% 7.8 mph NE12.6 kmh NE 16.1 mph25.9 kmh 30.05 in1017.6 mb 0.00 in0.0 mm 0.00 in0.0 mm 0.01 in0.3 mm
12:32 PM 37.4°F3.0°C 27.1°F-2.7°C 66% 9.4 mph NNE15.1 kmh NNE 16.1 mph25.9 kmh 30.05 in1017.6 mb 0.00 in0.0 mm 0.00 in0.0 mm 0.01 in0.3 mm
12:33 PM 37.4°F3.0°C 27.1°F-2.7°C 66% 7.3 mph NE11.7 kmh NE 16.1 mph25.9 kmh 30.05 in1017.6 mb 0.00 in0.0 mm 0.00 in0.0 mm 0.01 in0.3 mm
12:34 PM 37.4°F3.0°C 26.7°F-2.9°C 65% 7.8 mph N12.6 kmh N 16.1 mph25.9 kmh 30.05 in1017.6 mb 0.00 in0.0 mm 0.00 in0.0 mm 0.01 in0.3 mm
12:35 PM 37.6°F3.1°C 27.3°F-2.6°C 66% 7.3 mph WSW11.7 kmh WSW 13.0 mph20.9 kmh 30.05 in1017.6 mb 0.00 in0.0 mm 0.00 in0.0 mm 0.01 in0.3 mm
12:36 PM 37.6°F3.1°C 26.9°F-2.8°C 65% 5.8 mph SSE9.3 kmh SSE 13.0 mph20.9 kmh 30.05 in1017.6 mb 0.00 in0.0 mm 0.00 in0.0 mm 0.01 in0.3 mm
12:37 PM 37.8°F3.2°C 27.1°F-2.7°C 65% 5.3 mph NNE8.5 kmh NNE 13.0 mph20.9 kmh 30.05 in1017.6 mb 0.00 in0.0 mm 0.00 in0.0 mm 0.01 in0.3 mm
12:38 PM 37.8°F3.2°C 27.1°F-2.7°C 65% 7.3 mph NE11.7 kmh NE 15.0 mph24.1 kmh 30.05 in1017.6 mb 0.00 in0.0 mm 0.00 in0.0 mm 0.01 in0.3 mm
12:39 PM 37.6°F3.1°C 26.5°F-3.1°C 64% 13.5 mph NE21.7 kmh NE 15.0 mph24.1 kmh 30.05 in1017.6 mb 0.00 in0.0 mm 0.00 in0.0 mm 0.01 in0.3 mm
12:40 PM 37.4°F3.0°C 26.4°F-3.1°C 64% 8.9 mph NNE14.3 kmh NNE 15.0 mph24.1 kmh 30.05 in1017.6 mb 0.00 in0.0 mm 0.00 in0.0 mm 0.01 in0.3 mm
12:41 PM 37.4°F3.0°C 26.7°F-2.9°C 65% 10.9 mph WNW17.5 kmh WNW 15.0 mph24.1 kmh 30.05 in1017.6 mb 0.00 in0.0 mm 0.00 in0.0 mm 0.01 in0.3 mm
12:42 PM 37.6°F3.1°C 27.3°F-2.6°C 66% 8.9 mph WNW14.3 kmh WNW 15.0 mph24.1 kmh 30.05 in1017.6 mb 0.00 in0.0 mm 0.00 in0.0 mm 0.01 in0.3 mm
12:43 PM 37.6°F3.1°C 27.3°F-2.6°C 66% 10.9 mph NNE17.5 kmh NNE 15.0 mph24.1 kmh 30.05 in1017.6 mb 0.00 in0.0 mm 0.00 in0.0 mm 0.01 in0.3 mm
12:44 PM 37.6°F3.1°C 26.9°F-2.8°C 65% 10.4 mph N16.7 kmh N 15.0 mph24.1 kmh 30.05 in1017.6 mb 0.00 in0.0 mm 0.00 in0.0 mm 0.01 in0.3 mm
12:45 PM 37.6°F3.1°C 26.9°F-2.8°C 65% 7.8 mph NNE12.6 kmh NNE 15.0 mph24.1 kmh 30.05 in1017.6 mb 0.00 in0.0 mm 0.00 in0.0 mm 0.01 in0.3 mm
12:46 PM 37.6°F3.1°C 27.3°F-2.6°C 66% 9.9 mph N15.9 kmh N 15.0 mph24.1 kmh 30.05 in1017.6 mb 0.00 in0.0 mm 0.00 in0.0 mm 0.01 in0.3 mm
12:47 PM 37.6°F3.1°C 27.3°F-2.6°C 66% 5.8 mph N9.3 kmh N 15.0 mph24.1 kmh 30.05 in1017.6 mb 0.00 in0.0 mm 0.00 in0.0 mm 0.01 in0.3 mm
12:48 PM 37.8°F3.2°C 27.5°F-2.5°C 66% 9.4 mph N15.1 kmh N 14.5 mph23.3 kmh 30.05 in1017.6 mb 0.00 in0.0 mm 0.00 in0.0 mm 0.01 in0.3 mm
12:49 PM 37.8°F3.2°C 27.1°F-2.7°C 65% 6.3 mph E10.1 kmh E 13.0 mph20.9 kmh 30.05 in1017.6 mb 0.00 in0.0 mm 0.00 in0.0 mm 0.01 in0.3 mm
12:50 PM 37.9°F3.3°C 27.2°F-2.7°C 65% 8.9 mph N14.3 kmh N 13.0 mph20.9 kmh 30.05 in1017.6 mb 0.00 in0.0 mm 0.00 in0.0 mm 0.01 in0.3 mm
12:51 PM 37.9°F3.3°C 27.6°F-2.4°C 66% 6.8 mph NW10.9 kmh NW 13.0 mph20.9 kmh 30.05 in1017.6 mb 0.00 in0.0 mm 0.00 in0.0 mm 0.01 in0.3 mm
12:52 PM 37.9°F3.3°C 27.2°F-2.7°C 65% 13.0 mph NNE20.9 kmh NNE 13.0 mph20.9 kmh 30.05 in1017.6 mb 0.00 in0.0 mm 0.00 in0.0 mm 0.01 in0.3 mm
12:53 PM 37.9°F3.3°C 26.8°F-2.9°C 64% 9.4 mph E15.1 kmh E 13.0 mph20.9 kmh 30.05 in1017.6 mb 0.00 in0.0 mm 0.00 in0.0 mm 0.01 in0.3 mm
12:54 PM 37.9°F3.3°C 27.2°F-2.7°C 65% 11.9 mph NNE19.2 kmh NNE 13.0 mph20.9 kmh 30.05 in1017.6 mb 0.00 in0.0 mm 0.00 in0.0 mm 0.01 in0.3 mm
12:55 PM 37.8°F3.2°C 27.1°F-2.7°C 65% 9.4 mph WNW15.1 kmh WNW 13.0 mph20.9 kmh 30.05 in1017.6 mb 0.00 in0.0 mm 0.00 in0.0 mm 0.01 in0.3 mm
12:56 PM 37.8°F3.2°C 27.1°F-2.7°C 65% 6.8 mph NNE10.9 kmh NNE 13.0 mph20.9 kmh 30.05 in1017.6 mb 0.00 in0.0 mm 0.00 in0.0 mm 0.01 in0.3 mm
12:57 PM 37.8°F3.2°C 27.5°F-2.5°C 66% 5.3 mph NE8.5 kmh NE 13.0 mph20.9 kmh 30.05 in1017.6 mb 0.00 in0.0 mm 0.00 in0.0 mm 0.01 in0.3 mm
12:58 PM 37.8°F3.2°C 27.1°F-2.7°C 65% 8.3 mph NNE13.4 kmh NNE 13.0 mph20.9 kmh 30.05 in1017.6 mb 0.00 in0.0 mm 0.00 in0.0 mm 0.01 in0.3 mm
12:59 PM 37.8°F3.2°C 27.1°F-2.7°C 65% 6.8 mph NNE10.9 kmh NNE 13.0 mph20.9 kmh 30.05 in1017.6 mb 0.00 in0.0 mm 0.00 in0.0 mm 0.01 in0.3 mm
01:00 PM 37.9°F3.3°C 27.6°F-2.4°C 66% 6.3 mph SSW10.1 kmh SSW 13.0 mph20.9 kmh 30.05 in1017.6 mb 0.00 in0.0 mm 0.00 in0.0 mm 0.01 in0.3 mm
01:01 PM 37.9°F3.3°C 27.6°F-2.4°C 66% 8.9 mph NNE14.3 kmh NNE 13.0 mph20.9 kmh 30.05 in1017.6 mb 0.00 in0.0 mm 0.00 in0.0 mm 0.01 in0.3 mm
01:02 PM 37.9°F3.3°C 27.2°F-2.7°C 65% 4.7 mph ESE7.6 kmh ESE 12.5 mph20.1 kmh 30.05 in1017.6 mb 0.00 in0.0 mm 0.00 in0.0 mm 0.01 in0.3 mm
01:03 PM 38.1°F3.4°C 27.8°F-2.3°C 66% 5.3 mph W8.5 kmh W 11.9 mph19.2 kmh 30.05 in1017.6 mb 0.00 in0.0 mm 0.00 in0.0 mm 0.01 in0.3 mm
01:04 PM 38.3°F3.5°C 28.0°F-2.2°C 66% 6.3 mph NNE10.1 kmh NNE 11.9 mph19.2 kmh 30.05 in1017.6 mb 0.00 in0.0 mm 0.00 in0.0 mm 0.01 in0.3 mm
01:05 PM 38.3°F3.5°C 28.0°F-2.2°C 66% 11.4 mph NNE18.3 kmh NNE 11.9 mph19.2 kmh 30.06 in1017.9 mb 0.00 in0.0 mm 0.00 in0.0 mm 0.01 in0.3 mm
01:06 PM 38.3°F3.5°C 27.6°F-2.4°C 65% 7.3 mph NE11.7 kmh NE 11.9 mph19.2 kmh 30.06 in1017.9 mb 0.00 in0.0 mm 0.00 in0.0 mm 0.01 in0.3 mm
01:07 PM 38.5°F3.6°C 28.1°F-2.2°C 66% 8.9 mph ESE14.3 kmh ESE 11.9 mph19.2 kmh 30.06 in1017.9 mb 0.00 in0.0 mm 0.00 in0.0 mm 0.01 in0.3 mm
01:08 PM 38.5°F3.6°C 28.1°F-2.2°C 66% 8.9 mph NNE14.3 kmh NNE 11.4 mph18.3 kmh 30.06 in1017.9 mb 0.00 in0.0 mm 0.00 in0.0 mm 0.01 in0.3 mm
01:09 PM 38.5°F3.6°C 27.8°F-2.3°C 65% 3.7 mph ESE6.0 kmh ESE 11.4 mph18.3 kmh 30.06 in1017.9 mb 0.00 in0.0 mm 0.00 in0.0 mm 0.01 in0.3 mm
01:10 PM 38.5°F3.6°C 27.8°F-2.3°C 65% 8.3 mph NE13.4 kmh NE 11.4 mph18.3 kmh 30.06 in1017.9 mb 0.00 in0.0 mm 0.00 in0.0 mm 0.01 in0.3 mm
01:11 PM 38.5°F3.6°C 27.4°F-2.6°C 64% 5.3 mph N8.5 kmh N 11.4 mph18.3 kmh 30.06 in1017.9 mb 0.00 in0.0 mm 0.00 in0.0 mm 0.01 in0.3 mm
01:12 PM 38.5°F3.6°C 27.8°F-2.3°C 65% 8.9 mph NNE14.3 kmh NNE 11.4 mph18.3 kmh 30.06 in1017.9 mb 0.00 in0.0 mm 0.00 in0.0 mm 0.01 in0.3 mm
01:13 PM 38.7°F3.7°C 28.0°F-2.2°C 65% 7.8 mph N12.6 kmh N 11.4 mph18.3 kmh 30.06 in1017.9 mb 0.00 in0.0 mm 0.00 in0.0 mm 0.01 in0.3 mm
01:14 PM 38.5°F3.6°C 27.0°F-2.8°C 63% 9.9 mph N15.9 kmh N 11.4 mph18.3 kmh 30.06 in1017.9 mb 0.00 in0.0 mm 0.00 in0.0 mm 0.01 in0.3 mm
01:15 PM 38.5°F3.6°C 27.0°F-2.8°C 63% 9.4 mph ESE15.1 kmh ESE 11.4 mph18.3 kmh 30.06 in1017.9 mb 0.00 in0.0 mm 0.00 in0.0 mm 0.01 in0.3 mm
01:16 PM 38.3°F3.5°C 26.4°F-3.1°C 62% 3.7 mph NNE6.0 kmh NNE 11.4 mph18.3 kmh 30.06 in1017.9 mb 0.00 in0.0 mm 0.00 in0.0 mm 0.01 in0.3 mm
01:17 PM 38.3°F3.5°C 26.4°F-3.1°C 62% 9.9 mph N15.9 kmh N 11.4 mph18.3 kmh 30.06 in1017.9 mb 0.00 in0.0 mm 0.00 in0.0 mm 0.01 in0.3 mm
01:18 PM 38.3°F3.5°C 26.4°F-3.1°C 62% 7.8 mph NNE12.6 kmh NNE 14.0 mph22.5 kmh 30.06 in1017.9 mb 0.00 in0.0 mm 0.00 in0.0 mm 0.01 in0.3 mm
01:19 PM 38.3°F3.5°C 26.4°F-3.1°C 62% 11.9 mph NNE19.2 kmh NNE 14.0 mph22.5 kmh 30.06 in1017.9 mb 0.00 in0.0 mm 0.00 in0.0 mm 0.01 in0.3 mm
01:20 PM 38.1°F3.4°C 25.9°F-3.4°C 61% 10.9 mph NNE17.5 kmh NNE 14.5 mph23.3 kmh 30.06 in1017.9 mb 0.00 in0.0 mm 0.00 in0.0 mm 0.01 in0.3 mm
01:21 PM 38.1°F3.4°C 26.3°F-3.2°C 62% 7.3 mph NE11.7 kmh NE 14.5 mph23.3 kmh 30.06 in1017.9 mb 0.00 in0.0 mm 0.00 in0.0 mm 0.01 in0.3 mm
01:22 PM 38.1°F3.4°C 26.6°F-3.0°C 63% 5.8 mph N9.3 kmh N 14.5 mph23.3 kmh 30.06 in1017.9 mb 0.00 in0.0 mm 0.00 in0.0 mm 0.01 in0.3 mm
01:23 PM 38.3°F3.5°C 27.2°F-2.7°C 64% 5.3 mph N8.5 kmh N 14.5 mph23.3 kmh 30.06 in1017.9 mb 0.00 in0.0 mm 0.00 in0.0 mm 0.01 in0.3 mm
01:24 PM 38.5°F3.6°C 27.4°F-2.6°C 64% 10.4 mph NNW16.7 kmh NNW 14.5 mph23.3 kmh 30.06 in1017.9 mb 0.00 in0.0 mm 0.00 in0.0 mm 0.01 in0.3 mm
01:25 PM 38.3°F3.5°C 26.8°F-2.9°C 63% 11.9 mph NNE19.2 kmh NNE 14.5 mph23.3 kmh 30.06 in1017.9 mb 0.00 in0.0 mm 0.00 in0.0 mm 0.01 in0.3 mm
01:26 PM 38.1°F3.4°C 26.3°F-3.2°C 62% 13.0 mph NE20.9 kmh NE 14.5 mph23.3 kmh 30.06 in1017.9 mb 0.00 in0.0 mm 0.00 in0.0 mm 0.01 in0.3 mm
01:27 PM 38.1°F3.4°C 26.3°F-3.2°C 62% 6.8 mph NNE10.9 kmh NNE 14.5 mph23.3 kmh 30.06 in1017.9 mb 0.00 in0.0 mm 0.00 in0.0 mm 0.01 in0.3 mm
01:28 PM 38.1°F3.4°C 26.3°F-3.2°C 62% 8.3 mph N13.4 kmh N 14.5 mph23.3 kmh 30.06 in1017.9 mb 0.00 in0.0 mm 0.00 in0.0 mm 0.01 in0.3 mm
01:29 PM 38.1°F3.4°C 26.3°F-3.2°C 62% 11.4 mph NNE18.3 kmh NNE 14.5 mph23.3 kmh 30.07 in1018.3 mb 0.00 in0.0 mm 0.00 in0.0 mm 0.01 in0.3 mm
01:30 PM 37.9°F3.3°C 25.7°F-3.5°C 61% 10.9 mph NNE17.5 kmh NNE 13.5 mph21.7 kmh 30.07 in1018.3 mb 0.00 in0.0 mm 0.00 in0.0 mm 0.01 in0.3 mm
01:31 PM 37.8°F3.2°C 25.6°F-3.6°C 61% 9.9 mph NNE15.9 kmh NNE 14.5 mph23.3 kmh 30.07 in1018.3 mb 0.00 in0.0 mm 0.00 in0.0 mm 0.01 in0.3 mm
01:32 PM 37.8°F3.2°C 25.6°F-3.6°C 61% 11.4 mph NNW18.3 kmh NNW 14.5 mph23.3 kmh 30.07 in1018.3 mb 0.00 in0.0 mm 0.00 in0.0 mm 0.01 in0.3 mm
01:33 PM 37.6°F3.1°C 25.4°F-3.7°C 61% 8.3 mph N13.4 kmh N 14.5 mph23.3 kmh 30.07 in1018.3 mb 0.00 in0.0 mm 0.00 in0.0 mm 0.01 in0.3 mm
01:34 PM 37.6°F3.1°C 25.4°F-3.7°C 61% 9.9 mph ESE15.9 kmh ESE 14.5 mph23.3 kmh 30.07 in1018.3 mb 0.00 in0.0 mm 0.00 in0.0 mm 0.01 in0.3 mm
01:35 PM 37.6°F3.1°C 25.4°F-3.7°C 61% 7.8 mph NNE12.6 kmh NNE 14.5 mph23.3 kmh 30.07 in1018.3 mb 0.00 in0.0 mm 0.00 in0.0 mm 0.01 in0.3 mm
01:36 PM 37.6°F3.1°C 26.2°F-3.2°C 63% 7.8 mph SW12.6 kmh SW 14.5 mph23.3 kmh 30.07 in1018.3 mb 0.00 in0.0 mm 0.00 in0.0 mm 0.01 in0.3 mm
01:37 PM 37.8°F3.2°C 26.4°F-3.1°C 63% 8.9 mph NE14.3 kmh NE 14.5 mph23.3 kmh 30.07 in1018.3 mb 0.00 in0.0 mm 0.00 in0.0 mm 0.01 in0.3 mm
01:38 PM 37.8°F3.2°C 26.0°F-3.3°C 62% 13.5 mph NNE21.7 kmh NNE 14.5 mph23.3 kmh 30.07 in1018.3 mb 0.00 in0.0 mm 0.00 in0.0 mm 0.01 in0.3 mm
01:39 PM 37.8°F3.2°C 25.6°F-3.6°C 61% 8.3 mph N13.4 kmh N 14.5 mph23.3 kmh 30.07 in1018.3 mb 0.00 in0.0 mm 0.00 in0.0 mm 0.01 in0.3 mm
01:40 PM 37.8°F3.2°C 25.6°F-3.6°C 61% 10.9 mph N17.5 kmh N 14.5 mph23.3 kmh 30.07 in1018.3 mb 0.00 in0.0 mm 0.00 in0.0 mm 0.01 in0.3 mm
01:41 PM 37.8°F3.2°C 26.0°F-3.3°C 62% 8.9 mph NE14.3 kmh NE 13.5 mph21.7 kmh 30.08 in1018.6 mb 0.00 in0.0 mm 0.00 in0.0 mm 0.01 in0.3 mm
01:42 PM 37.8°F3.2°C 26.0°F-3.3°C 62% 10.9 mph N17.5 kmh N 13.5 mph21.7 kmh 30.08 in1018.6 mb 0.00 in0.0 mm 0.00 in0.0 mm 0.01 in0.3 mm
01:43 PM 37.8°F3.2°C 25.6°F-3.6°C 61% 7.3 mph NNW11.7 kmh NNW 13.5 mph21.7 kmh 30.08 in1018.6 mb 0.00 in0.0 mm 0.00 in0.0 mm 0.01 in0.3 mm
01:44 PM 37.8°F3.2°C 26.0°F-3.3°C 62% 10.9 mph NNW17.5 kmh NNW 13.5 mph21.7 kmh 30.08 in1018.6 mb 0.00 in0.0 mm 0.00 in0.0 mm 0.01 in0.3 mm
01:45 PM 37.8°F3.2°C 25.6°F-3.6°C 61% 12.5 mph N20.1 kmh N 13.5 mph21.7 kmh 30.08 in1018.6 mb 0.00 in0.0 mm 0.00 in0.0 mm 0.01 in0.3 mm
01:46 PM 37.8°F3.2°C 25.2°F-3.8°C 60% 8.3 mph NNE13.4 kmh NNE 13.5 mph21.7 kmh 30.08 in1018.6 mb 0.00 in0.0 mm 0.00 in0.0 mm 0.01 in0.3 mm
01:47 PM 37.8°F3.2°C 25.6°F-3.6°C 61% 6.3 mph NE10.1 kmh NE 13.5 mph21.7 kmh 30.08 in1018.6 mb 0.00 in0.0 mm 0.00 in0.0 mm 0.01 in0.3 mm
01:48 PM 37.8°F3.2°C 26.0°F-3.3°C 62% 5.8 mph NNW9.3 kmh NNW 13.5 mph21.7 kmh 30.08 in1018.6 mb 0.00 in0.0 mm 0.00 in0.0 mm 0.01 in0.3 mm
01:49 PM 37.8°F3.2°C 26.4°F-3.1°C 63% 13.5 mph NNE21.7 kmh NNE 13.5 mph21.7 kmh 30.08 in1018.6 mb 0.00 in0.0 mm 0.00 in0.0 mm 0.01 in0.3 mm
01:50 PM 37.8°F3.2°C 26.0°F-3.3°C 62% 7.3 mph NNE11.7 kmh NNE 13.5 mph21.7 kmh 30.08 in1018.6 mb 0.00 in0.0 mm 0.00 in0.0 mm 0.01 in0.3 mm
01:51 PM 37.8°F3.2°C 26.0°F-3.3°C 62% 7.8 mph N12.6 kmh N 13.5 mph21.7 kmh 30.08 in1018.6 mb 0.00 in0.0 mm 0.00 in0.0 mm 0.01 in0.3 mm
01:52 PM 37.8°F3.2°C 26.0°F-3.3°C 62% 10.4 mph NE16.7 kmh NE 13.5 mph21.7 kmh 30.08 in1018.6 mb 0.00 in0.0 mm 0.00 in0.0 mm 0.01 in0.3 mm
01:53 PM 37.8°F3.2°C 26.0°F-3.3°C 62% 8.3 mph ENE13.4 kmh ENE 13.5 mph21.7 kmh 30.08 in1018.6 mb 0.00 in0.0 mm 0.00 in0.0 mm 0.01 in0.3 mm
01:54 PM 37.8°F3.2°C 26.0°F-3.3°C 62% 8.3 mph NE13.4 kmh NE 13.5 mph21.7 kmh 30.08 in1018.6 mb 0.00 in0.0 mm 0.00 in0.0 mm 0.01 in0.3 mm
01:55 PM 37.8°F3.2°C 26.0°F-3.3°C 62% 8.9 mph NE14.3 kmh NE 13.5 mph21.7 kmh 30.08 in1018.6 mb 0.00 in0.0 mm 0.00 in0.0 mm 0.01 in0.3 mm
01:56 PM 37.8°F3.2°C 26.0°F-3.3°C 62% 10.4 mph NNE16.7 kmh NNE 13.5 mph21.7 kmh 30.08 in1018.6 mb 0.00 in0.0 mm 0.00 in0.0 mm 0.01 in0.3 mm
01:57 PM 37.8°F3.2°C 26.0°F-3.3°C 62% 9.9 mph NNE15.9 kmh NNE 13.5 mph21.7 kmh 30.08 in1018.6 mb 0.00 in0.0 mm 0.00 in0.0 mm 0.01 in0.3 mm
01:58 PM 37.8°F3.2°C 26.0°F-3.3°C 62% 8.9 mph N14.3 kmh N 13.5 mph21.7 kmh 30.08 in1018.6 mb 0.00 in0.0 mm 0.00 in0.0 mm 0.01 in0.3 mm
01:59 PM 37.8°F3.2°C 26.0°F-3.3°C 62% 10.4 mph NNE16.7 kmh NNE 13.5 mph21.7 kmh 30.08 in1018.6 mb 0.00 in0.0 mm 0.00 in0.0 mm 0.01 in0.3 mm
02:00 PM 37.8°F3.2°C 26.4°F-3.1°C 63% 6.8 mph N10.9 kmh N 10.4 mph16.7 kmh 30.08 in1018.6 mb 0.00 in0.0 mm 0.00 in0.0 mm 0.01 in0.3 mm
02:01 PM 37.8°F3.2°C 26.4°F-3.1°C 63% 6.8 mph NE10.9 kmh NE 10.4 mph16.7 kmh 30.08 in1018.6 mb 0.00 in0.0 mm 0.00 in0.0 mm 0.01 in0.3 mm
02:02 PM 37.8°F3.2°C 26.0°F-3.3°C 62% 9.9 mph NNE15.9 kmh NNE 10.4 mph16.7 kmh 30.08 in1018.6 mb 0.00 in0.0 mm 0.00 in0.0 mm 0.01 in0.3 mm
02:03 PM 37.6°F3.1°C 25.4°F-3.7°C 61% 6.8 mph NNE10.9 kmh NNE 10.4 mph16.7 kmh 30.08 in1018.6 mb 0.00 in0.0 mm 0.00 in0.0 mm 0.01 in0.3 mm
02:04 PM 37.6°F3.1°C 25.8°F-3.4°C 62% 6.8 mph ENE10.9 kmh ENE 10.4 mph16.7 kmh 30.09 in1019.0 mb 0.00 in0.0 mm 0.00 in0.0 mm 0.01 in0.3 mm
02:05 PM 37.6°F3.1°C 25.8°F-3.4°C 62% 8.3 mph NNE13.4 kmh NNE 10.4 mph16.7 kmh 30.09 in1019.0 mb 0.00 in0.0 mm 0.00 in0.0 mm 0.01 in0.3 mm
02:06 PM 37.6°F3.1°C 25.8°F-3.4°C 62% 5.3 mph NNE8.5 kmh NNE 10.4 mph16.7 kmh 30.09 in1019.0 mb 0.00 in0.0 mm 0.00 in0.0 mm 0.01 in0.3 mm
02:07 PM 37.6°F3.1°C 25.8°F-3.4°C 62% 7.3 mph NW11.7 kmh NW 10.4 mph16.7 kmh 30.09 in1019.0 mb 0.00 in0.0 mm 0.00 in0.0 mm 0.01 in0.3 mm
02:08 PM 37.6°F3.1°C 26.2°F-3.2°C 63% 4.7 mph N7.6 kmh N 10.4 mph16.7 kmh 30.09 in1019.0 mb 0.00 in0.0 mm 0.00 in0.0 mm 0.01 in0.3 mm
02:09 PM 37.6°F3.1°C 26.5°F-3.1°C 64% 5.3 mph NNE8.5 kmh NNE 9.9 mph15.9 kmh 30.09 in1019.0 mb 0.00 in0.0 mm 0.00 in0.0 mm 0.01 in0.3 mm
02:10 PM 37.8°F3.2°C 26.7°F-2.9°C 64% 5.3 mph NNE8.5 kmh NNE 9.9 mph15.9 kmh 30.09 in1019.0 mb 0.00 in0.0 mm 0.00 in0.0 mm 0.01 in0.3 mm
02:11 PM 37.8°F3.2°C 26.4°F-3.1°C 63% 7.3 mph N11.7 kmh N 9.9 mph15.9 kmh 30.09 in1019.0 mb 0.00 in0.0 mm 0.00 in0.0 mm 0.01 in0.3 mm
02:12 PM 37.8°F3.2°C 26.4°F-3.1°C 63% 7.3 mph NNE11.7 kmh NNE 9.9 mph15.9 kmh 30.09 in1019.0 mb 0.00 in0.0 mm 0.00 in0.0 mm 0.01 in0.3 mm
02:13 PM 37.8°F3.2°C 26.4°F-3.1°C 63% 6.3 mph NE10.1 kmh NE 9.4 mph15.1 kmh 30.09 in1019.0 mb 0.00 in0.0 mm 0.00 in0.0 mm 0.01 in0.3 mm
02:14 PM 37.6°F3.1°C 25.8°F-3.4°C 62% 6.3 mph NNE10.1 kmh NNE 9.4 mph15.1 kmh 30.09 in1019.0 mb 0.00 in0.0 mm 0.00 in0.0 mm 0.01 in0.3 mm
02:15 PM 37.6°F3.1°C 26.2°F-3.2°C 63% 6.3 mph NNW10.1 kmh NNW 9.4 mph15.1 kmh 30.09 in1019.0 mb 0.00 in0.0 mm 0.00 in0.0 mm 0.01 in0.3 mm
02:16 PM 37.6°F3.1°C 26.2°F-3.2°C 63% 8.3 mph NNE13.4 kmh NNE 9.4 mph15.1 kmh 30.10 in1019.3 mb 0.00 in0.0 mm 0.00 in0.0 mm 0.01 in0.3 mm
02:17 PM 37.6°F3.1°C 26.2°F-3.2°C 63% 6.3 mph NE10.1 kmh NE 9.4 mph15.1 kmh 30.10 in1019.3 mb 0.00 in0.0 mm 0.00 in0.0 mm 0.01 in0.3 mm
02:18 PM 37.6°F3.1°C 25.8°F-3.4°C 62% 5.8 mph NE9.3 kmh NE 9.4 mph15.1 kmh 30.10 in1019.3 mb 0.00 in0.0 mm 0.00 in0.0 mm 0.01 in0.3 mm
02:19 PM 37.6°F3.1°C 26.2°F-3.2°C 63% 8.3 mph NE13.4 kmh NE 9.4 mph15.1 kmh 30.10 in1019.3 mb 0.00 in0.0 mm 0.00 in0.0 mm 0.01 in0.3 mm
02:20 PM 37.6°F3.1°C 26.2°F-3.2°C 63% 7.3 mph NE11.7 kmh NE 9.4 mph15.1 kmh 30.10 in1019.3 mb 0.00 in0.0 mm 0.00 in0.0 mm 0.01 in0.3 mm
02:21 PM 37.6°F3.1°C 26.2°F-3.2°C 63% 5.8 mph NNE9.3 kmh NNE 9.4 mph15.1 kmh 30.10 in1019.3 mb 0.00 in0.0 mm 0.00 in0.0 mm 0.01 in0.3 mm
02:22 PM 37.6°F3.1°C 26.2°F-3.2°C 63% 3.7 mph NE6.0 kmh NE 9.4 mph15.1 kmh 30.10 in1019.3 mb 0.00 in0.0 mm 0.00 in0.0 mm 0.01 in0.3 mm
02:23 PM 37.6°F3.1°C 26.5°F-3.1°C 64% 6.3 mph NNE10.1 kmh NNE 9.4 mph15.1 kmh 30.10 in1019.3 mb 0.00 in0.0 mm 0.00 in0.0 mm 0.01 in0.3 mm
02:24 PM 37.6°F3.1°C 26.5°F-3.1°C 64% 7.8 mph NE12.6 kmh NE 8.9 mph14.3 kmh 30.10 in1019.3 mb 0.00 in0.0 mm 0.00 in0.0 mm 0.01 in0.3 mm
02:25 PM 37.6°F3.1°C 26.5°F-3.1°C 64% 7.3 mph NE11.7 kmh NE 8.9 mph14.3 kmh 30.10 in1019.3 mb 0.00 in0.0 mm 0.00 in0.0 mm 0.01 in0.3 mm
02:26 PM 37.6°F3.1°C 26.2°F-3.2°C 63% 5.8 mph NE9.3 kmh NE 8.9 mph14.3 kmh 30.10 in1019.3 mb 0.00 in0.0 mm 0.00 in0.0 mm 0.01 in0.3 mm
02:27 PM 37.6°F3.1°C 26.2°F-3.2°C 63% 4.7 mph NNE7.6 kmh NNE 8.9 mph14.3 kmh 30.10 in1019.3 mb 0.00 in0.0 mm 0.00 in0.0 mm 0.01 in0.3 mm
02:28 PM 37.6°F3.1°C 26.2°F-3.2°C 63% 6.8 mph N10.9 kmh N 8.9 mph14.3 kmh 30.10 in1019.3 mb 0.00 in0.0 mm 0.00 in0.0 mm 0.01 in0.3 mm
02:29 PM 37.6°F3.1°C 26.5°F-3.1°C 64% 4.7 mph W7.6 kmh W 7.8 mph12.6 kmh 30.11 in1019.6 mb 0.00 in0.0 mm 0.00 in0.0 mm 0.01 in0.3 mm
02:30 PM 37.8°F3.2°C 26.7°F-2.9°C 64% 2.2 mph ESE3.5 kmh ESE 7.8 mph12.6 kmh 30.11 in1019.6 mb 0.00 in0.0 mm 0.00 in0.0 mm 0.01 in0.3 mm
02:31 PM 37.8°F3.2°C 26.7°F-2.9°C 64% 5.3 mph NE8.5 kmh NE 7.8 mph12.6 kmh 30.11 in1019.6 mb 0.00 in0.0 mm 0.00 in0.0 mm 0.01 in0.3 mm
02:32 PM 37.8°F3.2°C 26.7°F-2.9°C 64% 9.4 mph NNE15.1 kmh NNE 9.4 mph15.1 kmh 30.11 in1019.6 mb 0.00 in0.0 mm 0.00 in0.0 mm 0.01 in0.3 mm
02:33 PM 37.8°F3.2°C 26.4°F-3.1°C 63% 4.7 mph NNE7.6 kmh NNE 9.4 mph15.1 kmh 30.11 in1019.6 mb 0.00 in0.0 mm 0.00 in0.0 mm 0.01 in0.3 mm
02:34 PM 37.8°F3.2°C 26.4°F-3.1°C 63% 10.9 mph NNE17.5 kmh NNE 10.9 mph17.5 kmh 30.11 in1019.6 mb 0.00 in0.0 mm 0.00 in0.0 mm 0.01 in0.3 mm
02:35 PM 37.8°F3.2°C 26.4°F-3.1°C 63% 7.3 mph NNE11.7 kmh NNE 10.9 mph17.5 kmh 30.11 in1019.6 mb 0.00 in0.0 mm 0.00 in0.0 mm 0.01 in0.3 mm
02:36 PM 37.8°F3.2°C 26.4°F-3.1°C 63% 7.8 mph N12.6 kmh N 10.9 mph17.5 kmh 30.11 in1019.6 mb 0.00 in0.0 mm 0.00 in0.0 mm 0.01 in0.3 mm
02:37 PM 37.8°F3.2°C 26.4°F-3.1°C 63% 8.9 mph NNE14.3 kmh NNE 10.9 mph17.5 kmh 30.11 in1019.6 mb 0.00 in0.0 mm 0.00 in0.0 mm 0.01 in0.3 mm
02:38 PM 37.8°F3.2°C 26.7°F-2.9°C 64% 4.7 mph NNE7.6 kmh NNE 10.9 mph17.5 kmh 30.11 in1019.6 mb 0.00 in0.0 mm 0.00 in0.0 mm 0.01 in0.3 mm
02:39 PM 37.8°F3.2°C 26.4°F-3.1°C 63% 5.3 mph SSE8.5 kmh SSE 10.9 mph17.5 kmh 30.11 in1019.6 mb 0.00 in0.0 mm 0.00 in0.0 mm 0.01 in0.3 mm
02:40 PM 37.8°F3.2°C 26.4°F-3.1°C 63% 9.4 mph NE15.1 kmh NE 10.9 mph17.5 kmh 30.11 in1019.6 mb 0.00 in0.0 mm 0.00 in0.0 mm 0.01 in0.3 mm
02:41 PM 37.8°F3.2°C 26.4°F-3.1°C 63% 6.8 mph WNW10.9 kmh WNW 10.9 mph17.5 kmh 30.11 in1019.6 mb 0.00 in0.0 mm 0.00 in0.0 mm 0.01 in0.3 mm
02:42 PM 37.8°F3.2°C 26.4°F-3.1°C 63% 7.3 mph NE11.7 kmh NE 10.9 mph17.5 kmh 30.11 in1019.6 mb 0.00 in0.0 mm 0.00 in0.0 mm 0.01 in0.3 mm
02:43 PM 37.8°F3.2°C 26.4°F-3.1°C 63% 5.3 mph NNE8.5 kmh NNE 10.9 mph17.5 kmh 30.11 in1019.6 mb 0.00 in0.0 mm 0.00 in0.0 mm 0.01 in0.3 mm
02:44 PM 37.8°F3.2°C 26.4°F-3.1°C 63% 6.8 mph NNE10.9 kmh NNE 10.9 mph17.5 kmh 30.11 in1019.6 mb 0.00 in0.0 mm 0.00 in0.0 mm 0.01 in0.3 mm
02:45 PM 37.8°F3.2°C 26.4°F-3.1°C 63% 9.4 mph NNE15.1 kmh NNE 10.9 mph17.5 kmh 30.11 in1019.6 mb 0.00 in0.0 mm 0.00 in0.0 mm 0.01 in0.3 mm
02:46 PM 37.8°F3.2°C 26.4°F-3.1°C 63% 9.4 mph NNW15.1 kmh NNW 10.9 mph17.5 kmh 30.11 in1019.6 mb 0.00 in0.0 mm 0.00 in0.0 mm 0.01 in0.3 mm
02:47 PM 37.8°F3.2°C 26.0°F-3.3°C 62% 13.0 mph N20.9 kmh N 13.0 mph20.9 kmh 30.11 in1019.6 mb 0.00 in0.0 mm 0.00 in0.0 mm 0.01 in0.3 mm
02:48 PM 37.8°F3.2°C 25.6°F-3.6°C 61% 7.8 mph NNW12.6 kmh NNW 13.0 mph20.9 kmh 30.11 in1019.6 mb 0.00 in0.0 mm 0.00 in0.0 mm 0.01 in0.3 mm
02:49 PM 37.8°F3.2°C 26.0°F-3.3°C 62% 8.9 mph WNW14.3 kmh WNW 13.0 mph20.9 kmh 30.11 in1019.6 mb 0.00 in0.0 mm 0.00 in0.0 mm 0.01 in0.3 mm
02:50 PM 37.8°F3.2°C 26.0°F-3.3°C 62% 4.2 mph N6.8 kmh N 13.0 mph20.9 kmh 30.11 in1019.6 mb 0.00 in0.0 mm 0.00 in0.0 mm 0.01 in0.3 mm
02:51 PM 37.8°F3.2°C 26.4°F-3.1°C 63% 9.4 mph WNW15.1 kmh WNW 13.0 mph20.9 kmh 30.11 in1019.6 mb 0.00 in0.0 mm 0.00 in0.0 mm 0.01 in0.3 mm
02:52 PM 37.8°F3.2°C 26.0°F-3.3°C 62% 8.9 mph WNW14.3 kmh WNW 13.0 mph20.9 kmh 30.11 in1019.6 mb 0.00 in0.0 mm 0.00 in0.0 mm 0.01 in0.3 mm
02:53 PM 37.8°F3.2°C 26.0°F-3.3°C 62% 6.3 mph ESE10.1 kmh ESE 13.0 mph20.9 kmh 30.12 in1020.0 mb 0.00 in0.0 mm 0.00 in0.0 mm 0.01 in0.3 mm
02:54 PM 37.8°F3.2°C 26.4°F-3.1°C 63% 7.3 mph NNE11.7 kmh NNE 13.0 mph20.9 kmh 30.12 in1020.0 mb 0.00 in0.0 mm 0.00 in0.0 mm 0.01 in0.3 mm
02:55 PM 37.8°F3.2°C 26.4°F-3.1°C 63% 6.3 mph NNE10.1 kmh NNE 13.0 mph20.9 kmh 30.12 in1020.0 mb 0.00 in0.0 mm 0.00 in0.0 mm 0.01 in0.3 mm
02:56 PM 37.8°F3.2°C 26.4°F-3.1°C 63% 8.3 mph E13.4 kmh E 13.0 mph20.9 kmh 30.12 in1020.0 mb 0.00 in0.0 mm 0.00 in0.0 mm 0.01 in0.3 mm
02:57 PM 37.8°F3.2°C 26.0°F-3.3°C 62% 11.4 mph NNE18.3 kmh NNE 13.0 mph20.9 kmh 30.12 in1020.0 mb 0.00 in0.0 mm 0.00 in0.0 mm 0.01 in0.3 mm
02:58 PM 37.8°F3.2°C 25.6°F-3.6°C 61% 10.9 mph NNE17.5 kmh NNE 11.4 mph18.3 kmh 30.12 in1020.0 mb 0.00 in0.0 mm 0.00 in0.0 mm 0.01 in0.3 mm
02:59 PM 37.8°F3.2°C 26.0°F-3.3°C 62% 8.9 mph NNE14.3 kmh NNE 11.4 mph18.3 kmh 30.12 in1020.0 mb 0.00 in0.0 mm 0.00 in0.0 mm 0.01 in0.3 mm
03:00 PM 37.8°F3.2°C 25.6°F-3.6°C 61% 11.4 mph ESE18.3 kmh ESE 11.4 mph18.3 kmh 30.12 in1020.0 mb 0.00 in0.0 mm 0.00 in0.0 mm 0.01 in0.3 mm
03:01 PM 37.8°F3.2°C 25.6°F-3.6°C 61% 4.2 mph N6.8 kmh N 11.4 mph18.3 kmh 30.12 in1020.0 mb 0.00 in0.0 mm 0.00 in0.0 mm 0.01 in0.3 mm
03:02 PM 37.8°F3.2°C 25.6°F-3.6°C 61% 7.8 mph ENE12.6 kmh ENE 11.4 mph18.3 kmh 30.12 in1020.0 mb 0.00 in0.0 mm 0.00 in0.0 mm 0.01 in0.3 mm
03:03 PM 37.8°F3.2°C 25.6°F-3.6°C 61% 5.8 mph N9.3 kmh N 11.4 mph18.3 kmh 30.12 in1020.0 mb 0.00 in0.0 mm 0.00 in0.0 mm 0.01 in0.3 mm
03:04 PM 37.8°F3.2°C 25.6°F-3.6°C 61% 5.3 mph NE8.5 kmh NE 11.4 mph18.3 kmh 30.12 in1020.0 mb 0.00 in0.0 mm 0.00 in0.0 mm 0.01 in0.3 mm
03:05 PM 37.8°F3.2°C 25.6°F-3.6°C 61% 8.3 mph NE13.4 kmh NE 11.4 mph18.3 kmh 30.14 in1020.7 mb 0.00 in0.0 mm 0.00 in0.0 mm 0.01 in0.3 mm
03:06 PM 37.8°F3.2°C 25.2°F-3.8°C 60% 10.9 mph NNE17.5 kmh NNE 11.4 mph18.3 kmh 30.14 in1020.7 mb 0.00 in0.0 mm 0.00 in0.0 mm 0.01 in0.3 mm
03:07 PM 37.8°F3.2°C 25.6°F-3.6°C 61% 3.2 mph NNE5.1 kmh NNE 11.4 mph18.3 kmh 30.14 in1020.7 mb 0.00 in0.0 mm 0.00 in0.0 mm 0.01 in0.3 mm
03:08 PM 37.8°F3.2°C 25.6°F-3.6°C 61% 6.8 mph NNE10.9 kmh NNE 11.4 mph18.3 kmh 30.14 in1020.7 mb 0.00 in0.0 mm 0.00 in0.0 mm 0.01 in0.3 mm
03:09 PM 37.8°F3.2°C 25.6°F-3.6°C 61% 6.8 mph NNE10.9 kmh NNE 11.4 mph18.3 kmh 30.14 in1020.7 mb 0.00 in0.0 mm 0.00 in0.0 mm 0.01 in0.3 mm
03:10 PM 37.8°F3.2°C 25.2°F-3.8°C 60% 5.3 mph ENE8.5 kmh ENE 11.4 mph18.3 kmh 30.14 in1020.7 mb 0.00 in0.0 mm 0.00 in0.0 mm 0.01 in0.3 mm
03:11 PM 37.8°F3.2°C 25.6°F-3.6°C 61% 5.3 mph NNE8.5 kmh NNE 11.4 mph18.3 kmh 30.14 in1020.7 mb 0.00 in0.0 mm 0.00 in0.0 mm 0.01 in0.3 mm
03:12 PM 37.8°F3.2°C 25.2°F-3.8°C 60% 7.8 mph NNW12.6 kmh NNW 11.4 mph18.3 kmh 30.14 in1020.7 mb 0.00 in0.0 mm 0.00 in0.0 mm 0.01 in0.3 mm
03:13 PM 37.8°F3.2°C 25.2°F-3.8°C 60% 6.8 mph NNE10.9 kmh NNE 11.4 mph18.3 kmh 30.14 in1020.7 mb 0.00 in0.0 mm 0.00 in0.0 mm 0.01 in0.3 mm
03:14 PM 37.8°F3.2°C 25.2°F-3.8°C 60% 4.2 mph NE6.8 kmh NE 11.4 mph18.3 kmh 30.14 in1020.7 mb 0.00 in0.0 mm 0.00 in0.0 mm 0.01 in0.3 mm
03:15 PM 37.8°F3.2°C 25.6°F-3.6°C 61% 6.3 mph N10.1 kmh N 11.4 mph18.3 kmh 30.14 in1020.7 mb 0.00 in0.0 mm 0.00 in0.0 mm 0.01 in0.3 mm
03:16 PM 37.8°F3.2°C 25.6°F-3.6°C 61% 4.2 mph NE6.8 kmh NE 10.9 mph17.5 kmh 30.14 in1020.7 mb 0.00 in0.0 mm 0.00 in0.0 mm 0.01 in0.3 mm
03:17 PM 37.8°F3.2°C 26.0°F-3.3°C 62% 2.2 mph W3.5 kmh W 10.4 mph16.7 kmh 30.14 in1020.7 mb 0.00 in0.0 mm 0.00 in0.0 mm 0.01 in0.3 mm
03:18 PM 37.8°F3.2°C 26.4°F-3.1°C 63% 5.8 mph N9.3 kmh N 10.4 mph16.7 kmh 30.14 in1020.7 mb 0.00 in0.0 mm 0.00 in0.0 mm 0.01 in0.3 mm
03:19 PM 37.9°F3.3°C 26.1°F-3.3°C 62% 8.9 mph NNE14.3 kmh NNE 10.4 mph16.7 kmh 30.14 in1020.7 mb 0.00 in0.0 mm 0.00 in0.0 mm 0.01 in0.3 mm
03:20 PM 37.9°F3.3°C 26.1°F-3.3°C 62% 7.8 mph NE12.6 kmh NE 10.4 mph16.7 kmh 30.14 in1020.7 mb 0.00 in0.0 mm 0.00 in0.0 mm 0.01 in0.3 mm
03:21 PM 37.9°F3.3°C 25.7°F-3.5°C 61% 9.4 mph N15.1 kmh N 10.4 mph16.7 kmh 30.14 in1020.7 mb 0.00 in0.0 mm 0.00 in0.0 mm 0.01 in0.3 mm
03:22 PM 37.9°F3.3°C 25.3°F-3.7°C 60% 6.8 mph NNE10.9 kmh NNE 9.4 mph15.1 kmh 30.14 in1020.7 mb 0.00 in0.0 mm 0.00 in0.0 mm 0.01 in0.3 mm
03:23 PM 37.9°F3.3°C 25.3°F-3.7°C 60% 6.3 mph NNW10.1 kmh NNW 9.4 mph15.1 kmh 30.14 in1020.7 mb 0.00 in0.0 mm 0.00 in0.0 mm 0.01 in0.3 mm
03:24 PM 37.9°F3.3°C 25.3°F-3.7°C 60% 5.8 mph NNE9.3 kmh NNE 9.4 mph15.1 kmh 30.14 in1020.7 mb 0.00 in0.0 mm 0.00 in0.0 mm 0.01 in0.3 mm
03:25 PM 37.9°F3.3°C 25.7°F-3.5°C 61% 8.9 mph NNE14.3 kmh NNE 9.4 mph15.1 kmh 30.14 in1020.7 mb 0.00 in0.0 mm 0.00 in0.0 mm 0.01 in0.3 mm
03:26 PM 37.9°F3.3°C 25.7°F-3.5°C 61% 4.7 mph WNW7.6 kmh WNW 9.4 mph15.1 kmh 30.14 in1020.7 mb 0.00 in0.0 mm 0.00 in0.0 mm 0.01 in0.3 mm
03:27 PM 37.9°F3.3°C 25.7°F-3.5°C 61% 8.3 mph NNE13.4 kmh NNE 9.4 mph15.1 kmh 30.14 in1020.7 mb 0.00 in0.0 mm 0.00 in0.0 mm 0.01 in0.3 mm
03:28 PM 37.9°F3.3°C 25.7°F-3.5°C 61% 6.3 mph NNE10.1 kmh NNE 9.4 mph15.1 kmh 30.15 in1021.0 mb 0.00 in0.0 mm 0.00 in0.0 mm 0.01 in0.3 mm
03:29 PM 37.9°F3.3°C 25.7°F-3.5°C 61% 7.3 mph NNE11.7 kmh NNE 9.4 mph15.1 kmh 30.15 in1021.0 mb 0.00 in0.0 mm 0.00 in0.0 mm 0.01 in0.3 mm
03:30 PM 37.9°F3.3°C 25.7°F-3.5°C 61% 5.3 mph NNW8.5 kmh NNW 9.4 mph15.1 kmh 30.15 in1021.0 mb 0.00 in0.0 mm 0.00 in0.0 mm 0.01 in0.3 mm
03:31 PM 37.9°F3.3°C 26.1°F-3.3°C 62% 6.3 mph NNE10.1 kmh NNE 9.4 mph15.1 kmh 30.15 in1021.0 mb 0.00 in0.0 mm 0.00 in0.0 mm 0.01 in0.3 mm
03:32 PM 37.9°F3.3°C 26.1°F-3.3°C 62% 8.3 mph N13.4 kmh N 9.9 mph15.9 kmh 30.15 in1021.0 mb 0.00 in0.0 mm 0.00 in0.0 mm 0.01 in0.3 mm
03:33 PM 37.9°F3.3°C 26.4°F-3.1°C 63% 4.2 mph NE6.8 kmh NE 9.9 mph15.9 kmh 30.15 in1021.0 mb 0.00 in0.0 mm 0.00 in0.0 mm 0.01 in0.3 mm
03:34 PM 37.9°F3.3°C 26.4°F-3.1°C 63% 4.7 mph NNW7.6 kmh NNW 9.9 mph15.9 kmh 30.15 in1021.0 mb 0.00 in0.0 mm 0.00 in0.0 mm 0.01 in0.3 mm
03:35 PM 37.9°F3.3°C 26.1°F-3.3°C 62% 6.3 mph N10.1 kmh N 9.9 mph15.9 kmh 30.15 in1021.0 mb 0.00 in0.0 mm 0.00 in0.0 mm 0.01 in0.3 mm
03:36 PM 37.9°F3.3°C 26.1°F-3.3°C 62% 5.8 mph NNE9.3 kmh NNE 9.9 mph15.9 kmh 30.15 in1021.0 mb 0.00 in0.0 mm 0.00 in0.0 mm 0.01 in0.3 mm
03:37 PM 37.9°F3.3°C 26.1°F-3.3°C 62% 7.8 mph NNE12.6 kmh NNE 9.9 mph15.9 kmh 30.15 in1021.0 mb 0.00 in0.0 mm 0.00 in0.0 mm 0.01 in0.3 mm
03:38 PM 37.9°F3.3°C 26.1°F-3.3°C 62% 5.3 mph W8.5 kmh W 9.9 mph15.9 kmh 30.15 in1021.0 mb 0.00 in0.0 mm 0.00 in0.0 mm 0.01 in0.3 mm
03:39 PM 38.1°F3.4°C 26.3°F-3.2°C 62% 5.3 mph NNW8.5 kmh NNW 9.9 mph15.9 kmh 30.15 in1021.0 mb 0.00 in0.0 mm 0.00 in0.0 mm 0.01 in0.3 mm
03:40 PM 38.1°F3.4°C 26.3°F-3.2°C 62% 8.3 mph NNW13.4 kmh NNW 9.9 mph15.9 kmh 30.15 in1021.0 mb 0.00 in0.0 mm 0.00 in0.0 mm 0.01 in0.3 mm
03:41 PM 38.1°F3.4°C 26.3°F-3.2°C 62% 8.9 mph NNW14.3 kmh NNW 9.9 mph15.9 kmh 30.16 in1021.3 mb 0.00 in0.0 mm 0.00 in0.0 mm 0.01 in0.3 mm
03:42 PM 38.1°F3.4°C 26.3°F-3.2°C 62% 10.4 mph NE16.7 kmh NE 11.4 mph18.3 kmh 30.16 in1021.3 mb 0.00 in0.0 mm 0.00 in0.0 mm 0.01 in0.3 mm
03:43 PM 38.1°F3.4°C 25.5°F-3.6°C 60% 9.4 mph W15.1 kmh W 12.5 mph20.1 kmh 30.16 in1021.3 mb 0.00 in0.0 mm 0.00 in0.0 mm 0.01 in0.3 mm
03:44 PM 38.1°F3.4°C 25.5°F-3.6°C 60% 9.4 mph NNE15.1 kmh NNE 14.5 mph23.3 kmh 30.16 in1021.3 mb 0.00 in0.0 mm 0.00 in0.0 mm 0.01 in0.3 mm
03:45 PM 38.1°F3.4°C 25.5°F-3.6°C 60% 10.9 mph E17.5 kmh E 18.1 mph29.1 kmh 30.16 in1021.3 mb 0.00 in0.0 mm 0.00 in0.0 mm 0.01 in0.3 mm
03:46 PM 38.1°F3.4°C 25.1°F-3.8°C 59% 9.4 mph E15.1 kmh E 18.1 mph29.1 kmh 30.16 in1021.3 mb 0.00 in0.0 mm 0.00 in0.0 mm 0.01 in0.3 mm
03:47 PM 38.1°F3.4°C 25.1°F-3.8°C 59% 9.4 mph NE15.1 kmh NE 18.1 mph29.1 kmh 30.16 in1021.3 mb 0.00 in0.0 mm 0.00 in0.0 mm 0.01 in0.3 mm
03:48 PM 38.1°F3.4°C 25.5°F-3.6°C 60% 9.4 mph NNE15.1 kmh NNE 18.1 mph29.1 kmh 30.16 in1021.3 mb 0.00 in0.0 mm 0.00 in0.0 mm 0.01 in0.3 mm
03:49 PM 38.1°F3.4°C 25.5°F-3.6°C 60% 7.3 mph NE11.7 kmh NE 18.1 mph29.1 kmh 30.16 in1021.3 mb 0.00 in0.0 mm 0.00 in0.0 mm 0.01 in0.3 mm
03:50 PM 38.1°F3.4°C 25.5°F-3.6°C 60% 7.3 mph NNE11.7 kmh NNE 18.1 mph29.1 kmh 30.16 in1021.3 mb 0.00 in0.0 mm 0.00 in0.0 mm 0.01 in0.3 mm
03:51 PM 38.1°F3.4°C 25.1°F-3.8°C 59% 10.9 mph ESE17.5 kmh ESE 18.1 mph29.1 kmh 30.16 in1021.3 mb 0.00 in0.0 mm 0.00 in0.0 mm 0.01 in0.3 mm
03:52 PM 38.1°F3.4°C 25.1°F-3.8°C 59% 9.9 mph NE15.9 kmh NE 18.1 mph29.1 kmh 30.16 in1021.3 mb 0.00 in0.0 mm 0.00 in0.0 mm 0.01 in0.3 mm
03:53 PM 38.1°F3.4°C 25.1°F-3.8°C 59% 9.4 mph NW15.1 kmh NW 18.1 mph29.1 kmh 30.17 in1021.7 mb 0.00 in0.0 mm 0.00 in0.0 mm 0.01 in0.3 mm
03:54 PM 38.1°F3.4°C 25.1°F-3.8°C 59% 10.9 mph NNE17.5 kmh NNE 18.1 mph29.1 kmh 30.17 in1021.7 mb 0.00 in0.0 mm 0.00 in0.0 mm 0.01 in0.3 mm
03:55 PM 37.9°F3.3°C 24.9°F-3.9°C 59% 5.8 mph NE9.3 kmh NE 10.9 mph17.5 kmh 30.17 in1021.7 mb 0.00 in0.0 mm 0.00 in0.0 mm 0.01 in0.3 mm
03:56 PM 37.9°F3.3°C 24.9°F-3.9°C 59% 9.9 mph NNE15.9 kmh NNE 10.9 mph17.5 kmh 30.17 in1021.7 mb 0.00 in0.0 mm 0.00 in0.0 mm 0.01 in0.3 mm
03:57 PM 37.9°F3.3°C 24.9°F-3.9°C 59% 8.9 mph NE14.3 kmh NE 10.9 mph17.5 kmh 30.17 in1021.7 mb 0.00 in0.0 mm 0.00 in0.0 mm 0.01 in0.3 mm
03:58 PM 37.9°F3.3°C 24.9°F-3.9°C 59% 5.8 mph N9.3 kmh N 10.9 mph17.5 kmh 30.17 in1021.7 mb 0.00 in0.0 mm 0.00 in0.0 mm 0.01 in0.3 mm
03:59 PM 37.9°F3.3°C 25.3°F-3.7°C 60% 6.8 mph NE10.9 kmh NE 10.9 mph17.5 kmh 30.17 in1021.7 mb 0.00 in0.0 mm 0.00 in0.0 mm 0.01 in0.3 mm
04:00 PM 37.9°F3.3°C 25.3°F-3.7°C 60% 7.8 mph NNE12.6 kmh NNE 10.9 mph17.5 kmh 30.17 in1021.7 mb 0.00 in0.0 mm 0.00 in0.0 mm 0.01 in0.3 mm
04:01 PM 37.9°F3.3°C 24.9°F-3.9°C 59% 4.7 mph ESE7.6 kmh ESE 10.9 mph17.5 kmh 30.17 in1021.7 mb 0.00 in0.0 mm 0.00 in0.0 mm 0.01 in0.3 mm
04:02 PM 37.9°F3.3°C 25.3°F-3.7°C 60% 4.7 mph NNE7.6 kmh NNE 10.9 mph17.5 kmh 30.17 in1021.7 mb 0.00 in0.0 mm 0.00 in0.0 mm 0.01 in0.3 mm
04:03 PM 37.9°F3.3°C 25.3°F-3.7°C 60% 7.8 mph ENE12.6 kmh ENE 10.9 mph17.5 kmh 30.17 in1021.7 mb 0.00 in0.0 mm 0.00 in0.0 mm 0.01 in0.3 mm
04:04 PM 37.9°F3.3°C 25.3°F-3.7°C 60% 7.8 mph ENE12.6 kmh ENE 10.9 mph17.5 kmh 30.17 in1021.7 mb 0.00 in0.0 mm 0.00 in0.0 mm 0.01 in0.3 mm
04:05 PM 37.9°F3.3°C 24.9°F-3.9°C 59% 11.9 mph NNW19.2 kmh NNW 11.9 mph19.2 kmh 30.18 in1022.0 mb 0.00 in0.0 mm 0.00 in0.0 mm 0.01 in0.3 mm
04:06 PM 37.9°F3.3°C 24.5°F-4.2°C 58% 6.3 mph NNW10.1 kmh NNW 11.9 mph19.2 kmh 30.18 in1022.0 mb 0.00 in0.0 mm 0.00 in0.0 mm 0.01 in0.3 mm
04:07 PM 37.9°F3.3°C 24.5°F-4.2°C 58% 10.9 mph NE17.5 kmh NE 13.5 mph21.7 kmh 30.18 in1022.0 mb 0.00 in0.0 mm 0.00 in0.0 mm 0.01 in0.3 mm
04:08 PM 37.9°F3.3°C 24.5°F-4.2°C 58% 6.3 mph ENE10.1 kmh ENE 13.5 mph21.7 kmh 30.18 in1022.0 mb 0.00 in0.0 mm 0.00 in0.0 mm 0.01 in0.3 mm
04:09 PM 37.9°F3.3°C 24.5°F-4.2°C 58% 10.4 mph ESE16.7 kmh ESE 14.0 mph22.5 kmh 30.18 in1022.0 mb 0.00 in0.0 mm 0.00 in0.0 mm 0.01 in0.3 mm
04:10 PM 37.9°F3.3°C 24.9°F-3.9°C 59% 9.9 mph ESE15.9 kmh ESE 14.0 mph22.5 kmh 30.18 in1022.0 mb 0.00 in0.0 mm 0.00 in0.0 mm 0.01 in0.3 mm
04:11 PM 37.9°F3.3°C 24.9°F-3.9°C 59% 8.9 mph ESE14.3 kmh ESE 14.0 mph22.5 kmh 30.18 in1022.0 mb 0.00 in0.0 mm 0.00 in0.0 mm 0.01 in0.3 mm
04:12 PM 37.9°F3.3°C 24.5°F-4.2°C 58% 11.4 mph NNW18.3 kmh NNW 14.0 mph22.5 kmh 30.18 in1022.0 mb 0.00 in0.0 mm 0.00 in0.0 mm 0.01 in0.3 mm
04:13 PM 37.9°F3.3°C 24.5°F-4.2°C 58% 5.8 mph N9.3 kmh N 14.0 mph22.5 kmh 30.18 in1022.0 mb 0.00 in0.0 mm 0.00 in0.0 mm 0.01 in0.3 mm
04:14 PM 37.9°F3.3°C 24.5°F-4.2°C 58% 3.7 mph NNE6.0 kmh NNE 14.0 mph22.5 kmh 30.18 in1022.0 mb 0.00 in0.0 mm 0.00 in0.0 mm 0.01 in0.3 mm
04:15 PM 37.9°F3.3°C 25.3°F-3.7°C 60% 3.7 mph NNW6.0 kmh NNW 14.0 mph22.5 kmh 30.18 in1022.0 mb 0.00 in0.0 mm 0.00 in0.0 mm 0.01 in0.3 mm
04:16 PM 37.9°F3.3°C 25.7°F-3.5°C 61% 4.7 mph NNE7.6 kmh NNE 14.0 mph22.5 kmh 30.18 in1022.0 mb 0.00 in0.0 mm 0.00 in0.0 mm 0.01 in0.3 mm
04:17 PM 37.9°F3.3°C 25.7°F-3.5°C 61% 5.8 mph NNE9.3 kmh NNE 14.0 mph22.5 kmh 30.18 in1022.0 mb 0.00 in0.0 mm 0.00 in0.0 mm 0.01 in0.3 mm
04:18 PM 37.9°F3.3°C 25.3°F-3.7°C 60% 5.8 mph N9.3 kmh N 14.0 mph22.5 kmh 30.18 in1022.0 mb 0.00 in0.0 mm 0.00 in0.0 mm 0.01 in0.3 mm
04:19 PM 37.9°F3.3°C 25.3°F-3.7°C 60% 6.3 mph NNW10.1 kmh NNW 11.4 mph18.3 kmh 30.18 in1022.0 mb 0.00 in0.0 mm 0.00 in0.0 mm 0.01 in0.3 mm
04:20 PM 37.9°F3.3°C 25.3°F-3.7°C 60% 13.0 mph NNE20.9 kmh NNE 13.0 mph20.9 kmh 30.18 in1022.0 mb 0.00 in0.0 mm 0.00 in0.0 mm 0.01 in0.3 mm
04:21 PM 37.8°F3.2°C 24.8°F-4.0°C 59% 9.4 mph S15.1 kmh S 13.0 mph20.9 kmh 30.18 in1022.0 mb 0.00 in0.0 mm 0.00 in0.0 mm 0.01 in0.3 mm
04:22 PM 37.8°F3.2°C 24.8°F-4.0°C 59% 9.4 mph NNE15.1 kmh NNE 13.0 mph20.9 kmh 30.18 in1022.0 mb 0.00 in0.0 mm 0.00 in0.0 mm 0.01 in0.3 mm
04:23 PM 37.8°F3.2°C 24.8°F-4.0°C 59% 6.3 mph NNE10.1 kmh NNE 13.0 mph20.9 kmh 30.18 in1022.0 mb 0.00 in0.0 mm 0.00 in0.0 mm 0.01 in0.3 mm
04:24 PM 37.8°F3.2°C 25.2°F-3.8°C 60% 6.3 mph NE10.1 kmh NE 13.0 mph20.9 kmh 30.18 in1022.0 mb 0.00 in0.0 mm 0.00 in0.0 mm 0.01 in0.3 mm
04:25 PM 37.8°F3.2°C 25.2°F-3.8°C 60% 7.8 mph NE12.6 kmh NE 13.0 mph20.9 kmh 30.18 in1022.0 mb 0.00 in0.0 mm 0.00 in0.0 mm 0.01 in0.3 mm
04:26 PM 37.8°F3.2°C 25.2°F-3.8°C 60% 6.3 mph NNE10.1 kmh NNE 13.0 mph20.9 kmh 30.18 in1022.0 mb 0.00 in0.0 mm 0.00 in0.0 mm 0.01 in0.3 mm
04:27 PM 37.8°F3.2°C 25.2°F-3.8°C 60% 8.3 mph NNE13.4 kmh NNE 13.0 mph20.9 kmh 30.18 in1022.0 mb 0.00 in0.0 mm 0.00 in0.0 mm 0.01 in0.3 mm
04:28 PM 37.8°F3.2°C 25.2°F-3.8°C 60% 4.2 mph NNE6.8 kmh NNE 13.0 mph20.9 kmh 30.18 in1022.0 mb 0.00 in0.0 mm 0.00 in0.0 mm 0.01 in0.3 mm
04:29 PM 37.8°F3.2°C 25.2°F-3.8°C 60% 5.8 mph NE9.3 kmh NE 13.0 mph20.9 kmh 30.18 in1022.0 mb 0.00 in0.0 mm 0.00 in0.0 mm 0.01 in0.3 mm
04:30 PM 37.8°F3.2°C 24.8°F-4.0°C 59% 5.8 mph NNE9.3 kmh NNE 13.0 mph20.9 kmh 30.18 in1022.0 mb 0.00 in0.0 mm 0.00 in0.0 mm 0.01 in0.3 mm
04:31 PM 37.8°F3.2°C 25.2°F-3.8°C 60% 6.3 mph NNE10.1 kmh NNE 9.4 mph15.1 kmh 30.18 in1022.0 mb 0.00 in0.0 mm 0.00 in0.0 mm 0.01 in0.3 mm
04:32 PM 37.8°F3.2°C 25.2°F-3.8°C 60% 8.9 mph NNE14.3 kmh NNE 8.9 mph14.3 kmh 30.18 in1022.0 mb 0.00 in0.0 mm 0.00 in0.0 mm 0.01 in0.3 mm
04:33 PM 37.8°F3.2°C 24.8°F-4.0°C 59% 9.4 mph NE15.1 kmh NE 9.4 mph15.1 kmh 30.18 in1022.0 mb 0.00 in0.0 mm 0.00 in0.0 mm 0.01 in0.3 mm
04:34 PM 37.8°F3.2°C 24.8°F-4.0°C 59% 10.4 mph NNW16.7 kmh NNW 10.4 mph16.7 kmh 30.18 in1022.0 mb 0.00 in0.0 mm 0.00 in0.0 mm 0.01 in0.3 mm
04:35 PM 37.8°F3.2°C 24.8°F-4.0°C 59% 7.3 mph NE11.7 kmh NE 10.4 mph16.7 kmh 30.18 in1022.0 mb 0.00 in0.0 mm 0.00 in0.0 mm 0.01 in0.3 mm
04:36 PM 37.8°F3.2°C 24.8°F-4.0°C 59% 7.3 mph NNW11.7 kmh NNW 10.4 mph16.7 kmh 30.18 in1022.0 mb 0.00 in0.0 mm 0.00 in0.0 mm 0.01 in0.3 mm
04:37 PM 37.8°F3.2°C 24.4°F-4.2°C 58% 10.9 mph NNW17.5 kmh NNW 10.9 mph17.5 kmh 30.18 in1022.0 mb 0.00 in0.0 mm 0.00 in0.0 mm 0.01 in0.3 mm
04:38 PM 37.8°F3.2°C 24.4°F-4.2°C 58% 7.8 mph NNE12.6 kmh NNE 10.9 mph17.5 kmh 30.18 in1022.0 mb 0.00 in0.0 mm 0.00 in0.0 mm 0.01 in0.3 mm
04:39 PM 37.8°F3.2°C 24.4°F-4.2°C 58% 6.8 mph NNE10.9 kmh NNE 10.9 mph17.5 kmh 30.18 in1022.0 mb 0.00 in0.0 mm 0.00 in0.0 mm 0.01 in0.3 mm
04:40 PM 37.6°F3.1°C 24.2°F-4.3°C 58% 6.3 mph NNE10.1 kmh NNE 10.9 mph17.5 kmh 30.18 in1022.0 mb 0.00 in0.0 mm 0.00 in0.0 mm 0.01 in0.3 mm
04:41 PM 37.6°F3.1°C 24.2°F-4.3°C 58% 7.3 mph NNE11.7 kmh NNE 10.9 mph17.5 kmh 30.19 in1022.4 mb 0.00 in0.0 mm 0.00 in0.0 mm 0.01 in0.3 mm
04:42 PM 37.6°F3.1°C 24.2°F-4.3°C 58% 8.3 mph N13.4 kmh N 10.9 mph17.5 kmh 30.19 in1022.4 mb 0.00 in0.0 mm 0.00 in0.0 mm 0.01 in0.3 mm
04:43 PM 37.6°F3.1°C 23.8°F-4.6°C 57% 13.5 mph NE21.7 kmh NE 13.5 mph21.7 kmh 30.19 in1022.4 mb 0.00 in0.0 mm 0.00 in0.0 mm 0.01 in0.3 mm
04:44 PM 37.4°F3.0°C 23.6°F-4.7°C 57% 12.5 mph NNE20.1 kmh NNE 13.5 mph21.7 kmh 30.19 in1022.4 mb 0.00 in0.0 mm 0.00 in0.0 mm 0.01 in0.3 mm
04:45 PM 37.4°F3.0°C 23.6°F-4.7°C 57% 7.3 mph NNE11.7 kmh NNE 14.0 mph22.5 kmh 30.19 in1022.4 mb 0.00 in0.0 mm 0.00 in0.0 mm 0.01 in0.3 mm
04:46 PM 37.4°F3.0°C 23.6°F-4.7°C 57% 6.8 mph NNE10.9 kmh NNE 14.0 mph22.5 kmh 30.19 in1022.4 mb 0.00 in0.0 mm 0.00 in0.0 mm 0.01 in0.3 mm
04:47 PM 37.2°F2.9°C 23.4°F-4.8°C 57% 4.2 mph NE6.8 kmh NE 14.0 mph22.5 kmh 30.19 in1022.4 mb 0.00 in0.0 mm 0.00 in0.0 mm 0.01 in0.3 mm
04:48 PM 37.2°F2.9°C 23.8°F-4.6°C 58% 7.8 mph NNE12.6 kmh NNE 14.0 mph22.5 kmh 30.19 in1022.4 mb 0.00 in0.0 mm 0.00 in0.0 mm 0.01 in0.3 mm
04:49 PM 37.2°F2.9°C 23.8°F-4.6°C 58% 5.8 mph N9.3 kmh N 14.0 mph22.5 kmh 30.19 in1022.4 mb 0.00 in0.0 mm 0.00 in0.0 mm 0.01 in0.3 mm
04:50 PM 37.2°F2.9°C 23.8°F-4.6°C 58% 4.7 mph ENE7.6 kmh ENE 14.0 mph22.5 kmh 30.19 in1022.4 mb 0.00 in0.0 mm 0.00 in0.0 mm 0.01 in0.3 mm
04:51 PM 37.2°F2.9°C 23.8°F-4.6°C 58% 8.9 mph ENE14.3 kmh ENE 14.0 mph22.5 kmh 30.19 in1022.4 mb 0.00 in0.0 mm 0.00 in0.0 mm 0.01 in0.3 mm
04:52 PM 37.2°F2.9°C 23.8°F-4.6°C 58% 4.7 mph NE7.6 kmh NE 14.0 mph22.5 kmh 30.19 in1022.4 mb 0.00 in0.0 mm 0.00 in0.0 mm 0.01 in0.3 mm
04:53 PM 37.2°F2.9°C 23.8°F-4.6°C 58% 4.2 mph ENE6.8 kmh ENE 14.0 mph22.5 kmh 30.20 in1022.7 mb 0.00 in0.0 mm 0.00 in0.0 mm 0.01 in0.3 mm
04:54 PM 37.2°F2.9°C 23.8°F-4.6°C 58% 6.3 mph ENE10.1 kmh ENE 14.0 mph22.5 kmh 30.20 in1022.7 mb 0.00 in0.0 mm 0.00 in0.0 mm 0.01 in0.3 mm
04:55 PM 37.2°F2.9°C 24.2°F-4.3°C 59% 7.8 mph ESE12.6 kmh ESE 9.9 mph15.9 kmh 30.20 in1022.7 mb 0.00 in0.0 mm 0.00 in0.0 mm 0.01 in0.3 mm
04:56 PM 37.2°F2.9°C 24.2°F-4.3°C 59% 5.3 mph N8.5 kmh N 9.9 mph15.9 kmh 30.20 in1022.7 mb 0.00 in0.0 mm 0.00 in0.0 mm 0.01 in0.3 mm
04:57 PM 37.2°F2.9°C 24.2°F-4.3°C 59% 4.7 mph E7.6 kmh E 9.9 mph15.9 kmh 30.20 in1022.7 mb 0.00 in0.0 mm 0.00 in0.0 mm 0.01 in0.3 mm
04:58 PM 37.2°F2.9°C 24.2°F-4.3°C 59% 7.3 mph NNE11.7 kmh NNE 9.9 mph15.9 kmh 30.20 in1022.7 mb 0.00 in0.0 mm 0.00 in0.0 mm 0.01 in0.3 mm
04:59 PM 37.2°F2.9°C 23.8°F-4.6°C 58% 5.3 mph NNE8.5 kmh NNE 9.9 mph15.9 kmh 30.20 in1022.7 mb 0.00 in0.0 mm 0.00 in0.0 mm 0.01 in0.3 mm
05:00 PM 37.0°F2.8°C 23.6°F-4.7°C 58% 7.8 mph NNE12.6 kmh NNE 9.9 mph15.9 kmh 30.20 in1022.7 mb 0.00 in0.0 mm 0.00 in0.0 mm 0.01 in0.3 mm
05:01 PM 37.0°F2.8°C 23.6°F-4.7°C 58% 8.3 mph NNE13.4 kmh NNE 9.9 mph15.9 kmh 30.20 in1022.7 mb 0.00 in0.0 mm 0.00 in0.0 mm 0.01 in0.3 mm
05:02 PM 37.0°F2.8°C 24.0°F-4.4°C 59% 3.7 mph ENE6.0 kmh ENE 9.9 mph15.9 kmh 30.20 in1022.7 mb 0.00 in0.0 mm 0.00 in0.0 mm 0.01 in0.3 mm
05:03 PM 37.0°F2.8°C 23.6°F-4.7°C 58% 6.8 mph N10.9 kmh N 9.9 mph15.9 kmh 30.20 in1022.7 mb 0.00 in0.0 mm 0.00 in0.0 mm 0.01 in0.3 mm
05:04 PM 37.0°F2.8°C 23.6°F-4.7°C 58% 4.7 mph N7.6 kmh N 9.9 mph15.9 kmh 30.21 in1023.0 mb 0.00 in0.0 mm 0.00 in0.0 mm 0.01 in0.3 mm
05:05 PM 37.0°F2.8°C 23.6°F-4.7°C 58% 5.3 mph NNE8.5 kmh NNE 9.9 mph15.9 kmh 30.21 in1023.0 mb 0.00 in0.0 mm 0.00 in0.0 mm 0.01 in0.3 mm
05:06 PM 37.0°F2.8°C 23.6°F-4.7°C 58% 7.3 mph NNW11.7 kmh NNW 9.9 mph15.9 kmh 30.21 in1023.0 mb 0.00 in0.0 mm 0.00 in0.0 mm 0.01 in0.3 mm
05:07 PM 36.9°F2.7°C 23.5°F-4.7°C 58% 6.8 mph ENE10.9 kmh ENE 9.9 mph15.9 kmh 30.21 in1023.0 mb 0.00 in0.0 mm 0.00 in0.0 mm 0.01 in0.3 mm
05:08 PM 36.9°F2.7°C 23.5°F-4.7°C 58% 8.3 mph NE13.4 kmh NE 9.9 mph15.9 kmh 30.21 in1023.0 mb 0.00 in0.0 mm 0.00 in0.0 mm 0.01 in0.3 mm
05:09 PM 36.9°F2.7°C 23.5°F-4.7°C 58% 6.3 mph ENE10.1 kmh ENE 9.9 mph15.9 kmh 30.21 in1023.0 mb 0.00 in0.0 mm 0.00 in0.0 mm 0.01 in0.3 mm
05:10 PM 36.9°F2.7°C 23.5°F-4.7°C 58% 5.3 mph NNE8.5 kmh NNE 9.9 mph15.9 kmh 30.21 in1023.0 mb 0.00 in0.0 mm 0.00 in0.0 mm 0.01 in0.3 mm
05:11 PM 36.9°F2.7°C 23.5°F-4.7°C 58% 5.8 mph W9.3 kmh W 9.9 mph15.9 kmh 30.21 in1023.0 mb 0.00 in0.0 mm 0.00 in0.0 mm 0.01 in0.3 mm
05:12 PM 36.9°F2.7°C 23.5°F-4.7°C 58% 7.8 mph NNE12.6 kmh NNE 9.9 mph15.9 kmh 30.21 in1023.0 mb 0.00 in0.0 mm 0.00 in0.0 mm 0.01 in0.3 mm
05:13 PM 36.9°F2.7°C 23.5°F-4.7°C 58% 6.8 mph NE10.9 kmh NE 8.3 mph13.4 kmh 30.21 in1023.0 mb 0.00 in0.0 mm 0.00 in0.0 mm 0.01 in0.3 mm
05:14 PM 36.7°F2.6°C 23.3°F-4.8°C 58% 8.9 mph NE14.3 kmh NE 9.4 mph15.1 kmh 30.21 in1023.0 mb 0.00 in0.0 mm 0.00 in0.0 mm 0.01 in0.3 mm
05:15 PM 36.7°F2.6°C 22.9°F-5.1°C 57% 10.4 mph NE16.7 kmh NE 10.4 mph16.7 kmh 30.21 in1023.0 mb 0.00 in0.0 mm 0.00 in0.0 mm 0.01 in0.3 mm
05:16 PM 36.7°F2.6°C 22.9°F-5.1°C 57% 8.9 mph NNE14.3 kmh NNE 10.4 mph16.7 kmh 30.21 in1023.0 mb 0.00 in0.0 mm 0.00 in0.0 mm 0.01 in0.3 mm
05:17 PM 36.7°F2.6°C 23.3°F-4.8°C 58% 5.3 mph NNW8.5 kmh NNW 11.4 mph18.3 kmh 30.21 in1023.0 mb 0.00 in0.0 mm 0.00 in0.0 mm 0.01 in0.3 mm
05:18 PM 36.7°F2.6°C 23.3°F-4.8°C 58% 4.2 mph NNE6.8 kmh NNE 11.4 mph18.3 kmh 30.21 in1023.0 mb 0.00 in0.0 mm 0.00 in0.0 mm 0.01 in0.3 mm
05:19 PM 36.7°F2.6°C 23.7°F-4.6°C 59% 8.3 mph ESE13.4 kmh ESE 11.4 mph18.3 kmh 30.21 in1023.0 mb 0.00 in0.0 mm 0.00 in0.0 mm 0.01 in0.3 mm
05:20 PM 36.5°F2.5°C 23.1°F-4.9°C 58% 6.3 mph NNE10.1 kmh NNE 11.4 mph18.3 kmh 30.21 in1023.0 mb 0.00 in0.0 mm 0.00 in0.0 mm 0.01 in0.3 mm
05:21 PM 36.5°F2.5°C 23.1°F-4.9°C 58% 4.7 mph ESE7.6 kmh ESE 11.4 mph18.3 kmh 30.21 in1023.0 mb 0.00 in0.0 mm 0.00 in0.0 mm 0.01 in0.3 mm
05:22 PM 36.5°F2.5°C 23.6°F-4.7°C 59% 4.2 mph ESE6.8 kmh ESE 11.4 mph18.3 kmh 30.21 in1023.0 mb 0.00 in0.0 mm 0.00 in0.0 mm 0.01 in0.3 mm
05:23 PM 36.5°F2.5°C 23.6°F-4.7°C 59% 9.4 mph NNE15.1 kmh NNE 11.4 mph18.3 kmh 30.21 in1023.0 mb 0.00 in0.0 mm 0.00 in0.0 mm 0.01 in0.3 mm
05:24 PM 36.5°F2.5°C 23.6°F-4.7°C 59% 5.8 mph NE9.3 kmh NE 11.4 mph18.3 kmh 30.21 in1023.0 mb 0.00 in0.0 mm 0.00 in0.0 mm 0.01 in0.3 mm
05:25 PM 36.3°F2.4°C 23.4°F-4.8°C 59% 5.8 mph ENE9.3 kmh ENE 11.4 mph18.3 kmh 30.21 in1023.0 mb 0.00 in0.0 mm 0.00 in0.0 mm 0.01 in0.3 mm
05:26 PM 36.3°F2.4°C 23.0°F-5.0°C 58% 10.4 mph NNE16.7 kmh NNE 11.4 mph18.3 kmh 30.21 in1023.0 mb 0.00 in0.0 mm 0.00 in0.0 mm 0.01 in0.3 mm
05:27 PM 36.1°F2.3°C 22.8°F-5.1°C 58% 10.4 mph NNE16.7 kmh NNE 11.4 mph18.3 kmh 30.21 in1023.0 mb 0.00 in0.0 mm 0.00 in0.0 mm 0.01 in0.3 mm
05:28 PM 36.1°F2.3°C 22.8°F-5.1°C 58% 9.4 mph NNE15.1 kmh NNE 11.4 mph18.3 kmh 30.21 in1023.0 mb 0.00 in0.0 mm 0.00 in0.0 mm 0.01 in0.3 mm
05:29 PM 36.1°F2.3°C 22.8°F-5.1°C 58% 9.9 mph N15.9 kmh N 11.4 mph18.3 kmh 30.22 in1023.4 mb 0.00 in0.0 mm 0.00 in0.0 mm 0.01 in0.3 mm
05:30 PM 36.0°F2.2°C 22.7°F-5.2°C 58% 9.4 mph NNW15.1 kmh NNW 12.5 mph20.1 kmh 30.22 in1023.4 mb 0.00 in0.0 mm 0.00 in0.0 mm 0.01 in0.3 mm
05:31 PM 36.0°F2.2°C 22.7°F-5.2°C 58% 7.8 mph NNE12.6 kmh NNE 12.5 mph20.1 kmh 30.22 in1023.4 mb 0.00 in0.0 mm 0.00 in0.0 mm 0.01 in0.3 mm
05:32 PM 36.0°F2.2°C 22.7°F-5.2°C 58% 9.4 mph NE15.1 kmh NE 12.5 mph20.1 kmh 30.22 in1023.4 mb 0.00 in0.0 mm 0.00 in0.0 mm 0.01 in0.3 mm
05:33 PM 36.0°F2.2°C 22.7°F-5.2°C 58% 4.2 mph S6.8 kmh S 12.5 mph20.1 kmh 30.22 in1023.4 mb 0.00 in0.0 mm 0.00 in0.0 mm 0.01 in0.3 mm
05:34 PM 36.0°F2.2°C 23.1°F-4.9°C 59% 5.3 mph ESE8.5 kmh ESE 12.5 mph20.1 kmh 30.22 in1023.4 mb 0.00 in0.0 mm 0.00 in0.0 mm 0.01 in0.3 mm
05:35 PM 36.0°F2.2°C 23.1°F-4.9°C 59% 4.7 mph NNE7.6 kmh NNE 12.5 mph20.1 kmh 30.22 in1023.4 mb 0.00 in0.0 mm 0.00 in0.0 mm 0.01 in0.3 mm
05:36 PM 35.8°F2.1°C 22.9°F-5.1°C 59% 5.3 mph NNE8.5 kmh NNE 12.5 mph20.1 kmh 30.22 in1023.4 mb 0.00 in0.0 mm 0.00 in0.0 mm 0.01 in0.3 mm
05:37 PM 35.8°F2.1°C 22.9°F-5.1°C 59% 5.8 mph ESE9.3 kmh ESE 12.5 mph20.1 kmh 30.22 in1023.4 mb 0.00 in0.0 mm 0.00 in0.0 mm 0.01 in0.3 mm
05:38 PM 35.8°F2.1°C 22.9°F-5.1°C 59% 8.3 mph NNE13.4 kmh NNE 12.5 mph20.1 kmh 30.22 in1023.4 mb 0.00 in0.0 mm 0.00 in0.0 mm 0.01 in0.3 mm
05:39 PM 35.8°F2.1°C 22.9°F-5.1°C 59% 9.4 mph NE15.1 kmh NE 12.5 mph20.1 kmh 30.22 in1023.4 mb 0.00 in0.0 mm 0.00 in0.0 mm 0.01 in0.3 mm
05:40 PM 35.8°F2.1°C 22.9°F-5.1°C 59% 4.7 mph ESE7.6 kmh ESE 9.4 mph15.1 kmh 30.22 in1023.4 mb 0.00 in0.0 mm 0.00 in0.0 mm 0.01 in0.3 mm
05:41 PM 35.8°F2.1°C 22.9°F-5.1°C 59% 5.8 mph NNE9.3 kmh NNE 9.4 mph15.1 kmh 30.23 in1023.7 mb 0.00 in0.0 mm 0.00 in0.0 mm 0.01 in0.3 mm
05:42 PM 35.8°F2.1°C 22.9°F-5.1°C 59% 5.8 mph E9.3 kmh E 9.4 mph15.1 kmh 30.23 in1023.7 mb 0.00 in0.0 mm 0.00 in0.0 mm 0.01 in0.3 mm
05:43 PM 35.6°F2.0°C 22.7°F-5.2°C 59% 5.8 mph NE9.3 kmh NE 9.4 mph15.1 kmh 30.23 in1023.7 mb 0.00 in0.0 mm 0.00 in0.0 mm 0.01 in0.3 mm
05:44 PM 35.6°F2.0°C 22.7°F-5.2°C 59% 5.3 mph E8.5 kmh E 9.4 mph15.1 kmh 30.23 in1023.7 mb 0.00 in0.0 mm 0.00 in0.0 mm 0.01 in0.3 mm
05:45 PM 35.6°F2.0°C 22.7°F-5.2°C 59% 7.8 mph NE12.6 kmh NE 9.4 mph15.1 kmh 30.23 in1023.7 mb 0.00 in0.0 mm 0.00 in0.0 mm 0.01 in0.3 mm
05:46 PM 35.6°F2.0°C 22.3°F-5.4°C 58% 6.8 mph NNE10.9 kmh NNE 9.4 mph15.1 kmh 30.23 in1023.7 mb 0.00 in0.0 mm 0.00 in0.0 mm 0.01 in0.3 mm
05:47 PM 35.6°F2.0°C 22.3°F-5.4°C 58% 5.3 mph ESE8.5 kmh ESE 9.4 mph15.1 kmh 30.23 in1023.7 mb 0.00 in0.0 mm 0.00 in0.0 mm 0.01 in0.3 mm
05:48 PM 35.4°F1.9°C 22.1°F-5.5°C 58% 7.8 mph NE12.6 kmh NE 9.4 mph15.1 kmh 30.23 in1023.7 mb 0.00 in0.0 mm 0.00 in0.0 mm 0.01 in0.3 mm
05:49 PM 35.4°F1.9°C 22.1°F-5.5°C 58% 6.8 mph NE10.9 kmh NE 9.4 mph15.1 kmh 30.23 in1023.7 mb 0.00 in0.0 mm 0.00 in0.0 mm 0.01 in0.3 mm
05:50 PM 35.4°F1.9°C 22.1°F-5.5°C 58% 5.8 mph NNE9.3 kmh NNE 10.4 mph16.7 kmh 30.23 in1023.7 mb 0.00 in0.0 mm 0.00 in0.0 mm 0.01 in0.3 mm
05:51 PM 35.4°F1.9°C 22.1°F-5.5°C 58% 6.8 mph NNE10.9 kmh NNE 10.4 mph16.7 kmh 30.23 in1023.7 mb 0.00 in0.0 mm 0.00 in0.0 mm 0.01 in0.3 mm
05:52 PM 35.4°F1.9°C 22.5°F-5.3°C 59% 7.8 mph NNE12.6 kmh NNE 10.4 mph16.7 kmh 30.23 in1023.7 mb 0.00 in0.0 mm 0.00 in0.0 mm 0.01 in0.3 mm
05:53 PM 35.4°F1.9°C 22.1°F-5.5°C 58% 11.9 mph NNE19.2 kmh NNE 11.9 mph19.2 kmh 30.24 in1024.0 mb 0.00 in0.0 mm 0.00 in0.0 mm 0.01 in0.3 mm
05:54 PM 35.4°F1.9°C 22.5°F-5.3°C 59% 7.3 mph N11.7 kmh N 11.9 mph19.2 kmh 30.24 in1024.0 mb 0.00 in0.0 mm 0.00 in0.0 mm 0.01 in0.3 mm
05:55 PM 35.4°F1.9°C 22.5°F-5.3°C 59% 8.9 mph WNW14.3 kmh WNW 11.9 mph19.2 kmh 30.24 in1024.0 mb 0.00 in0.0 mm 0.00 in0.0 mm 0.01 in0.3 mm
05:56 PM 35.4°F1.9°C 22.5°F-5.3°C 59% 7.8 mph N12.6 kmh N 11.9 mph19.2 kmh 30.24 in1024.0 mb 0.00 in0.0 mm 0.00 in0.0 mm 0.01 in0.3 mm
05:57 PM 35.2°F1.8°C 21.9°F-5.6°C 58% 6.8 mph ESE10.9 kmh ESE 11.9 mph19.2 kmh 30.24 in1024.0 mb 0.00 in0.0 mm 0.00 in0.0 mm 0.01 in0.3 mm
05:58 PM 35.2°F1.8°C 21.9°F-5.6°C 58% 5.3 mph NW8.5 kmh NW 11.9 mph19.2 kmh 30.24 in1024.0 mb 0.00 in0.0 mm 0.00 in0.0 mm 0.01 in0.3 mm
05:59 PM 35.2°F1.8°C 21.5°F-5.8°C 57% 7.8 mph E12.6 kmh E 11.9 mph19.2 kmh 30.24 in1024.0 mb 0.00 in0.0 mm 0.00 in0.0 mm 0.01 in0.3 mm
06:00 PM 35.2°F1.8°C 21.5°F-5.8°C 57% 11.9 mph N19.2 kmh N 11.9 mph19.2 kmh 30.24 in1024.0 mb 0.00 in0.0 mm 0.00 in0.0 mm 0.01 in0.3 mm
06:01 PM 35.1°F1.7°C 21.4°F-5.9°C 57% 5.8 mph W9.3 kmh W 11.9 mph19.2 kmh 30.24 in1024.0 mb 0.00 in0.0 mm 0.00 in0.0 mm 0.01 in0.3 mm
06:02 PM 35.1°F1.7°C 21.4°F-5.9°C 57% 7.3 mph ESE11.7 kmh ESE 11.9 mph19.2 kmh 30.24 in1024.0 mb 0.00 in0.0 mm 0.00 in0.0 mm 0.01 in0.3 mm
06:03 PM 35.1°F1.7°C 21.4°F-5.9°C 57% 6.3 mph ESE10.1 kmh ESE 11.9 mph19.2 kmh 30.24 in1024.0 mb 0.00 in0.0 mm 0.00 in0.0 mm 0.01 in0.3 mm
06:04 PM 35.1°F1.7°C 21.8°F-5.7°C 58% 4.7 mph E7.6 kmh E 11.9 mph19.2 kmh 30.24 in1024.0 mb 0.00 in0.0 mm 0.00 in0.0 mm 0.01 in0.3 mm
06:05 PM 35.1°F1.7°C 21.8°F-5.7°C 58% 9.4 mph NNE15.1 kmh NNE 11.9 mph19.2 kmh 30.24 in1024.0 mb 0.00 in0.0 mm 0.00 in0.0 mm 0.01 in0.3 mm
06:06 PM 35.1°F1.7°C 21.4°F-5.9°C 57% 12.5 mph NNW20.1 kmh NNW 12.5 mph20.1 kmh 30.24 in1024.0 mb 0.00 in0.0 mm 0.00 in0.0 mm 0.01 in0.3 mm
06:07 PM 34.9°F1.6°C 20.8°F-6.2°C 56% 7.3 mph N11.7 kmh N 13.5 mph21.7 kmh 30.24 in1024.0 mb 0.00 in0.0 mm 0.00 in0.0 mm 0.01 in0.3 mm
06:08 PM 34.9°F1.6°C 20.8°F-6.2°C 56% 8.3 mph N13.4 kmh N 13.5 mph21.7 kmh 30.24 in1024.0 mb 0.00 in0.0 mm 0.00 in0.0 mm 0.01 in0.3 mm
06:09 PM 34.9°F1.6°C 21.2°F-6.0°C 57% 7.3 mph ESE11.7 kmh ESE 13.5 mph21.7 kmh 30.24 in1024.0 mb 0.00 in0.0 mm 0.00 in0.0 mm 0.01 in0.3 mm
06:10 PM 34.9°F1.6°C 21.2°F-6.0°C 57% 10.9 mph NNE17.5 kmh NNE 13.5 mph21.7 kmh 30.24 in1024.0 mb 0.00 in0.0 mm 0.00 in0.0 mm 0.01 in0.3 mm
06:11 PM 34.9°F1.6°C 20.8°F-6.2°C 56% 7.8 mph NNE12.6 kmh NNE 13.5 mph21.7 kmh 30.24 in1024.0 mb 0.00 in0.0 mm 0.00 in0.0 mm 0.01 in0.3 mm
06:12 PM 34.9°F1.6°C 20.8°F-6.2°C 56% 3.2 mph N5.1 kmh N 13.5 mph21.7 kmh 30.24 in1024.0 mb 0.00 in0.0 mm 0.00 in0.0 mm 0.01 in0.3 mm
06:13 PM 34.7°F1.5°C 20.6°F-6.3°C 56% 6.3 mph NNW10.1 kmh NNW 13.5 mph21.7 kmh 30.24 in1024.0 mb 0.00 in0.0 mm 0.00 in0.0 mm 0.01 in0.3 mm
06:14 PM 34.7°F1.5°C 21.0°F-6.1°C 57% 4.7 mph NNE7.6 kmh NNE 13.5 mph21.7 kmh 30.24 in1024.0 mb 0.00 in0.0 mm 0.00 in0.0 mm 0.01 in0.3 mm
06:15 PM 34.7°F1.5°C 21.5°F-5.8°C 58% 4.7 mph NE7.6 kmh NE 13.5 mph21.7 kmh 30.24 in1024.0 mb 0.00 in0.0 mm 0.00 in0.0 mm 0.01 in0.3 mm
06:16 PM 34.7°F1.5°C 21.5°F-5.8°C 58% 8.9 mph SSE14.3 kmh SSE 13.5 mph21.7 kmh 30.24 in1024.0 mb 0.00 in0.0 mm 0.00 in0.0 mm 0.01 in0.3 mm
06:17 PM 34.7°F1.5°C 21.0°F-6.1°C 57% 5.3 mph SSW8.5 kmh SSW 10.9 mph17.5 kmh 30.25 in1024.4 mb 0.00 in0.0 mm 0.00 in0.0 mm 0.01 in0.3 mm
06:18 PM 34.7°F1.5°C 21.0°F-6.1°C 57% 2.7 mph W4.3 kmh W 10.9 mph17.5 kmh 30.25 in1024.4 mb 0.00 in0.0 mm 0.00 in0.0 mm 0.01 in0.3 mm
06:19 PM 34.7°F1.5°C 21.0°F-6.1°C 57% 10.4 mph NNW16.7 kmh NNW 10.9 mph17.5 kmh 30.25 in1024.4 mb 0.00 in0.0 mm 0.00 in0.0 mm 0.01 in0.3 mm
06:20 PM 34.5°F1.4°C 20.4°F-6.4°C 56% 8.9 mph NNE14.3 kmh NNE 10.9 mph17.5 kmh 30.25 in1024.4 mb 0.00 in0.0 mm 0.00 in0.0 mm 0.01 in0.3 mm
06:21 PM 34.5°F1.4°C 20.4°F-6.4°C 56% 5.8 mph NNE9.3 kmh NNE 10.9 mph17.5 kmh 30.25 in1024.4 mb 0.00 in0.0 mm 0.00 in0.0 mm 0.01 in0.3 mm
06:22 PM 34.3°F1.3°C 20.3°F-6.5°C 56% 8.3 mph ESE13.4 kmh ESE 10.9 mph17.5 kmh 30.25 in1024.4 mb 0.00 in0.0 mm 0.00 in0.0 mm 0.01 in0.3 mm
06:23 PM 34.3°F1.3°C 20.3°F-6.5°C 56% 8.3 mph NNE13.4 kmh NNE 10.9 mph17.5 kmh 30.25 in1024.4 mb 0.00 in0.0 mm 0.00 in0.0 mm 0.01 in0.3 mm
06:24 PM 34.3°F1.3°C 20.3°F-6.5°C 56% 10.4 mph ESE16.7 kmh ESE 10.9 mph17.5 kmh 30.25 in1024.4 mb 0.00 in0.0 mm 0.00 in0.0 mm 0.01 in0.3 mm
06:25 PM 34.3°F1.3°C 20.3°F-6.5°C 56% 5.8 mph ESE9.3 kmh ESE 10.9 mph17.5 kmh 30.25 in1024.4 mb 0.00 in0.0 mm 0.00 in0.0 mm 0.01 in0.3 mm
06:26 PM 34.3°F1.3°C 20.3°F-6.5°C 56% 5.3 mph SSE8.5 kmh SSE 10.9 mph17.5 kmh 30.25 in1024.4 mb 0.00 in0.0 mm 0.00 in0.0 mm 0.01 in0.3 mm
06:27 PM 34.3°F1.3°C 20.3°F-6.5°C 56% 8.3 mph NNE13.4 kmh NNE 10.9 mph17.5 kmh 30.25 in1024.4 mb 0.00 in0.0 mm 0.00 in0.0 mm 0.01 in0.3 mm
06:28 PM 34.2°F1.2°C 19.7°F-6.8°C 55% 7.8 mph NE12.6 kmh NE 10.9 mph17.5 kmh 30.26 in1024.7 mb 0.00 in0.0 mm 0.00 in0.0 mm 0.01 in0.3 mm
06:29 PM 34.2°F1.2°C 19.3°F-7.1°C 54% 7.8 mph NNE12.6 kmh NNE 10.9 mph17.5 kmh 30.26 in1024.7 mb 0.00 in0.0 mm 0.00 in0.0 mm 0.01 in0.3 mm
06:30 PM 34.2°F1.2°C 19.3°F-7.1°C 54% 15.5 mph NE24.9 kmh NE 15.5 mph24.9 kmh 30.26 in1024.7 mb 0.00 in0.0 mm 0.00 in0.0 mm 0.01 in0.3 mm
06:31 PM 34.2°F1.2°C 19.3°F-7.1°C 54% 6.3 mph NNW10.1 kmh NNW 15.5 mph24.9 kmh 30.26 in1024.7 mb 0.00 in0.0 mm 0.00 in0.0 mm 0.01 in0.3 mm
06:32 PM 34.2°F1.2°C 19.3°F-7.1°C 54% 9.4 mph NNE15.1 kmh NNE 15.5 mph24.9 kmh 30.26 in1024.7 mb 0.00 in0.0 mm 0.00 in0.0 mm 0.01 in0.3 mm
06:33 PM 34.2°F1.2°C 19.3°F-7.1°C 54% 3.7 mph NNE6.0 kmh NNE 15.5 mph24.9 kmh 30.26 in1024.7 mb 0.00 in0.0 mm 0.00 in0.0 mm 0.01 in0.3 mm
06:34 PM 34.0°F1.1°C 19.6°F-6.9°C 55% 5.3 mph NE8.5 kmh NE 15.5 mph24.9 kmh 30.26 in1024.7 mb 0.00 in0.0 mm 0.00 in0.0 mm 0.01 in0.3 mm
06:35 PM 34.0°F1.1°C 19.6°F-6.9°C 55% 6.3 mph NNW10.1 kmh NNW 15.5 mph24.9 kmh 30.26 in1024.7 mb 0.00 in0.0 mm 0.00 in0.0 mm 0.01 in0.3 mm
06:36 PM 34.0°F1.1°C 19.6°F-6.9°C 55% 8.3 mph NNW13.4 kmh NNW 15.5 mph24.9 kmh 30.26 in1024.7 mb 0.00 in0.0 mm 0.00 in0.0 mm 0.01 in0.3 mm
06:37 PM 33.8°F1.0°C 19.4°F-7.0°C 55% 4.7 mph E7.6 kmh E 15.5 mph24.9 kmh 30.26 in1024.7 mb 0.00 in0.0 mm 0.00 in0.0 mm 0.01 in0.3 mm
06:38 PM 33.8°F1.0°C 19.4°F-7.0°C 55% 5.3 mph ENE8.5 kmh ENE 15.5 mph24.9 kmh 30.26 in1024.7 mb 0.00 in0.0 mm 0.00 in0.0 mm 0.01 in0.3 mm
06:39 PM 33.8°F1.0°C 19.4°F-7.0°C 55% 7.8 mph NE12.6 kmh NE 15.5 mph24.9 kmh 30.26 in1024.7 mb 0.00 in0.0 mm 0.00 in0.0 mm 0.01 in0.3 mm
06:40 PM 33.8°F1.0°C 19.4°F-7.0°C 55% 8.3 mph N13.4 kmh N 15.0 mph24.1 kmh 30.26 in1024.7 mb 0.00 in0.0 mm 0.00 in0.0 mm 0.01 in0.3 mm
06:46 PM 33.8°F1.0°C 19.4°F-7.0°C 55% 11.4 mph NE18.3 kmh NE 11.4 mph18.3 kmh 30.27 in1025.1 mb 0.00 in0.0 mm 0.00 in0.0 mm 0.01 in0.3 mm
06:47 PM 33.4°F0.8°C 17.7°F-7.9°C 52% 11.4 mph NNE18.3 kmh NNE 14.5 mph23.3 kmh 30.27 in1025.1 mb 0.00 in0.0 mm 0.00 in0.0 mm 0.01 in0.3 mm
06:48 PM 33.4°F0.8°C 17.7°F-7.9°C 52% 8.9 mph NE14.3 kmh NE 14.5 mph23.3 kmh 30.27 in1025.1 mb 0.00 in0.0 mm 0.00 in0.0 mm 0.01 in0.3 mm
06:49 PM 33.4°F0.8°C 18.1°F-7.7°C 53% 8.3 mph NNE13.4 kmh NNE 14.5 mph23.3 kmh 30.27 in1025.1 mb 0.00 in0.0 mm 0.00 in0.0 mm 0.01 in0.3 mm
06:50 PM 33.4°F0.8°C 18.1°F-7.7°C 53% 7.8 mph NNE12.6 kmh NNE 14.5 mph23.3 kmh 30.27 in1025.1 mb 0.00 in0.0 mm 0.00 in0.0 mm 0.01 in0.3 mm
06:51 PM 33.3°F0.7°C 18.0°F-7.8°C 53% 5.3 mph NE8.5 kmh NE 14.5 mph23.3 kmh 30.27 in1025.1 mb 0.00 in0.0 mm 0.00 in0.0 mm 0.01 in0.3 mm
06:52 PM 33.3°F0.7°C 18.0°F-7.8°C 53% 8.9 mph NNE14.3 kmh NNE 14.5 mph23.3 kmh 30.27 in1025.1 mb 0.00 in0.0 mm 0.00 in0.0 mm 0.01 in0.3 mm
06:53 PM 33.3°F0.7°C 18.0°F-7.8°C 53% 5.8 mph NE9.3 kmh NE 14.5 mph23.3 kmh 30.28 in1025.4 mb 0.00 in0.0 mm 0.00 in0.0 mm 0.01 in0.3 mm
06:54 PM 33.3°F0.7°C 18.0°F-7.8°C 53% 4.2 mph ESE6.8 kmh ESE 14.5 mph23.3 kmh 30.28 in1025.4 mb 0.00 in0.0 mm 0.00 in0.0 mm 0.01 in0.3 mm
06:55 PM 33.1°F0.6°C 17.9°F-7.8°C 53% 6.8 mph NNE10.9 kmh NNE 14.5 mph23.3 kmh 30.28 in1025.4 mb 0.00 in0.0 mm 0.00 in0.0 mm 0.01 in0.3 mm
06:56 PM 33.1°F0.6°C 17.4°F-8.1°C 52% 7.3 mph NE11.7 kmh NE 14.5 mph23.3 kmh 30.28 in1025.4 mb 0.00 in0.0 mm 0.00 in0.0 mm 0.01 in0.3 mm
06:57 PM 33.1°F0.6°C 17.4°F-8.1°C 52% 7.8 mph NNE12.6 kmh NNE 11.4 mph18.3 kmh 30.28 in1025.4 mb 0.00 in0.0 mm 0.00 in0.0 mm 0.01 in0.3 mm
06:58 PM 33.1°F0.6°C 17.4°F-8.1°C 52% 9.4 mph N15.1 kmh N 11.4 mph18.3 kmh 30.28 in1025.4 mb 0.00 in0.0 mm 0.00 in0.0 mm 0.01 in0.3 mm
06:59 PM 32.9°F0.5°C 17.2°F-8.2°C 52% 5.3 mph NNW8.5 kmh NNW 10.4 mph16.7 kmh 30.28 in1025.4 mb 0.00 in0.0 mm 0.00 in0.0 mm 0.01 in0.3 mm
07:00 PM 32.9°F0.5°C 17.2°F-8.2°C 52% 6.3 mph NE10.1 kmh NE 10.4 mph16.7 kmh 30.28 in1025.4 mb 0.00 in0.0 mm 0.00 in0.0 mm 0.01 in0.3 mm
07:01 PM 32.7°F0.4°C 17.9°F-7.8°C 54% 5.8 mph SSW9.3 kmh SSW 10.4 mph16.7 kmh 30.28 in1025.4 mb 0.00 in0.0 mm 0.00 in0.0 mm 0.01 in0.3 mm
07:02 PM 32.7°F0.4°C 17.5°F-8.1°C 53% 4.2 mph SSW6.8 kmh SSW 10.4 mph16.7 kmh 30.28 in1025.4 mb 0.00 in0.0 mm 0.00 in0.0 mm 0.01 in0.3 mm
07:03 PM 32.7°F0.4°C 17.5°F-8.1°C 53% 7.8 mph N12.6 kmh N 10.4 mph16.7 kmh 30.28 in1025.4 mb 0.00 in0.0 mm 0.00 in0.0 mm 0.01 in0.3 mm
07:04 PM 32.7°F0.4°C 17.0°F-8.3°C 52% 6.8 mph ENE10.9 kmh ENE 10.4 mph16.7 kmh 30.28 in1025.4 mb 0.00 in0.0 mm 0.00 in0.0 mm 0.01 in0.3 mm
07:05 PM 32.5°F0.3°C 16.4°F-8.7°C 51% 6.3 mph N10.1 kmh N 10.9 mph17.5 kmh 30.30 in1026.1 mb 0.00 in0.0 mm 0.00 in0.0 mm 0.01 in0.3 mm
07:06 PM 32.5°F0.3°C 16.4°F-8.7°C 51% 5.3 mph SW8.5 kmh SW 10.9 mph17.5 kmh 30.30 in1026.1 mb 0.00 in0.0 mm 0.00 in0.0 mm 0.01 in0.3 mm
07:07 PM 32.4°F0.2°C 15.9°F-8.9°C 50% 8.3 mph N13.4 kmh N 14.5 mph23.3 kmh 30.30 in1026.1 mb 0.00 in0.0 mm 0.00 in0.0 mm 0.01 in0.3 mm
07:08 PM 32.4°F0.2°C 15.9°F-8.9°C 50% 7.8 mph NNE12.6 kmh NNE 14.5 mph23.3 kmh 30.30 in1026.1 mb 0.00 in0.0 mm 0.00 in0.0 mm 0.01 in0.3 mm
07:09 PM 32.4°F0.2°C 15.4°F-9.2°C 49% 5.8 mph NE9.3 kmh NE 14.5 mph23.3 kmh 30.30 in1026.1 mb 0.00 in0.0 mm 0.00 in0.0 mm 0.01 in0.3 mm
07:10 PM 32.4°F0.2°C 15.4°F-9.2°C 49% 9.4 mph NE15.1 kmh NE 14.5 mph23.3 kmh 30.30 in1026.1 mb 0.00 in0.0 mm 0.00 in0.0 mm 0.01 in0.3 mm
07:11 PM 32.2°F0.1°C 14.7°F-9.6°C 48% 10.9 mph NNE17.5 kmh NNE 14.5 mph23.3 kmh 30.30 in1026.1 mb 0.00 in0.0 mm 0.00 in0.0 mm 0.01 in0.3 mm
07:12 PM 32.2°F0.1°C 14.7°F-9.6°C 48% 4.7 mph NNE7.6 kmh NNE 14.5 mph23.3 kmh 30.30 in1026.1 mb 0.00 in0.0 mm 0.00 in0.0 mm 0.01 in0.3 mm
07:13 PM 32.2°F0.1°C 14.7°F-9.6°C 48% 9.9 mph NNE15.9 kmh NNE 14.5 mph23.3 kmh 30.30 in1026.1 mb 0.00 in0.0 mm 0.00 in0.0 mm 0.01 in0.3 mm
07:14 PM 32.2°F0.1°C 14.7°F-9.6°C 48% 11.4 mph N18.3 kmh N 14.5 mph23.3 kmh 30.30 in1026.1 mb 0.00 in0.0 mm 0.00 in0.0 mm 0.01 in0.3 mm
07:15 PM 32.2°F0.1°C 15.2°F-9.3°C 49% 13.5 mph NNE21.7 kmh NNE 14.5 mph23.3 kmh 30.30 in1026.1 mb 0.00 in0.0 mm 0.00 in0.0 mm 0.01 in0.3 mm
07:16 PM 32.2°F0.1°C 14.3°F-9.8°C 47% 10.4 mph N16.7 kmh N 14.5 mph23.3 kmh 30.30 in1026.1 mb 0.00 in0.0 mm 0.00 in0.0 mm 0.01 in0.3 mm
07:17 PM 32.2°F0.1°C 14.3°F-9.8°C 47% 6.8 mph NNE10.9 kmh NNE 14.5 mph23.3 kmh 30.30 in1026.1 mb 0.00 in0.0 mm 0.00 in0.0 mm 0.01 in0.3 mm
07:18 PM 32.2°F0.1°C 14.3°F-9.8°C 47% 7.3 mph N11.7 kmh N 14.5 mph23.3 kmh 30.30 in1026.1 mb 0.00 in0.0 mm 0.00 in0.0 mm 0.01 in0.3 mm
07:19 PM 32.0°F0.0°C 14.6°F-9.7°C 48% 6.8 mph ENE10.9 kmh ENE 14.5 mph23.3 kmh 30.30 in1026.1 mb 0.00 in0.0 mm 0.00 in0.0 mm 0.01 in0.3 mm
07:20 PM 32.0°F0.0°C 15.0°F-9.4°C 49% 9.4 mph NNE15.1 kmh NNE 14.5 mph23.3 kmh 30.30 in1026.1 mb 0.00 in0.0 mm 0.00 in0.0 mm 0.01 in0.3 mm
07:21 PM 32.0°F0.0°C 15.0°F-9.4°C 49% 9.9 mph NNE15.9 kmh NNE 14.0 mph22.5 kmh 30.30 in1026.1 mb 0.00 in0.0 mm 0.00 in0.0 mm 0.01 in0.3 mm
07:22 PM 32.0°F0.0°C 15.0°F-9.4°C 49% 7.8 mph NNE12.6 kmh NNE 14.0 mph22.5 kmh 30.30 in1026.1 mb 0.00 in0.0 mm 0.00 in0.0 mm 0.01 in0.3 mm
07:23 PM 32.0°F0.0°C 14.6°F-9.7°C 48% 9.9 mph NE15.9 kmh NE 13.5 mph21.7 kmh 30.30 in1026.1 mb 0.00 in0.0 mm 0.00 in0.0 mm 0.01 in0.3 mm
07:24 PM 31.8°F-0.1°C 14.4°F-9.8°C 48% 8.3 mph NNE13.4 kmh NNE 13.5 mph21.7 kmh 30.30 in1026.1 mb 0.00 in0.0 mm 0.00 in0.0 mm 0.01 in0.3 mm
07:25 PM 31.8°F-0.1°C 14.4°F-9.8°C 48% 4.7 mph N7.6 kmh N 13.0 mph20.9 kmh 30.30 in1026.1 mb 0.00 in0.0 mm 0.00 in0.0 mm 0.01 in0.3 mm
07:26 PM 31.8°F-0.1°C 14.8°F-9.6°C 49% 4.7 mph SE7.6 kmh SE 11.9 mph19.2 kmh 30.30 in1026.1 mb 0.00 in0.0 mm 0.00 in0.0 mm 0.01 in0.3 mm
07:27 PM 31.6°F-0.2°C 14.7°F-9.6°C 49% 8.9 mph E14.3 kmh E 11.4 mph18.3 kmh 30.30 in1026.1 mb 0.00 in0.0 mm 0.00 in0.0 mm 0.01 in0.3 mm
07:28 PM 31.6°F-0.2°C 14.7°F-9.6°C 49% 10.4 mph NNE16.7 kmh NNE 11.4 mph18.3 kmh 30.31 in1026.4 mb 0.00 in0.0 mm 0.00 in0.0 mm 0.01 in0.3 mm
07:29 PM 31.6°F-0.2°C 14.7°F-9.6°C 49% 9.9 mph NNE15.9 kmh NNE 11.4 mph18.3 kmh 30.31 in1026.4 mb 0.00 in0.0 mm 0.00 in0.0 mm 0.01 in0.3 mm
07:30 PM 31.6°F-0.2°C 14.7°F-9.6°C 49% 7.8 mph NNE12.6 kmh NNE 11.4 mph18.3 kmh 30.31 in1026.4 mb 0.00 in0.0 mm 0.00 in0.0 mm 0.01 in0.3 mm
07:31 PM 31.6°F-0.2°C 14.7°F-9.6°C 49% 5.8 mph NNE9.3 kmh NNE 11.4 mph18.3 kmh 30.31 in1026.4 mb 0.00 in0.0 mm 0.00 in0.0 mm 0.01 in0.3 mm
07:32 PM 31.6°F-0.2°C 14.7°F-9.6°C 49% 10.9 mph W17.5 kmh W 11.4 mph18.3 kmh 30.31 in1026.4 mb 0.00 in0.0 mm 0.00 in0.0 mm 0.01 in0.3 mm
07:33 PM 31.6°F-0.2°C 14.7°F-9.6°C 49% 9.9 mph N15.9 kmh N 10.9 mph17.5 kmh 30.31 in1026.4 mb 0.00 in0.0 mm 0.00 in0.0 mm 0.01 in0.3 mm
07:34 PM 31.5°F-0.3°C 14.6°F-9.7°C 49% 10.9 mph NNE17.5 kmh NNE 10.9 mph17.5 kmh 30.31 in1026.4 mb 0.00 in0.0 mm 0.00 in0.0 mm 0.01 in0.3 mm
07:35 PM 31.5°F-0.3°C 14.6°F-9.7°C 49% 4.7 mph NNE7.6 kmh NNE 10.9 mph17.5 kmh 30.31 in1026.4 mb 0.00 in0.0 mm 0.00 in0.0 mm 0.01 in0.3 mm
07:36 PM 31.5°F-0.3°C 14.6°F-9.7°C 49% 12.5 mph NNE20.1 kmh NNE 13.0 mph20.9 kmh 30.31 in1026.4 mb 0.00 in0.0 mm 0.00 in0.0 mm 0.01 in0.3 mm
07:37 PM 31.5°F-0.3°C 14.6°F-9.7°C 49% 7.8 mph NE12.6 kmh NE 13.0 mph20.9 kmh 30.31 in1026.4 mb 0.00 in0.0 mm 0.00 in0.0 mm 0.01 in0.3 mm
07:38 PM 31.5°F-0.3°C 14.6°F-9.7°C 49% 7.3 mph NNE11.7 kmh NNE 13.0 mph20.9 kmh 30.31 in1026.4 mb 0.00 in0.0 mm 0.00 in0.0 mm 0.01 in0.3 mm
07:39 PM 31.3°F-0.4°C 14.4°F-9.8°C 49% 8.3 mph N13.4 kmh N 13.0 mph20.9 kmh 30.31 in1026.4 mb 0.00 in0.0 mm 0.00 in0.0 mm 0.01 in0.3 mm
07:40 PM 31.3°F-0.4°C 14.4°F-9.8°C 49% 9.4 mph N15.1 kmh N 13.0 mph20.9 kmh 30.31 in1026.4 mb 0.00 in0.0 mm 0.00 in0.0 mm 0.01 in0.3 mm
07:41 PM 31.3°F-0.4°C 14.4°F-9.8°C 49% 6.8 mph N10.9 kmh N 13.0 mph20.9 kmh 30.32 in1026.8 mb 0.00 in0.0 mm 0.00 in0.0 mm 0.01 in0.3 mm
07:42 PM 31.3°F-0.4°C 14.4°F-9.8°C 49% 8.9 mph NE14.3 kmh NE 13.0 mph20.9 kmh 30.32 in1026.8 mb 0.00 in0.0 mm 0.00 in0.0 mm 0.01 in0.3 mm
07:43 PM 31.3°F-0.4°C 14.4°F-9.8°C 49% 9.9 mph E15.9 kmh E 13.0 mph20.9 kmh 30.32 in1026.8 mb 0.00 in0.0 mm 0.00 in0.0 mm 0.01 in0.3 mm
07:44 PM 31.1°F-0.5°C 14.7°F-9.6°C 50% 6.3 mph ESE10.1 kmh ESE 13.0 mph20.9 kmh 30.32 in1026.8 mb 0.00 in0.0 mm 0.00 in0.0 mm 0.01 in0.3 mm
07:45 PM 31.1°F-0.5°C 14.7°F-9.6°C 50% 8.9 mph NNW14.3 kmh NNW 13.0 mph20.9 kmh 30.32 in1026.8 mb 0.00 in0.0 mm 0.00 in0.0 mm 0.01 in0.3 mm
07:46 PM 31.1°F-0.5°C 14.7°F-9.6°C 50% 9.9 mph NE15.9 kmh NE 12.5 mph20.1 kmh 30.32 in1026.8 mb 0.00 in0.0 mm 0.00 in0.0 mm 0.01 in0.3 mm
07:47 PM 31.1°F-0.5°C 14.7°F-9.6°C 50% 11.9 mph NNE19.2 kmh NNE 12.5 mph20.1 kmh 30.32 in1026.8 mb 0.00 in0.0 mm 0.00 in0.0 mm 0.01 in0.3 mm
07:48 PM 31.1°F-0.5°C 14.7°F-9.6°C 50% 14.5 mph S23.3 kmh S 14.5 mph23.3 kmh 30.32 in1026.8 mb 0.00 in0.0 mm 0.00 in0.0 mm 0.01 in0.3 mm
07:49 PM 30.9°F-0.6°C 14.0°F-10.0°C 49% 9.4 mph ENE15.1 kmh ENE 14.5 mph23.3 kmh 30.32 in1026.8 mb 0.00 in0.0 mm 0.00 in0.0 mm 0.01 in0.3 mm
07:50 PM 30.9°F-0.6°C 14.0°F-10.0°C 49% 10.9 mph NNE17.5 kmh NNE 14.5 mph23.3 kmh 30.32 in1026.8 mb 0.00 in0.0 mm 0.00 in0.0 mm 0.01 in0.3 mm
07:51 PM 30.9°F-0.6°C 14.0°F-10.0°C 49% 11.9 mph NNW19.2 kmh NNW 14.5 mph23.3 kmh 30.32 in1026.8 mb 0.00 in0.0 mm 0.00 in0.0 mm 0.01 in0.3 mm
07:52 PM 30.9°F-0.6°C 14.0°F-10.0°C 49% 8.3 mph NE13.4 kmh NE 14.5 mph23.3 kmh 30.33 in1027.1 mb 0.00 in0.0 mm 0.00 in0.0 mm 0.01 in0.3 mm
07:53 PM 30.7°F-0.7°C 13.8°F-10.1°C 49% 9.9 mph ENE15.9 kmh ENE 14.5 mph23.3 kmh 30.33 in1027.1 mb 0.00 in0.0 mm 0.00 in0.0 mm 0.01 in0.3 mm
07:54 PM 30.7°F-0.7°C 13.8°F-10.1°C 49% 5.3 mph NNE8.5 kmh NNE 14.5 mph23.3 kmh 30.33 in1027.1 mb 0.00 in0.0 mm 0.00 in0.0 mm 0.01 in0.3 mm
07:55 PM 30.7°F-0.7°C 13.8°F-10.1°C 49% 13.5 mph E21.7 kmh E 14.5 mph23.3 kmh 30.33 in1027.1 mb 0.00 in0.0 mm 0.00 in0.0 mm 0.01 in0.3 mm
07:56 PM 30.7°F-0.7°C 14.3°F-9.8°C 50% 8.3 mph NNE13.4 kmh NNE 14.5 mph23.3 kmh 30.33 in1027.1 mb 0.00 in0.0 mm 0.00 in0.0 mm 0.01 in0.3 mm
07:57 PM 30.6°F-0.8°C 14.2°F-9.9°C 50% 8.9 mph NNE14.3 kmh NNE 14.5 mph23.3 kmh 30.33 in1027.1 mb 0.00 in0.0 mm 0.00 in0.0 mm